Time,TemperatureF,DewpointF,PressureIn,WindDirection,WindDirectionDegrees,WindSpeedMPH,WindSpeedGustMPH,Humidity,HourlyPrecipIn,Conditions,Clouds,dailyrainin,SolarRadiationWatts/m^2,SoftwareType,DateUTC
2013-12-19 00:00:00,26.4,23.1,30.19,WNW,301,0.0,0.0,87,0.00,,,0.00,0.00,VWS V14.01,2013-12-19 05:00:00,
2013-12-19 00:01:00,26.4,23.1,30.19,WNW,301,0.0,0.0,87,0.00,,,0.00,0.00,VWS V14.01,2013-12-19 05:01:00,
2013-12-19 00:02:00,26.4,23.1,30.19,WNW,301,0.0,0.0,87,0.00,,,0.00,0.00,VWS V14.01,2013-12-19 05:02:00,
2013-12-19 00:03:00,26.4,23.1,30.19,WNW,301,0.0,0.0,87,0.00,,,0.00,0.00,VWS V14.01,2013-12-19 05:03:00,
2013-12-19 00:04:00,26.4,23.1,30.19,WNW,301,0.0,0.0,87,0.00,,,0.00,0.00,VWS V14.01,2013-12-19 05:04:00,
2013-12-19 00:05:00,26.4,23.1,30.19,WNW,301,0.0,0.0,87,0.00,,,0.00,0.00,VWS V14.01,2013-12-19 05:05:00,
2013-12-19 00:06:00,26.4,23.1,30.19,WNW,301,0.0,0.0,87,0.00,,,0.00,0.00,VWS V14.01,2013-12-19 05:06:00,
2013-12-19 00:07:00,26.4,23.1,30.19,WNW,301,0.0,0.0,87,0.00,,,0.00,0.00,VWS V14.01,2013-12-19 05:07:00,
2013-12-19 00:08:00,26.4,23.1,30.19,WNW,301,0.0,0.0,87,0.00,,,0.00,0.00,VWS V14.01,2013-12-19 05:08:00,
2013-12-19 00:09:00,26.4,23.1,30.19,WNW,301,0.0,0.0,87,0.00,,,0.00,0.00,VWS V14.01,2013-12-19 05:09:00,
2013-12-19 00:10:00,26.3,23.0,30.19,WNW,301,0.0,0.0,87,0.00,,,0.00,0.00,VWS V14.01,2013-12-19 05:10:00,
2013-12-19 00:11:00,26.3,23.0,30.19,WNW,301,0.0,0.0,87,0.00,,,0.00,0.00,VWS V14.01,2013-12-19 05:11:00,
2013-12-19 00:12:00,26.3,23.0,30.19,WNW,301,0.0,0.0,87,0.00,,,0.00,0.00,VWS V14.01,2013-12-19 05:12:00,
2013-12-19 00:13:00,26.3,23.0,30.19,WNW,301,0.0,0.0,87,0.00,,,0.00,0.00,VWS V14.01,2013-12-19 05:13:00,
2013-12-19 00:14:00,26.3,23.0,30.19,WNW,301,0.0,0.0,87,0.00,,,0.00,0.00,VWS V14.01,2013-12-19 05:14:00,
2013-12-19 00:15:00,26.3,23.0,30.19,WNW,301,0.0,0.0,87,0.00,,,0.00,0.00,VWS V14.01,2013-12-19 05:15:00,
2013-12-19 00:16:00,26.1,22.8,30.19,WNW,301,0.0,0.0,87,0.00,,,0.00,0.00,VWS V14.01,2013-12-19 05:16:00,
2013-12-19 00:17:00,26.1,22.8,30.19,WNW,301,0.0,0.0,87,0.00,,,0.00,0.00,VWS V14.01,2013-12-19 05:17:00,
2013-12-19 00:18:00,26.1,22.8,30.19,WNW,301,0.0,0.0,87,0.00,,,0.00,0.00,VWS V14.01,2013-12-19 05:18:00,
2013-12-19 00:19:00,26.1,22.8,30.19,WNW,301,0.0,0.0,87,0.00,,,0.00,0.00,VWS V14.01,2013-12-19 05:19:00,
2013-12-19 00:20:00,26.1,22.8,30.19,WNW,301,0.0,0.0,87,0.00,,,0.00,0.00,VWS V14.01,2013-12-19 05:20:00,
2013-12-19 00:21:00,26.0,22.7,30.19,WNW,301,0.0,0.0,87,0.00,,,0.00,0.00,VWS V14.01,2013-12-19 05:21:00,
2013-12-19 00:22:00,26.0,22.7,30.19,WNW,301,0.0,0.0,87,0.00,,,0.00,0.00,VWS V14.01,2013-12-19 05:22:00,
2013-12-19 00:23:00,26.0,22.7,30.19,WNW,301,0.0,0.0,87,0.00,,,0.00,0.00,VWS V14.01,2013-12-19 05:23:00,
2013-12-19 00:24:00,26.0,22.7,30.19,WNW,301,0.0,0.0,87,0.00,,,0.00,0.00,VWS V14.01,2013-12-19 05:24:00,
2013-12-19 00:25:00,26.0,22.7,30.19,WNW,301,0.0,0.0,87,0.00,,,0.00,0.00,VWS V14.01,2013-12-19 05:25:00,
2013-12-19 00:26:00,26.0,22.7,30.19,WNW,301,0.0,0.0,87,0.00,,,0.00,0.00,VWS V14.01,2013-12-19 05:26:00,
2013-12-19 00:27:00,26.0,22.7,30.19,WNW,301,0.0,0.0,87,0.00,,,0.00,0.00,VWS V14.01,2013-12-19 05:27:00,
2013-12-19 00:28:00,26.0,22.7,30.19,WNW,301,0.0,0.0,87,0.00,,,0.00,0.00,VWS V14.01,2013-12-19 05:28:00,
2013-12-19 00:29:00,26.0,22.7,30.19,WNW,301,0.0,0.0,87,0.00,,,0.00,0.00,VWS V14.01,2013-12-19 05:29:00,
2013-12-19 00:30:00,26.0,22.7,30.19,WNW,301,0.0,0.0,87,0.00,,,0.00,0.00,VWS V14.01,2013-12-19 05:30:00,
2013-12-19 00:31:00,26.0,22.7,30.19,WNW,301,0.0,0.0,87,0.00,,,0.00,0.00,VWS V14.01,2013-12-19 05:31:00,
2013-12-19 00:32:00,26.0,22.7,30.19,WNW,301,0.0,0.0,87,0.00,,,0.00,0.00,VWS V14.01,2013-12-19 05:32:00,
2013-12-19 00:33:00,26.0,22.7,30.19,WNW,301,0.0,0.0,87,0.00,,,0.00,0.00,VWS V14.01,2013-12-19 05:33:00,
2013-12-19 00:34:00,26.0,22.7,30.19,WNW,301,0.0,0.0,87,0.00,,,0.00,0.00,VWS V14.01,2013-12-19 05:34:00,
2013-12-19 00:35:00,25.8,22.5,30.19,WNW,301,0.0,0.0,87,0.00,,,0.00,0.00,VWS V14.01,2013-12-19 05:35:00,
2013-12-19 00:36:00,25.8,22.5,30.19,WNW,301,0.0,0.0,87,0.00,,,0.00,0.00,VWS V14.01,2013-12-19 05:36:00,
2013-12-19 00:37:00,25.8,22.5,30.19,WNW,301,0.0,0.0,87,0.00,,,0.00,0.00,VWS V14.01,2013-12-19 05:37:00,
2013-12-19 00:38:00,25.8,22.5,30.19,WNW,301,0.0,0.0,87,0.00,,,0.00,0.00,VWS V14.01,2013-12-19 05:38:00,
2013-12-19 00:39:00,25.8,22.5,30.19,WNW,301,0.0,0.0,87,0.00,,,0.00,0.00,VWS V14.01,2013-12-19 05:39:00,
2013-12-19 00:40:00,25.8,22.5,30.19,WNW,301,0.0,0.0,87,0.00,,,0.00,0.00,VWS V14.01,2013-12-19 05:40:00,
2013-12-19 00:41:00,25.8,22.5,30.19,WNW,301,0.0,0.0,87,0.00,,,0.00,0.00,VWS V14.01,2013-12-19 05:41:00,
2013-12-19 00:42:00,25.8,22.5,30.19,WNW,301,0.0,0.0,87,0.00,,,0.00,0.00,VWS V14.01,2013-12-19 05:42:00,
2013-12-19 00:43:00,25.8,22.5,30.19,WNW,301,0.0,0.0,87,0.00,,,0.00,0.00,VWS V14.01,2013-12-19 05:43:00,
2013-12-19 00:44:00,25.7,22.4,30.19,WNW,301,0.0,0.0,87,0.00,,,0.00,0.00,VWS V14.01,2013-12-19 05:44:00,
2013-12-19 00:45:00,25.7,22.4,30.19,WNW,301,0.0,0.0,87,0.00,,,0.00,0.00,VWS V14.01,2013-12-19 05:45:00,
2013-12-19 00:46:00,25.7,22.4,30.19,WNW,301,0.0,0.0,87,0.00,,,0.00,0.00,VWS V14.01,2013-12-19 05:46:00,
2013-12-19 00:47:00,25.7,22.4,30.19,WNW,301,0.0,0.0,87,0.00,,,0.00,0.00,VWS V14.01,2013-12-19 05:47:00,
2013-12-19 00:48:00,25.7,22.4,30.19,WNW,301,0.0,0.0,87,0.00,,,0.00,0.00,VWS V14.01,2013-12-19 05:48:00,
2013-12-19 00:49:00,25.6,22.3,30.19,WNW,301,0.0,0.0,87,0.00,,,0.00,0.00,VWS V14.01,2013-12-19 05:49:00,
2013-12-19 00:50:00,25.6,22.3,30.19,WNW,301,0.0,0.0,87,0.00,,,0.00,0.00,VWS V14.01,2013-12-19 05:50:00,
2013-12-19 00:51:00,25.6,22.3,30.19,WNW,301,0.0,0.0,87,0.00,,,0.00,0.00,VWS V14.01,2013-12-19 05:51:00,
2013-12-19 00:52:00,25.6,22.3,30.19,WNW,301,0.0,0.0,87,0.00,,,0.00,0.00,VWS V14.01,2013-12-19 05:52:00,
2013-12-19 00:53:00,25.7,22.4,30.19,WNW,301,0.0,0.0,87,0.00,,,0.00,0.00,VWS V14.01,2013-12-19 05:53:00,
2013-12-19 00:54:00,25.7,22.4,30.19,WNW,301,0.0,0.0,87,0.00,,,0.00,0.00,VWS V14.01,2013-12-19 05:54:00,
2013-12-19 00:55:00,25.7,22.4,30.19,WNW,301,0.0,0.0,87,0.00,,,0.00,0.00,VWS V14.01,2013-12-19 05:55:00,
2013-12-19 00:56:00,25.7,22.6,30.19,WNW,301,0.0,0.0,88,0.00,,,0.00,0.00,VWS V14.01,2013-12-19 05:56:00,
2013-12-19 00:57:00,25.8,22.7,30.19,WNW,301,0.0,0.0,88,0.00,,,0.00,0.00,VWS V14.01,2013-12-19 05:57:00,
2013-12-19 00:58:00,25.8,22.7,30.19,WNW,301,0.0,0.0,88,0.00,,,0.00,0.00,VWS V14.01,2013-12-19 05:58:00,
2013-12-19 00:59:00,25.8,22.7,30.19,WNW,301,0.0,0.0,88,0.00,,,0.00,0.00,VWS V14.01,2013-12-19 05:59:00,
2013-12-19 01:00:00,25.8,22.7,30.18,WNW,301,0.0,0.0,88,0.00,,,0.00,0.00,VWS V14.01,2013-12-19 06:00:00,
2013-12-19 01:01:00,25.8,22.7,30.18,WNW,301,0.0,0.0,88,0.00,,,0.00,0.00,VWS V14.01,2013-12-19 06:01:00,
2013-12-19 01:02:00,25.8,22.7,30.18,WNW,301,0.0,0.0,88,0.00,,,0.00,0.00,VWS V14.01,2013-12-19 06:02:00,
2013-12-19 01:03:00,25.8,22.7,30.18,WNW,301,0.0,0.0,88,0.00,,,0.00,0.00,VWS V14.01,2013-12-19 06:03:00,
2013-12-19 01:04:00,25.8,22.7,30.18,WNW,301,0.0,0.0,88,0.00,,,0.00,0.00,VWS V14.01,2013-12-19 06:04:00,
2013-12-19 01:05:00,25.8,22.7,30.18,WNW,301,0.0,0.0,88,0.00,,,0.00,0.00,VWS V14.01,2013-12-19 06:05:00,
2013-12-19 01:06:00,25.8,22.7,30.18,WNW,301,0.0,0.0,88,0.00,,,0.00,0.00,VWS V14.01,2013-12-19 06:06:00,
2013-12-19 01:07:00,25.8,22.7,30.18,WNW,301,0.0,0.0,88,0.00,,,0.00,0.00,VWS V14.01,2013-12-19 06:07:00,
2013-12-19 01:08:00,25.8,22.7,30.18,WNW,301,0.0,0.0,88,0.00,,,0.00,0.00,VWS V14.01,2013-12-19 06:08:00,
2013-12-19 01:09:00,25.8,22.7,30.18,WNW,301,0.0,0.0,88,0.00,,,0.00,0.00,VWS V14.01,2013-12-19 06:09:00,
2013-12-19 01:10:00,25.8,22.7,30.18,WNW,301,0.0,0.0,88,0.00,,,0.00,0.00,VWS V14.01,2013-12-19 06:10:00,
2013-12-19 01:11:00,25.8,22.7,30.18,WNW,301,0.0,0.0,88,0.00,,,0.00,0.00,VWS V14.01,2013-12-19 06:11:00,
2013-12-19 01:12:00,25.8,22.7,30.18,WNW,301,0.0,0.0,88,0.00,,,0.00,0.00,VWS V14.01,2013-12-19 06:12:00,
2013-12-19 01:13:00,25.7,22.6,30.18,WNW,301,0.0,0.0,88,0.00,,,0.00,0.00,VWS V14.01,2013-12-19 06:13:00,
2013-12-19 01:14:00,25.7,22.6,30.18,WNW,301,0.0,0.0,88,0.00,,,0.00,0.00,VWS V14.01,2013-12-19 06:14:00,
2013-12-19 01:15:00,25.7,22.6,30.18,WNW,301,0.0,0.0,88,0.00,,,0.00,0.00,VWS V14.01,2013-12-19 06:15:00,
2013-12-19 01:16:00,25.7,22.6,30.18,WNW,301,0.0,0.0,88,0.00,,,0.00,0.00,VWS V14.01,2013-12-19 06:16:00,
2013-12-19 01:17:00,25.7,22.6,30.18,WNW,301,0.0,0.0,88,0.00,,,0.00,0.00,VWS V14.01,2013-12-19 06:17:00,
2013-12-19 01:18:00,25.7,22.6,30.18,WNW,301,0.0,0.0,88,0.00,,,0.00,0.00,VWS V14.01,2013-12-19 06:18:00,
2013-12-19 01:19:00,25.7,22.6,30.18,WNW,301,0.0,0.0,88,0.00,,,0.00,0.00,VWS V14.01,2013-12-19 06:19:00,
2013-12-19 01:20:00,25.6,22.5,30.18,WNW,301,0.0,0.0,88,0.00,,,0.00,0.00,VWS V14.01,2013-12-19 06:20:00,
2013-12-19 01:21:00,25.6,22.5,30.18,WNW,301,0.0,0.0,88,0.00,,,0.00,0.00,VWS V14.01,2013-12-19 06:21:00,
2013-12-19 01:22:00,25.6,22.5,30.18,WNW,301,0.0,0.0,88,0.00,,,0.00,0.00,VWS V14.01,2013-12-19 06:22:00,
2013-12-19 01:23:00,25.6,22.5,30.18,WNW,301,0.0,0.0,88,0.00,,,0.00,0.00,VWS V14.01,2013-12-19 06:23:00,
2013-12-19 01:24:00,25.6,22.5,30.18,WNW,301,0.0,0.0,88,0.00,,,0.00,0.00,VWS V14.01,2013-12-19 06:24:00,
2013-12-19 01:25:00,25.6,22.5,30.18,WNW,301,0.0,0.0,88,0.00,,,0.00,0.00,VWS V14.01,2013-12-19 06:25:00,
2013-12-19 01:26:00,25.6,22.5,30.18,WNW,301,0.0,0.0,88,0.00,,,0.00,0.00,VWS V14.01,2013-12-19 06:26:00,
2013-12-19 01:27:00,25.4,22.4,30.18,WNW,301,0.0,0.0,88,0.00,,,0.00,0.00,VWS V14.01,2013-12-19 06:27:00,
2013-12-19 01:28:00,25.4,22.4,30.18,WNW,301,0.0,0.0,88,0.00,,,0.00,0.00,VWS V14.01,2013-12-19 06:28:00,
2013-12-19 01:29:00,25.4,22.4,30.18,WNW,301,0.0,0.0,88,0.00,,,0.00,0.00,VWS V14.01,2013-12-19 06:29:00,
2013-12-19 01:30:00,25.4,22.4,30.19,WNW,301,0.0,0.0,88,0.00,,,0.00,0.00,VWS V14.01,2013-12-19 06:30:00,
2013-12-19 01:31:00,25.4,22.4,30.19,WNW,301,0.0,0.0,88,0.00,,,0.00,0.00,VWS V14.01,2013-12-19 06:31:00,
2013-12-19 01:32:00,25.4,22.4,30.19,WNW,301,0.0,0.0,88,0.00,,,0.00,0.00,VWS V14.01,2013-12-19 06:32:00,
2013-12-19 01:33:00,25.4,22.4,30.19,WNW,301,0.0,0.0,88,0.00,,,0.00,0.00,VWS V14.01,2013-12-19 06:33:00,
2013-12-19 01:34:00,25.4,22.4,30.19,WNW,301,0.0,0.0,88,0.00,,,0.00,0.00,VWS V14.01,2013-12-19 06:34:00,
2013-12-19 01:35:00,25.4,22.4,30.19,WNW,301,0.0,0.0,88,0.00,,,0.00,0.00,VWS V14.01,2013-12-19 06:35:00,
2013-12-19 01:36:00,25.4,22.4,30.19,WNW,301,0.0,0.0,88,0.00,,,0.00,0.00,VWS V14.01,2013-12-19 06:36:00,
2013-12-19 01:37:00,25.4,22.4,30.19,WNW,301,0.0,0.0,88,0.00,,,0.00,0.00,VWS V14.01,2013-12-19 06:37:00,
2013-12-19 01:38:00,25.6,22.5,30.19,WNW,301,0.0,0.0,88,0.00,,,0.00,0.00,VWS V14.01,2013-12-19 06:38:00,
2013-12-19 01:39:00,25.6,22.5,30.19,WNW,301,0.0,0.0,88,0.00,,,0.00,0.00,VWS V14.01,2013-12-19 06:39:00,
2013-12-19 01:40:00,25.6,22.5,30.19,WNW,301,0.0,0.0,88,0.00,,,0.00,0.00,VWS V14.01,2013-12-19 06:40:00,
2013-12-19 01:41:00,25.6,22.5,30.19,WNW,301,0.0,0.0,88,0.00,,,0.00,0.00,VWS V14.01,2013-12-19 06:41:00,
2013-12-19 01:42:00,25.6,22.5,30.19,WNW,301,0.0,0.0,88,0.00,,,0.00,0.00,VWS V14.01,2013-12-19 06:42:00,
2013-12-19 01:43:00,25.6,22.5,30.19,WNW,301,0.0,0.0,88,0.00,,,0.00,0.00,VWS V14.01,2013-12-19 06:43:00,
2013-12-19 01:44:00,25.6,22.5,30.19,WNW,301,0.0,0.0,88,0.00,,,0.00,0.00,VWS V14.01,2013-12-19 06:44:00,
2013-12-19 01:45:00,25.6,22.5,30.19,WNW,301,0.0,0.0,88,0.00,,,0.00,0.00,VWS V14.01,2013-12-19 06:45:00,
2013-12-19 01:46:00,25.6,22.5,30.19,WNW,301,0.0,0.0,88,0.00,,,0.00,0.00,VWS V14.01,2013-12-19 06:46:00,
2013-12-19 01:47:00,25.6,22.5,30.19,WNW,301,0.0,0.0,88,0.00,,,0.00,0.00,VWS V14.01,2013-12-19 06:47:00,
2013-12-19 01:48:00,25.6,22.5,30.19,WNW,301,0.0,0.0,88,0.00,,,0.00,0.00,VWS V14.01,2013-12-19 06:48:00,
2013-12-19 01:49:00,25.6,22.5,30.19,WNW,301,0.0,0.0,88,0.00,,,0.00,0.00,VWS V14.01,2013-12-19 06:49:00,
2013-12-19 01:50:00,25.6,22.5,30.19,WNW,301,0.0,0.0,88,0.00,,,0.00,0.00,VWS V14.01,2013-12-19 06:50:00,
2013-12-19 01:51:00,25.6,22.5,30.19,WNW,301,0.0,0.0,88,0.00,,,0.00,0.00,VWS V14.01,2013-12-19 06:51:00,
2013-12-19 01:52:00,25.6,22.5,30.19,WNW,301,0.0,0.0,88,0.00,,,0.00,0.00,VWS V14.01,2013-12-19 06:52:00,
2013-12-19 01:53:00,25.6,22.8,30.19,WNW,301,0.0,0.0,89,0.00,,,0.00,0.00,VWS V14.01,2013-12-19 06:53:00,
2013-12-19 01:54:00,25.6,22.8,30.19,WNW,301,0.0,0.0,89,0.00,,,0.00,0.00,VWS V14.01,2013-12-19 06:54:00,
2013-12-19 01:55:00,25.6,22.8,30.19,WNW,301,0.0,0.0,89,0.00,,,0.00,0.00,VWS V14.01,2013-12-19 06:55:00,
2013-12-19 01:56:00,25.6,22.8,30.19,WNW,301,0.0,0.0,89,0.00,,,0.00,0.00,VWS V14.01,2013-12-19 06:56:00,
2013-12-19 01:57:00,25.6,22.8,30.19,WNW,301,0.0,0.0,89,0.00,,,0.00,0.00,VWS V14.01,2013-12-19 06:57:00,
2013-12-19 01:58:00,25.6,22.8,30.19,WNW,301,0.0,0.0,89,0.00,,,0.00,0.00,VWS V14.01,2013-12-19 06:58:00,
2013-12-19 01:59:00,25.6,22.5,30.19,WNW,301,0.0,0.0,88,0.00,,,0.00,0.00,VWS V14.01,2013-12-19 06:59:00,
2013-12-19 02:00:00,25.4,22.4,30.18,WNW,301,0.0,0.0,88,0.00,,,0.00,0.00,VWS V14.01,2013-12-19 07:00:00,
2013-12-19 02:01:00,25.4,22.4,30.18,WNW,301,0.0,0.0,88,0.00,,,0.00,0.00,VWS V14.01,2013-12-19 07:01:00,
2013-12-19 02:02:00,25.4,22.4,30.18,WNW,301,0.0,0.0,88,0.00,,,0.00,0.00,VWS V14.01,2013-12-19 07:02:00,
2013-12-19 02:03:00,25.4,22.4,30.18,WNW,301,0.0,0.0,88,0.00,,,0.00,0.00,VWS V14.01,2013-12-19 07:03:00,
2013-12-19 02:04:00,25.4,22.4,30.18,WNW,301,0.0,0.0,88,0.00,,,0.00,0.00,VWS V14.01,2013-12-19 07:04:00,
2013-12-19 02:05:00,25.4,22.4,30.18,WNW,301,0.0,0.0,88,0.00,,,0.00,0.00,VWS V14.01,2013-12-19 07:05:00,
2013-12-19 02:06:00,25.3,22.2,30.18,WNW,301,0.0,0.0,88,0.00,,,0.00,0.00,VWS V14.01,2013-12-19 07:06:00,
2013-12-19 02:07:00,25.3,22.2,30.18,WNW,301,0.0,0.0,88,0.00,,,0.00,0.00,VWS V14.01,2013-12-19 07:07:00,
2013-12-19 02:08:00,25.3,22.2,30.18,WNW,301,0.0,0.0,88,0.00,,,0.00,0.00,VWS V14.01,2013-12-19 07:08:00,
2013-12-19 02:09:00,25.3,22.2,30.18,WNW,301,0.0,0.0,88,0.00,,,0.00,0.00,VWS V14.01,2013-12-19 07:09:00,
2013-12-19 02:10:00,25.1,22.0,30.18,WNW,301,0.0,0.0,88,0.00,,,0.00,0.00,VWS V14.01,2013-12-19 07:10:00,
2013-12-19 02:11:00,25.1,22.0,30.18,WNW,301,0.0,0.0,88,0.00,,,0.00,0.00,VWS V14.01,2013-12-19 07:11:00,
2013-12-19 02:12:00,25.1,22.0,30.18,WNW,301,0.0,0.0,88,0.00,,,0.00,0.00,VWS V14.01,2013-12-19 07:12:00,
2013-12-19 02:13:00,25.1,22.0,30.18,WNW,301,0.0,0.0,88,0.00,,,0.00,0.00,VWS V14.01,2013-12-19 07:13:00,
2013-12-19 02:14:00,25.1,22.3,30.18,WNW,301,0.0,0.0,89,0.00,,,0.00,0.00,VWS V14.01,2013-12-19 07:14:00,
2013-12-19 02:15:00,25.1,22.3,30.19,WNW,301,0.0,0.0,89,0.00,,,0.00,0.00,VWS V14.01,2013-12-19 07:15:00,
2013-12-19 02:16:00,25.1,22.3,30.19,WNW,301,0.0,0.0,89,0.00,,,0.00,0.00,VWS V14.01,2013-12-19 07:16:00,
2013-12-19 02:17:00,25.1,22.3,30.19,WNW,301,0.0,0.0,89,0.00,,,0.00,0.00,VWS V14.01,2013-12-19 07:17:00,
2013-12-19 02:18:00,25.1,22.3,30.19,WNW,301,0.0,0.0,89,0.00,,,0.00,0.00,VWS V14.01,2013-12-19 07:18:00,
2013-12-19 02:19:00,25.1,22.3,30.19,WNW,301,0.0,0.0,89,0.00,,,0.00,0.00,VWS V14.01,2013-12-19 07:19:00,
2013-12-19 02:20:00,25.0,22.2,30.19,WNW,301,0.0,0.0,89,0.00,,,0.00,0.00,VWS V14.01,2013-12-19 07:20:00,
2013-12-19 02:21:00,25.0,22.2,30.19,WNW,301,0.0,0.0,89,0.00,,,0.00,0.00,VWS V14.01,2013-12-19 07:21:00,
2013-12-19 02:22:00,25.0,22.2,30.19,WNW,301,0.0,0.0,89,0.00,,,0.00,0.00,VWS V14.01,2013-12-19 07:22:00,
2013-12-19 02:23:00,25.0,22.2,30.19,WNW,301,0.0,0.0,89,0.00,,,0.00,0.00,VWS V14.01,2013-12-19 07:23:00,
2013-12-19 02:24:00,25.0,22.2,30.19,WNW,301,0.0,0.0,89,0.00,,,0.00,0.00,VWS V14.01,2013-12-19 07:24:00,
2013-12-19 02:25:00,25.0,22.2,30.19,WNW,301,0.0,0.0,89,0.00,,,0.00,0.00,VWS V14.01,2013-12-19 07:25:00,
2013-12-19 02:26:00,25.0,22.2,30.19,WNW,301,0.0,0.0,89,0.00,,,0.00,0.00,VWS V14.01,2013-12-19 07:26:00,
2013-12-19 02:27:00,25.0,22.2,30.19,WNW,301,0.0,0.0,89,0.00,,,0.00,0.00,VWS V14.01,2013-12-19 07:27:00,
2013-12-19 02:28:00,25.0,22.2,30.19,WNW,301,0.0,0.0,89,0.00,,,0.00,0.00,VWS V14.01,2013-12-19 07:28:00,
2013-12-19 02:29:00,24.8,22.0,30.19,WNW,301,0.0,0.0,89,0.00,,,0.00,0.00,VWS V14.01,2013-12-19 07:29:00,
2013-12-19 02:30:00,24.8,22.0,30.20,WNW,301,0.0,0.0,89,0.00,,,0.00,0.00,VWS V14.01,2013-12-19 07:30:00,
2013-12-19 02:31:00,24.8,22.0,30.20,WNW,301,0.0,0.0,89,0.00,,,0.00,0.00,VWS V14.01,2013-12-19 07:31:00,
2013-12-19 02:32:00,24.8,22.0,30.20,WNW,301,0.0,0.0,89,0.00,,,0.00,0.00,VWS V14.01,2013-12-19 07:32:00,
2013-12-19 02:33:00,24.8,22.0,30.20,WNW,301,0.0,0.0,89,0.00,,,0.00,0.00,VWS V14.01,2013-12-19 07:33:00,
2013-12-19 02:34:00,24.8,22.0,30.20,WNW,301,0.0,0.0,89,0.00,,,0.00,0.00,VWS V14.01,2013-12-19 07:34:00,
2013-12-19 02:35:00,24.8,22.0,30.20,WNW,301,0.0,0.0,89,0.00,,,0.00,0.00,VWS V14.01,2013-12-19 07:35:00,
2013-12-19 02:36:00,24.8,22.0,30.20,WNW,301,0.0,0.0,89,0.00,,,0.00,0.00,VWS V14.01,2013-12-19 07:36:00,
2013-12-19 02:37:00,24.7,21.9,30.20,WNW,301,0.0,0.0,89,0.00,,,0.00,0.00,VWS V14.01,2013-12-19 07:37:00,
2013-12-19 02:38:00,24.7,21.9,30.20,WNW,301,0.0,0.0,89,0.00,,,0.00,0.00,VWS V14.01,2013-12-19 07:38:00,
2013-12-19 02:39:00,24.7,21.9,30.20,WNW,301,0.0,0.0,89,0.00,,,0.00,0.00,VWS V14.01,2013-12-19 07:39:00,
2013-12-19 02:40:00,24.7,21.9,30.20,WNW,301,0.0,0.0,89,0.00,,,0.00,0.00,VWS V14.01,2013-12-19 07:40:00,
2013-12-19 02:41:00,24.7,21.9,30.20,WNW,301,0.0,0.0,89,0.00,,,0.00,0.00,VWS V14.01,2013-12-19 07:41:00,
2013-12-19 02:42:00,24.7,21.9,30.20,WNW,301,0.0,0.0,89,0.00,,,0.00,0.00,VWS V14.01,2013-12-19 07:42:00,
2013-12-19 02:43:00,24.7,21.9,30.20,WNW,301,0.0,0.0,89,0.00,,,0.00,0.00,VWS V14.01,2013-12-19 07:43:00,
2013-12-19 02:44:00,24.7,21.9,30.20,WNW,301,0.0,0.0,89,0.00,,,0.00,0.00,VWS V14.01,2013-12-19 07:44:00,
2013-12-19 02:45:00,24.7,21.9,30.20,WNW,301,0.0,0.0,89,0.00,,,0.00,0.00,VWS V14.01,2013-12-19 07:45:00,
2013-12-19 02:46:00,24.5,21.7,30.20,WNW,301,0.0,0.0,89,0.00,,,0.00,0.00,VWS V14.01,2013-12-19 07:46:00,
2013-12-19 02:47:00,24.5,21.7,30.20,WNW,301,0.0,0.0,89,0.00,,,0.00,0.00,VWS V14.01,2013-12-19 07:47:00,
2013-12-19 02:48:00,24.5,21.7,30.20,WNW,301,0.0,0.0,89,0.00,,,0.00,0.00,VWS V14.01,2013-12-19 07:48:00,
2013-12-19 02:49:00,24.5,21.7,30.20,WNW,301,0.0,0.0,89,0.00,,,0.00,0.00,VWS V14.01,2013-12-19 07:49:00,
2013-12-19 02:50:00,24.5,21.7,30.20,WNW,301,0.0,0.0,89,0.00,,,0.00,0.00,VWS V14.01,2013-12-19 07:50:00,
2013-12-19 02:51:00,24.5,21.7,30.20,WNW,301,0.0,0.0,89,0.00,,,0.00,0.00,VWS V14.01,2013-12-19 07:51:00,
2013-12-19 02:52:00,24.5,21.7,30.20,WNW,301,0.0,0.0,89,0.00,,,0.00,0.00,VWS V14.01,2013-12-19 07:52:00,
2013-12-19 02:53:00,24.5,21.7,30.20,WNW,301,0.0,0.0,89,0.00,,,0.00,0.00,VWS V14.01,2013-12-19 07:53:00,
2013-12-19 02:54:00,24.5,21.7,30.20,WNW,301,0.0,0.0,89,0.00,,,0.00,0.00,VWS V14.01,2013-12-19 07:54:00,
2013-12-19 02:55:00,24.5,21.7,30.20,WNW,301,0.0,0.0,89,0.00,,,0.00,0.00,VWS V14.01,2013-12-19 07:55:00,
2013-12-19 02:56:00,24.5,21.7,30.20,WNW,301,0.0,0.0,89,0.00,,,0.00,0.00,VWS V14.01,2013-12-19 07:56:00,
2013-12-19 02:57:00,24.5,21.7,30.20,WNW,301,0.0,0.0,89,0.00,,,0.00,0.00,VWS V14.01,2013-12-19 07:57:00,
2013-12-19 02:58:00,24.5,21.7,30.20,WNW,301,0.0,0.0,89,0.00,,,0.00,0.00,VWS V14.01,2013-12-19 07:58:00,
2013-12-19 02:59:00,24.7,21.9,30.20,WNW,301,0.0,0.0,89,0.00,,,0.00,0.00,VWS V14.01,2013-12-19 07:59:00,
2013-12-19 03:00:00,24.7,21.9,30.21,WNW,301,0.0,0.0,89,0.00,,,0.00,0.00,VWS V14.01,2013-12-19 08:00:00,
2013-12-19 03:01:00,24.7,21.9,30.21,WNW,301,0.0,0.0,89,0.00,,,0.00,0.00,VWS V14.01,2013-12-19 08:01:00,
2013-12-19 03:02:00,24.7,21.9,30.21,WNW,301,0.0,0.0,89,0.00,,,0.00,0.00,VWS V14.01,2013-12-19 08:02:00,
2013-12-19 03:03:00,24.7,21.9,30.21,WNW,301,0.0,0.0,89,0.00,,,0.00,0.00,VWS V14.01,2013-12-19 08:03:00,
2013-12-19 03:04:00,24.7,21.9,30.21,WNW,301,0.0,0.0,89,0.00,,,0.00,0.00,VWS V14.01,2013-12-19 08:04:00,
2013-12-19 03:05:00,24.7,21.9,30.21,WNW,301,0.0,0.0,89,0.00,,,0.00,0.00,VWS V14.01,2013-12-19 08:05:00,
2013-12-19 03:06:00,24.7,21.9,30.21,WNW,301,0.0,0.0,89,0.00,,,0.00,0.00,VWS V14.01,2013-12-19 08:06:00,
2013-12-19 03:07:00,24.8,22.0,30.21,WNW,301,0.0,0.0,89,0.00,,,0.00,0.00,VWS V14.01,2013-12-19 08:07:00,
2013-12-19 03:08:00,24.8,22.0,30.21,WNW,301,0.0,0.0,89,0.00,,,0.00,0.00,VWS V14.01,2013-12-19 08:08:00,
2013-12-19 03:09:00,24.8,22.0,30.21,WNW,301,0.0,0.0,89,0.00,,,0.00,0.00,VWS V14.01,2013-12-19 08:09:00,
2013-12-19 03:10:00,24.8,22.0,30.21,WNW,301,0.0,0.0,89,0.00,,,0.00,0.00,VWS V14.01,2013-12-19 08:10:00,
2013-12-19 03:11:00,24.8,22.0,30.21,WNW,301,0.0,0.0,89,0.00,,,0.00,0.00,VWS V14.01,2013-12-19 08:11:00,
2013-12-19 03:12:00,25.0,22.5,30.21,WNW,301,0.0,0.0,90,0.00,,,0.00,0.00,VWS V14.01,2013-12-19 08:12:00,
2013-12-19 03:13:00,25.0,22.5,30.21,WNW,301,0.0,0.0,90,0.00,,,0.00,0.00,VWS V14.01,2013-12-19 08:13:00,
2013-12-19 03:14:00,25.0,22.5,30.21,WNW,301,0.0,0.0,90,0.00,,,0.00,0.00,VWS V14.01,2013-12-19 08:14:00,
2013-12-19 03:15:00,25.0,22.5,30.20,WNW,301,0.0,0.0,90,0.00,,,0.00,0.00,VWS V14.01,2013-12-19 08:15:00,
2013-12-19 03:16:00,25.0,22.5,30.20,WNW,301,0.0,0.0,90,0.00,,,0.00,0.00,VWS V14.01,2013-12-19 08:16:00,
2013-12-19 03:17:00,25.0,22.5,30.20,WNW,301,0.0,0.0,90,0.00,,,0.00,0.00,VWS V14.01,2013-12-19 08:17:00,
2013-12-19 03:18:00,25.1,22.6,30.20,WNW,301,0.0,0.0,90,0.00,,,0.00,0.00,VWS V14.01,2013-12-19 08:18:00,
2013-12-19 03:19:00,25.1,22.6,30.20,WNW,301,0.0,0.0,90,0.00,,,0.00,0.00,VWS V14.01,2013-12-19 08:19:00,
2013-12-19 03:20:00,25.1,22.6,30.20,WNW,301,0.0,0.0,90,0.00,,,0.00,0.00,VWS V14.01,2013-12-19 08:20:00,
2013-12-19 03:21:00,25.1,22.6,30.20,WNW,301,0.0,0.0,90,0.00,,,0.00,0.00,VWS V14.01,2013-12-19 08:21:00,
2013-12-19 03:22:00,25.1,22.6,30.20,WNW,301,0.0,0.0,90,0.00,,,0.00,0.00,VWS V14.01,2013-12-19 08:22:00,
2013-12-19 03:23:00,25.1,22.6,30.20,WNW,301,0.0,0.0,90,0.00,,,0.00,0.00,VWS V14.01,2013-12-19 08:23:00,
2013-12-19 03:24:00,25.1,22.6,30.20,WNW,301,0.0,0.0,90,0.00,,,0.00,0.00,VWS V14.01,2013-12-19 08:24:00,
2013-12-19 03:25:00,25.1,22.6,30.20,WNW,301,0.0,0.0,90,0.00,,,0.00,0.00,VWS V14.01,2013-12-19 08:25:00,
2013-12-19 03:26:00,25.1,22.6,30.20,WNW,301,0.0,0.0,90,0.00,,,0.00,0.00,VWS V14.01,2013-12-19 08:26:00,
2013-12-19 03:27:00,25.1,22.6,30.20,WNW,301,0.0,0.0,90,0.00,,,0.00,0.00,VWS V14.01,2013-12-19 08:27:00,
2013-12-19 03:28:00,25.0,22.5,30.20,WNW,301,0.0,0.0,90,0.00,,,0.00,0.00,VWS V14.01,2013-12-19 08:28:00,
2013-12-19 03:29:00,25.0,22.5,30.20,WNW,301,0.0,0.0,90,0.00,,,0.00,0.00,VWS V14.01,2013-12-19 08:29:00,
2013-12-19 03:30:00,25.0,22.5,30.20,WNW,301,0.0,0.0,90,0.00,,,0.00,0.00,VWS V14.01,2013-12-19 08:30:00,
2013-12-19 03:31:00,25.0,22.5,30.20,WNW,301,0.0,0.0,90,0.00,,,0.00,0.00,VWS V14.01,2013-12-19 08:31:00,
2013-12-19 03:32:00,25.0,22.5,30.20,WNW,301,0.0,0.0,90,0.00,,,0.00,0.00,VWS V14.01,2013-12-19 08:32:00,
2013-12-19 03:33:00,25.0,22.5,30.20,WNW,301,0.0,0.0,90,0.00,,,0.00,0.00,VWS V14.01,2013-12-19 08:33:00,
2013-12-19 03:34:00,25.0,22.5,30.20,WNW,301,0.0,0.0,90,0.00,,,0.00,0.00,VWS V14.01,2013-12-19 08:34:00,
2013-12-19 03:35:00,25.0,22.5,30.20,WNW,301,0.0,0.0,90,0.00,,,0.00,0.00,VWS V14.01,2013-12-19 08:35:00,
2013-12-19 03:36:00,25.0,22.5,30.20,WNW,301,0.0,0.0,90,0.00,,,0.00,0.00,VWS V14.01,2013-12-19 08:36:00,
2013-12-19 03:37:00,24.8,22.3,30.20,WNW,301,0.0,0.0,90,0.00,,,0.00,0.00,VWS V14.01,2013-12-19 08:37:00,
2013-12-19 03:38:00,24.8,22.3,30.20,WNW,301,0.0,0.0,90,0.00,,,0.00,0.00,VWS V14.01,2013-12-19 08:38:00,
2013-12-19 03:39:00,24.8,22.3,30.20,WNW,301,0.0,0.0,90,0.00,,,0.00,0.00,VWS V14.01,2013-12-19 08:39:00,
2013-12-19 03:40:00,24.8,22.3,30.20,WNW,301,0.0,0.0,90,0.00,,,0.00,0.00,VWS V14.01,2013-12-19 08:40:00,
2013-12-19 03:41:00,24.8,22.3,30.20,WNW,301,0.0,0.0,90,0.00,,,0.00,0.00,VWS V14.01,2013-12-19 08:41:00,
2013-12-19 03:42:00,24.8,22.3,30.20,WNW,301,0.0,0.0,90,0.00,,,0.00,0.00,VWS V14.01,2013-12-19 08:42:00,
2013-12-19 03:43:00,24.8,22.3,30.20,WNW,301,0.0,0.0,90,0.00,,,0.00,0.00,VWS V14.01,2013-12-19 08:43:00,
2013-12-19 03:44:00,24.7,22.2,30.20,WNW,301,0.0,0.0,90,0.00,,,0.00,0.00,VWS V14.01,2013-12-19 08:44:00,
2013-12-19 03:45:00,24.7,22.2,30.19,WNW,301,0.0,0.0,90,0.00,,,0.00,0.00,VWS V14.01,2013-12-19 08:45:00,
2013-12-19 03:46:00,24.7,22.2,30.19,WNW,301,0.0,0.0,90,0.00,,,0.00,0.00,VWS V14.01,2013-12-19 08:46:00,
2013-12-19 03:47:00,24.7,22.2,30.19,WNW,301,0.0,0.0,90,0.00,,,0.00,0.00,VWS V14.01,2013-12-19 08:47:00,
2013-12-19 03:48:00,24.7,22.2,30.19,WNW,301,0.0,0.0,90,0.00,,,0.00,0.00,VWS V14.01,2013-12-19 08:48:00,
2013-12-19 03:49:00,24.5,22.0,30.19,WNW,301,0.0,0.0,90,0.00,,,0.00,0.00,VWS V14.01,2013-12-19 08:49:00,
2013-12-19 03:50:00,24.5,22.0,30.19,WNW,301,0.0,0.0,90,0.00,,,0.00,0.00,VWS V14.01,2013-12-19 08:50:00,
2013-12-19 03:51:00,24.5,22.0,30.19,WNW,301,0.0,0.0,90,0.00,,,0.00,0.00,VWS V14.01,2013-12-19 08:51:00,
2013-12-19 03:52:00,24.5,22.0,30.19,WNW,301,0.0,0.0,90,0.00,,,0.00,0.00,VWS V14.01,2013-12-19 08:52:00,
2013-12-19 03:53:00,24.5,22.0,30.19,WNW,301,0.0,0.0,90,0.00,,,0.00,0.00,VWS V14.01,2013-12-19 08:53:00,
2013-12-19 03:54:00,24.5,22.0,30.19,WNW,301,0.0,0.0,90,0.00,,,0.00,0.00,VWS V14.01,2013-12-19 08:54:00,
2013-12-19 03:55:00,24.5,22.0,30.19,WNW,301,0.0,0.0,90,0.00,,,0.00,0.00,VWS V14.01,2013-12-19 08:55:00,
2013-12-19 03:56:00,24.5,22.0,30.19,WNW,301,0.0,0.0,90,0.00,,,0.00,0.00,VWS V14.01,2013-12-19 08:56:00,
2013-12-19 03:57:00,24.5,22.0,30.19,WNW,301,0.0,0.0,90,0.00,,,0.00,0.00,VWS V14.01,2013-12-19 08:57:00,
2013-12-19 03:58:00,24.5,22.0,30.19,WNW,301,0.0,0.0,90,0.00,,,0.00,0.00,VWS V14.01,2013-12-19 08:58:00,
2013-12-19 03:59:00,24.5,22.0,30.19,WNW,301,0.0,0.0,90,0.00,,,0.00,0.00,VWS V14.01,2013-12-19 08:59:00,
2013-12-19 04:00:00,24.4,21.9,30.19,WNW,301,0.0,0.0,90,0.00,,,0.00,0.00,VWS V14.01,2013-12-19 09:00:00,
2013-12-19 04:01:00,24.4,21.9,30.19,WNW,301,0.0,0.0,90,0.00,,,0.00,0.00,VWS V14.01,2013-12-19 09:01:00,
2013-12-19 04:02:00,24.4,21.9,30.19,WNW,301,0.0,0.0,90,0.00,,,0.00,0.00,VWS V14.01,2013-12-19 09:02:00,
2013-12-19 04:03:00,24.4,21.9,30.19,WNW,301,0.0,0.0,90,0.00,,,0.00,0.00,VWS V14.01,2013-12-19 09:03:00,
2013-12-19 04:04:00,24.4,21.9,30.19,WNW,301,0.0,0.0,90,0.00,,,0.00,0.00,VWS V14.01,2013-12-19 09:04:00,
2013-12-19 04:05:00,24.4,21.9,30.19,WNW,301,0.0,0.0,90,0.00,,,0.00,0.00,VWS V14.01,2013-12-19 09:05:00,
2013-12-19 04:06:00,24.4,21.9,30.19,WNW,301,0.0,0.0,90,0.00,,,0.00,0.00,VWS V14.01,2013-12-19 09:06:00,
2013-12-19 04:07:00,24.4,21.9,30.19,WNW,301,0.0,0.0,90,0.00,,,0.00,0.00,VWS V14.01,2013-12-19 09:07:00,
2013-12-19 04:08:00,24.4,21.9,30.19,WNW,301,0.0,0.0,90,0.00,,,0.00,0.00,VWS V14.01,2013-12-19 09:08:00,
2013-12-19 04:09:00,24.2,21.7,30.19,WNW,301,0.0,0.0,90,0.00,,,0.00,0.00,VWS V14.01,2013-12-19 09:09:00,
2013-12-19 04:10:00,24.2,21.7,30.19,WNW,301,0.0,0.0,90,0.00,,,0.00,0.00,VWS V14.01,2013-12-19 09:10:00,
2013-12-19 04:11:00,24.2,21.7,30.19,WNW,301,0.0,0.0,90,0.00,,,0.00,0.00,VWS V14.01,2013-12-19 09:11:00,
2013-12-19 04:12:00,24.2,21.7,30.19,WNW,301,0.0,0.0,90,0.00,,,0.00,0.00,VWS V14.01,2013-12-19 09:12:00,
2013-12-19 04:13:00,24.2,21.7,30.19,WNW,301,0.0,0.0,90,0.00,,,0.00,0.00,VWS V14.01,2013-12-19 09:13:00,
2013-12-19 04:14:00,24.4,21.9,30.19,WNW,301,0.0,0.0,90,0.00,,,0.00,0.00,VWS V14.01,2013-12-19 09:14:00,
2013-12-19 04:15:00,24.4,21.9,30.19,WNW,301,0.0,0.0,90,0.00,,,0.00,0.00,VWS V14.01,2013-12-19 09:15:00,
2013-12-19 04:16:00,24.4,21.9,30.19,WNW,301,0.0,0.0,90,0.00,,,0.00,0.00,VWS V14.01,2013-12-19 09:16:00,
2013-12-19 04:17:00,24.5,22.0,30.19,WNW,301,0.0,0.0,90,0.00,,,0.00,0.00,VWS V14.01,2013-12-19 09:17:00,
2013-12-19 04:18:00,24.5,22.0,30.19,WNW,301,0.0,0.0,90,0.00,,,0.00,0.00,VWS V14.01,2013-12-19 09:18:00,
2013-12-19 04:19:00,24.5,22.0,30.19,WNW,301,0.0,0.0,90,0.00,,,0.00,0.00,VWS V14.01,2013-12-19 09:19:00,
2013-12-19 04:20:00,24.7,22.2,30.19,WNW,301,0.0,0.0,90,0.00,,,0.00,0.00,VWS V14.01,2013-12-19 09:20:00,
2013-12-19 04:21:00,24.7,22.2,30.19,WNW,301,0.0,0.0,90,0.00,,,0.00,0.00,VWS V14.01,2013-12-19 09:21:00,
2013-12-19 04:22:00,24.7,22.2,30.19,WNW,301,0.0,0.0,90,0.00,,,0.00,0.00,VWS V14.01,2013-12-19 09:22:00,
2013-12-19 04:23:00,24.7,22.2,30.19,WNW,301,0.0,0.0,90,0.00,,,0.00,0.00,VWS V14.01,2013-12-19 09:23:00,
2013-12-19 04:24:00,24.7,22.2,30.19,WNW,301,0.0,0.0,90,0.00,,,0.00,0.00,VWS V14.01,2013-12-19 09:24:00,
2013-12-19 04:25:00,24.7,22.2,30.19,WNW,301,0.0,0.0,90,0.00,,,0.00,0.00,VWS V14.01,2013-12-19 09:25:00,
2013-12-19 04:26:00,24.7,22.2,30.19,WNW,301,0.0,0.0,90,0.00,,,0.00,0.00,VWS V14.01,2013-12-19 09:26:00,
2013-12-19 04:27:00,24.7,22.2,30.19,WNW,301,0.0,0.0,90,0.00,,,0.00,0.00,VWS V14.01,2013-12-19 09:27:00,
2013-12-19 04:28:00,24.7,22.2,30.19,WNW,301,0.0,0.0,90,0.00,,,0.00,0.00,VWS V14.01,2013-12-19 09:28:00,
2013-12-19 04:29:00,24.7,22.2,30.19,WNW,301,0.0,0.0,90,0.00,,,0.00,0.00,VWS V14.01,2013-12-19 09:29:00,
2013-12-19 04:30:00,24.7,22.2,30.20,WNW,301,0.0,0.0,90,0.00,,,0.00,0.00,VWS V14.01,2013-12-19 09:30:00,
2013-12-19 04:31:00,24.7,22.2,30.20,WNW,301,0.0,0.0,90,0.00,,,0.00,0.00,VWS V14.01,2013-12-19 09:31:00,
2013-12-19 04:32:00,24.7,22.2,30.20,WNW,301,0.0,0.0,90,0.00,,,0.00,0.00,VWS V14.01,2013-12-19 09:32:00,
2013-12-19 04:33:00,24.5,22.0,30.20,WNW,301,0.0,0.0,90,0.00,,,0.00,0.00,VWS V14.01,2013-12-19 09:33:00,
2013-12-19 04:34:00,24.5,22.0,30.20,WNW,301,0.0,0.0,90,0.00,,,0.00,0.00,VWS V14.01,2013-12-19 09:34:00,
2013-12-19 04:35:00,24.5,22.0,30.20,WNW,301,0.0,0.0,90,0.00,,,0.00,0.00,VWS V14.01,2013-12-19 09:35:00,
2013-12-19 04:36:00,24.5,22.0,30.20,WNW,301,0.0,0.0,90,0.00,,,0.00,0.00,VWS V14.01,2013-12-19 09:36:00,
2013-12-19 04:37:00,24.5,22.0,30.20,WNW,301,0.0,0.0,90,0.00,,,0.00,0.00,VWS V14.01,2013-12-19 09:37:00,
2013-12-19 04:38:00,24.4,21.9,30.20,WNW,301,0.0,0.0,90,0.00,,,0.00,0.00,VWS V14.01,2013-12-19 09:38:00,
2013-12-19 04:39:00,24.4,21.9,30.20,WNW,301,0.0,0.0,90,0.00,,,0.00,0.00,VWS V14.01,2013-12-19 09:39:00,
2013-12-19 04:40:00,24.4,21.9,30.20,WNW,301,0.0,0.0,90,0.00,,,0.00,0.00,VWS V14.01,2013-12-19 09:40:00,
2013-12-19 04:41:00,24.4,21.9,30.20,WNW,301,0.0,0.0,90,0.00,,,0.00,0.00,VWS V14.01,2013-12-19 09:41:00,
2013-12-19 04:42:00,24.4,21.9,30.20,WNW,301,0.0,0.0,90,0.00,,,0.00,0.00,VWS V14.01,2013-12-19 09:42:00,
2013-12-19 04:43:00,24.4,21.9,30.20,WNW,301,0.0,0.0,90,0.00,,,0.00,0.00,VWS V14.01,2013-12-19 09:43:00,
2013-12-19 04:44:00,24.4,21.9,30.20,WNW,301,0.0,0.0,90,0.00,,,0.00,0.00,VWS V14.01,2013-12-19 09:44:00,
2013-12-19 04:45:00,24.4,21.9,30.20,WNW,301,0.0,0.0,90,0.00,,,0.00,0.00,VWS V14.01,2013-12-19 09:45:00,
2013-12-19 04:46:00,24.4,21.9,30.20,WNW,301,0.0,0.0,90,0.00,,,0.00,0.00,VWS V14.01,2013-12-19 09:46:00,
2013-12-19 04:47:00,24.4,21.9,30.20,WNW,301,0.0,0.0,90,0.00,,,0.00,0.00,VWS V14.01,2013-12-19 09:47:00,
2013-12-19 04:48:00,24.4,21.9,30.20,WNW,301,0.0,0.0,90,0.00,,,0.00,0.00,VWS V14.01,2013-12-19 09:48:00,
2013-12-19 04:49:00,24.4,21.9,30.20,WNW,301,0.0,0.0,90,0.00,,,0.00,0.00,VWS V14.01,2013-12-19 09:49:00,
2013-12-19 04:50:00,24.4,21.9,30.20,WNW,301,0.0,0.0,90,0.00,,,0.00,0.00,VWS V14.01,2013-12-19 09:50:00,
2013-12-19 04:51:00,24.4,21.9,30.20,WNW,301,0.0,0.0,90,0.00,,,0.00,0.00,VWS V14.01,2013-12-19 09:51:00,
2013-12-19 04:52:00,24.4,21.9,30.20,WNW,301,0.0,0.0,90,0.00,,,0.00,0.00,VWS V14.01,2013-12-19 09:52:00,
2013-12-19 04:53:00,24.4,21.9,30.20,WNW,301,0.0,0.0,90,0.00,,,0.00,0.00,VWS V14.01,2013-12-19 09:53:00,
2013-12-19 04:54:00,24.4,21.9,30.20,WNW,301,0.0,0.0,90,0.00,,,0.00,0.00,VWS V14.01,2013-12-19 09:54:00,
2013-12-19 04:55:00,24.4,21.9,30.20,WNW,301,0.0,0.0,90,0.00,,,0.00,0.00,VWS V14.01,2013-12-19 09:55:00,
2013-12-19 04:56:00,24.4,21.9,30.20,WNW,301,0.0,0.0,90,0.00,,,0.00,0.00,VWS V14.01,2013-12-19 09:56:00,
2013-12-19 04:57:00,24.4,21.9,30.20,WNW,301,0.0,0.0,90,0.00,,,0.00,0.00,VWS V14.01,2013-12-19 09:57:00,
2013-12-19 04:58:00,24.5,22.0,30.20,WNW,301,0.0,0.0,90,0.00,,,0.00,0.00,VWS V14.01,2013-12-19 09:58:00,
2013-12-19 04:59:00,24.5,22.0,30.20,WNW,301,0.0,0.0,90,0.00,,,0.00,0.00,VWS V14.01,2013-12-19 09:59:00,
2013-12-19 05:00:00,24.5,22.0,30.20,WNW,301,0.0,0.0,90,0.00,,,0.00,0.00,VWS V14.01,2013-12-19 10:00:00,
2013-12-19 05:01:00,24.5,22.0,30.20,WNW,301,0.0,0.0,90,0.00,,,0.00,0.00,VWS V14.01,2013-12-19 10:01:00,
2013-12-19 05:02:00,24.5,22.2,30.20,WNW,301,0.0,0.0,91,0.00,,,0.00,0.00,VWS V14.01,2013-12-19 10:02:00,
2013-12-19 05:03:00,24.5,22.2,30.20,WNW,301,0.0,0.0,91,0.00,,,0.00,0.00,VWS V14.01,2013-12-19 10:03:00,
2013-12-19 05:04:00,24.5,22.0,30.20,WNW,301,0.0,0.0,90,0.00,,,0.00,0.00,VWS V14.01,2013-12-19 10:04:00,
2013-12-19 05:05:00,24.5,22.0,30.20,WNW,301,0.0,0.0,90,0.00,,,0.00,0.00,VWS V14.01,2013-12-19 10:05:00,
2013-12-19 05:06:00,24.5,22.0,30.20,WNW,301,0.0,0.0,90,0.00,,,0.00,0.00,VWS V14.01,2013-12-19 10:06:00,
2013-12-19 05:07:00,24.5,22.0,30.20,WNW,301,0.0,0.0,90,0.00,,,0.00,0.00,VWS V14.01,2013-12-19 10:07:00,
2013-12-19 05:08:00,24.5,22.0,30.20,WNW,301,0.0,0.0,90,0.00,,,0.00,0.00,VWS V14.01,2013-12-19 10:08:00,
2013-12-19 05:09:00,24.5,22.2,30.20,WNW,301,0.0,0.0,91,0.00,,,0.00,0.00,VWS V14.01,2013-12-19 10:09:00,
2013-12-19 05:10:00,24.5,22.2,30.20,WNW,301,0.0,0.0,91,0.00,,,0.00,0.00,VWS V14.01,2013-12-19 10:10:00,
2013-12-19 05:11:00,24.5,22.0,30.20,WNW,301,0.0,0.0,90,0.00,,,0.00,0.00,VWS V14.01,2013-12-19 10:11:00,
2013-12-19 05:12:00,24.5,22.2,30.20,WNW,301,0.0,0.0,91,0.00,,,0.00,0.00,VWS V14.01,2013-12-19 10:12:00,
2013-12-19 05:13:00,24.5,22.2,30.20,WNW,301,0.0,0.0,91,0.00,,,0.00,0.00,VWS V14.01,2013-12-19 10:13:00,
2013-12-19 05:14:00,24.5,22.0,30.20,WNW,301,0.0,0.0,90,0.00,,,0.00,0.00,VWS V14.01,2013-12-19 10:14:00,
2013-12-19 05:15:00,24.4,21.9,30.20,WNW,301,0.0,0.0,90,0.00,,,0.00,0.00,VWS V14.01,2013-12-19 10:15:00,
2013-12-19 05:16:00,24.4,21.9,30.20,WNW,301,0.0,0.0,90,0.00,,,0.00,0.00,VWS V14.01,2013-12-19 10:16:00,
2013-12-19 05:17:00,24.4,21.9,30.20,WNW,301,0.0,0.0,90,0.00,,,0.00,0.00,VWS V14.01,2013-12-19 10:17:00,
2013-12-19 05:18:00,24.4,21.9,30.20,WNW,301,0.0,0.0,90,0.00,,,0.00,0.00,VWS V14.01,2013-12-19 10:18:00,
2013-12-19 05:19:00,24.4,21.9,30.20,WNW,301,0.0,0.0,90,0.00,,,0.00,0.00,VWS V14.01,2013-12-19 10:19:00,
2013-12-19 05:20:00,24.4,22.2,30.20,WNW,301,0.0,0.0,91,0.00,,,0.00,0.00,VWS V14.01,2013-12-19 10:20:00,
2013-12-19 05:21:00,24.4,22.2,30.20,WNW,301,0.0,0.0,91,0.00,,,0.00,0.00,VWS V14.01,2013-12-19 10:21:00,
2013-12-19 05:22:00,24.4,22.2,30.20,WNW,301,0.0,0.0,91,0.00,,,0.00,0.00,VWS V14.01,2013-12-19 10:22:00,
2013-12-19 05:23:00,24.4,22.2,30.20,WNW,301,0.0,0.0,91,0.00,,,0.00,0.00,VWS V14.01,2013-12-19 10:23:00,
2013-12-19 05:24:00,24.4,22.2,30.20,WNW,301,0.0,0.0,91,0.00,,,0.00,0.00,VWS V14.01,2013-12-19 10:24:00,
2013-12-19 05:25:00,24.4,22.2,30.20,WNW,301,0.0,0.0,91,0.00,,,0.00,0.00,VWS V14.01,2013-12-19 10:25:00,
2013-12-19 05:26:00,24.4,22.2,30.20,WNW,301,0.0,0.0,91,0.00,,,0.00,0.00,VWS V14.01,2013-12-19 10:26:00,
2013-12-19 05:27:00,24.4,22.2,30.20,WNW,301,0.0,0.0,91,0.00,,,0.00,0.00,VWS V14.01,2013-12-19 10:27:00,
2013-12-19 05:28:00,24.4,22.2,30.20,WNW,301,0.0,0.0,91,0.00,,,0.00,0.00,VWS V14.01,2013-12-19 10:28:00,
2013-12-19 05:29:00,24.4,22.2,30.20,WNW,301,0.0,0.0,91,0.00,,,0.00,0.00,VWS V14.01,2013-12-19 10:29:00,
2013-12-19 05:30:00,24.2,22.0,30.20,WNW,301,0.0,0.0,91,0.00,,,0.00,0.00,VWS V14.01,2013-12-19 10:30:00,
2013-12-19 05:31:00,24.2,22.0,30.20,WNW,301,0.0,0.0,91,0.00,,,0.00,0.00,VWS V14.01,2013-12-19 10:31:00,
2013-12-19 05:32:00,24.2,22.0,30.20,WNW,301,0.0,0.0,91,0.00,,,0.00,0.00,VWS V14.01,2013-12-19 10:32:00,
2013-12-19 05:33:00,24.2,22.0,30.20,WNW,301,0.0,0.0,91,0.00,,,0.00,0.00,VWS V14.01,2013-12-19 10:33:00,
2013-12-19 05:34:00,24.2,22.0,30.20,WNW,301,0.0,0.0,91,0.00,,,0.00,0.00,VWS V14.01,2013-12-19 10:34:00,
2013-12-19 05:35:00,24.2,22.0,30.20,WNW,301,0.0,0.0,91,0.00,,,0.00,0.00,VWS V14.01,2013-12-19 10:35:00,
2013-12-19 05:36:00,24.2,22.0,30.20,WNW,301,0.0,0.0,91,0.00,,,0.00,0.00,VWS V14.01,2013-12-19 10:36:00,
2013-12-19 05:37:00,24.2,22.0,30.20,WNW,301,0.0,0.0,91,0.00,,,0.00,0.00,VWS V14.01,2013-12-19 10:37:00,
2013-12-19 05:38:00,24.2,22.0,30.20,WNW,301,0.0,0.0,91,0.00,,,0.00,0.00,VWS V14.01,2013-12-19 10:38:00,
2013-12-19 05:39:00,24.2,21.7,30.20,WNW,301,0.0,0.0,90,0.00,,,0.00,0.00,VWS V14.01,2013-12-19 10:39:00,
2013-12-19 05:40:00,24.2,22.0,30.20,WNW,301,0.0,0.0,91,0.00,,,0.00,0.00,VWS V14.01,2013-12-19 10:40:00,
2013-12-19 05:41:00,24.2,22.0,30.20,WNW,301,0.0,0.0,91,0.00,,,0.00,0.00,VWS V14.01,2013-12-19 10:41:00,
2013-12-19 05:42:00,24.1,21.6,30.20,WNW,301,0.0,0.0,90,0.00,,,0.00,0.00,VWS V14.01,2013-12-19 10:42:00,
2013-12-19 05:43:00,24.1,21.6,30.20,WNW,301,0.0,0.0,90,0.00,,,0.00,0.00,VWS V14.01,2013-12-19 10:43:00,
2013-12-19 05:44:00,24.1,21.9,30.20,WNW,301,0.0,0.0,91,0.00,,,0.00,0.00,VWS V14.01,2013-12-19 10:44:00,
2013-12-19 05:45:00,24.1,21.9,30.21,WNW,301,0.0,0.0,91,0.00,,,0.00,0.00,VWS V14.01,2013-12-19 10:45:00,
2013-12-19 05:46:00,24.1,21.9,30.21,WNW,301,0.0,0.0,91,0.00,,,0.00,0.00,VWS V14.01,2013-12-19 10:46:00,
2013-12-19 05:47:00,24.1,21.9,30.21,WNW,301,0.0,0.0,91,0.00,,,0.00,0.00,VWS V14.01,2013-12-19 10:47:00,
2013-12-19 05:48:00,24.1,21.9,30.21,WNW,301,0.0,0.0,91,0.00,,,0.00,0.00,VWS V14.01,2013-12-19 10:48:00,
2013-12-19 05:49:00,24.1,21.9,30.21,WNW,301,0.0,0.0,91,0.00,,,0.00,0.00,VWS V14.01,2013-12-19 10:49:00,
2013-12-19 05:50:00,24.1,21.9,30.21,WNW,301,0.0,0.0,91,0.00,,,0.00,0.00,VWS V14.01,2013-12-19 10:50:00,
2013-12-19 05:51:00,24.1,21.9,30.21,WNW,301,0.0,0.0,91,0.00,,,0.00,0.00,VWS V14.01,2013-12-19 10:51:00,
2013-12-19 05:52:00,24.1,21.9,30.21,WNW,301,0.0,0.0,91,0.00,,,0.00,0.00,VWS V14.01,2013-12-19 10:52:00,
2013-12-19 05:53:00,24.1,21.9,30.21,WNW,301,0.0,0.0,91,0.00,,,0.00,0.00,VWS V14.01,2013-12-19 10:53:00,
2013-12-19 05:54:00,24.1,21.9,30.21,WNW,301,0.0,0.0,91,0.00,,,0.00,0.00,VWS V14.01,2013-12-19 10:54:00,
2013-12-19 05:55:00,24.1,21.9,30.21,WNW,301,0.0,0.0,91,0.00,,,0.00,0.00,VWS V14.01,2013-12-19 10:55:00,
2013-12-19 05:56:00,24.1,21.9,30.21,WNW,301,0.0,0.0,91,0.00,,,0.00,0.00,VWS V14.01,2013-12-19 10:56:00,
2013-12-19 05:57:00,24.1,21.9,30.21,WNW,301,0.0,0.0,91,0.00,,,0.00,0.00,VWS V14.01,2013-12-19 10:57:00,
2013-12-19 05:58:00,24.1,21.9,30.21,WNW,301,0.0,0.0,91,0.00,,,0.00,0.00,VWS V14.01,2013-12-19 10:58:00,
2013-12-19 05:59:00,24.1,21.9,30.21,WNW,301,0.0,0.0,91,0.00,,,0.00,0.00,VWS V14.01,2013-12-19 10:59:00,
2013-12-19 06:00:00,24.1,21.9,30.21,WNW,301,0.0,0.0,91,0.00,,,0.00,0.00,VWS V14.01,2013-12-19 11:00:00,
2013-12-19 06:01:00,24.1,21.9,30.21,WNW,301,0.0,0.0,91,0.00,,,0.00,0.00,VWS V14.01,2013-12-19 11:01:00,
2013-12-19 06:02:00,23.9,21.7,30.21,WNW,301,0.0,0.0,91,0.00,,,0.00,0.00,VWS V14.01,2013-12-19 11:02:00,
2013-12-19 06:03:00,23.9,21.7,30.21,WNW,301,0.0,0.0,91,0.00,,,0.00,0.00,VWS V14.01,2013-12-19 11:03:00,
2013-12-19 06:04:00,23.9,21.7,30.21,WNW,301,0.0,0.0,91,0.00,,,0.00,0.00,VWS V14.01,2013-12-19 11:04:00,
2013-12-19 06:05:00,23.9,21.7,30.21,WNW,301,0.0,0.0,91,0.00,,,0.00,0.00,VWS V14.01,2013-12-19 11:05:00,
2013-12-19 06:06:00,23.9,21.7,30.21,WNW,301,0.0,0.0,91,0.00,,,0.00,0.00,VWS V14.01,2013-12-19 11:06:00,
2013-12-19 06:07:00,23.9,21.7,30.21,WNW,301,0.0,0.0,91,0.00,,,0.00,0.00,VWS V14.01,2013-12-19 11:07:00,
2013-12-19 06:08:00,23.9,21.7,30.21,WNW,301,0.0,0.0,91,0.00,,,0.00,0.00,VWS V14.01,2013-12-19 11:08:00,
2013-12-19 06:09:00,23.9,21.7,30.21,WNW,301,0.0,0.0,91,0.00,,,0.00,0.00,VWS V14.01,2013-12-19 11:09:00,
2013-12-19 06:10:00,23.9,21.7,30.21,WNW,301,0.0,0.0,91,0.00,,,0.00,0.00,VWS V14.01,2013-12-19 11:10:00,
2013-12-19 06:11:00,23.9,21.7,30.21,WNW,301,0.0,0.0,91,0.00,,,0.00,0.00,VWS V14.01,2013-12-19 11:11:00,
2013-12-19 06:12:00,23.9,21.7,30.21,WNW,301,0.0,0.0,91,0.00,,,0.00,0.00,VWS V14.01,2013-12-19 11:12:00,
2013-12-19 06:13:00,23.9,21.7,30.21,WNW,301,0.0,0.0,91,0.00,,,0.00,0.00,VWS V14.01,2013-12-19 11:13:00,
2013-12-19 06:14:00,24.1,21.9,30.21,WNW,301,0.0,0.0,91,0.00,,,0.00,0.00,VWS V14.01,2013-12-19 11:14:00,
2013-12-19 06:15:00,24.1,21.9,30.21,WNW,301,0.0,0.0,91,0.00,,,0.00,0.00,VWS V14.01,2013-12-19 11:15:00,
2013-12-19 06:16:00,24.1,21.9,30.21,WNW,301,0.0,0.0,91,0.00,,,0.00,0.00,VWS V14.01,2013-12-19 11:16:00,
2013-12-19 06:17:00,24.1,21.9,30.21,WNW,301,0.0,0.0,91,0.00,,,0.00,0.00,VWS V14.01,2013-12-19 11:17:00,
2013-12-19 06:18:00,24.1,21.9,30.21,WNW,301,0.0,0.0,91,0.00,,,0.00,0.00,VWS V14.01,2013-12-19 11:18:00,
2013-12-19 06:19:00,24.1,21.9,30.21,WNW,301,0.0,0.0,91,0.00,,,0.00,0.00,VWS V14.01,2013-12-19 11:19:00,
2013-12-19 06:20:00,24.1,21.9,30.21,WNW,301,0.0,0.0,91,0.00,,,0.00,0.00,VWS V14.01,2013-12-19 11:20:00,
2013-12-19 06:21:00,24.1,21.9,30.21,WNW,301,0.0,0.0,91,0.00,,,0.00,0.00,VWS V14.01,2013-12-19 11:21:00,
2013-12-19 06:22:00,24.1,21.9,30.21,WNW,301,0.0,0.0,91,0.00,,,0.00,0.00,VWS V14.01,2013-12-19 11:22:00,
2013-12-19 06:23:00,24.1,21.9,30.21,WNW,301,0.0,0.0,91,0.00,,,0.00,0.00,VWS V14.01,2013-12-19 11:23:00,
2013-12-19 06:24:00,24.1,21.9,30.21,WNW,301,0.0,0.0,91,0.00,,,0.00,0.00,VWS V14.01,2013-12-19 11:24:00,
2013-12-19 06:25:00,24.1,21.9,30.21,WNW,301,0.0,0.0,91,0.00,,,0.00,0.00,VWS V14.01,2013-12-19 11:25:00,
2013-12-19 06:26:00,24.1,21.9,30.21,WNW,301,0.0,0.0,91,0.00,,,0.00,0.00,VWS V14.01,2013-12-19 11:26:00,
2013-12-19 06:27:00,24.1,21.9,30.21,WNW,301,0.0,0.0,91,0.00,,,0.00,0.00,VWS V14.01,2013-12-19 11:27:00,
2013-12-19 06:28:00,24.1,21.9,30.21,WNW,301,0.0,0.0,91,0.00,,,0.00,0.00,VWS V14.01,2013-12-19 11:28:00,
2013-12-19 06:29:00,24.1,21.9,30.21,WNW,301,0.0,0.0,91,0.00,,,0.00,0.00,VWS V14.01,2013-12-19 11:29:00,
2013-12-19 06:30:00,24.1,21.9,30.21,WNW,301,0.0,0.0,91,0.00,,,0.00,0.00,VWS V14.01,2013-12-19 11:30:00,
2013-12-19 06:31:00,24.1,21.9,30.21,WNW,301,0.0,0.0,91,0.00,,,0.00,0.00,VWS V14.01,2013-12-19 11:31:00,
2013-12-19 06:32:00,24.1,21.9,30.21,WNW,301,0.0,0.0,91,0.00,,,0.00,0.00,VWS V14.01,2013-12-19 11:32:00,
2013-12-19 06:33:00,24.1,21.9,30.21,WNW,301,0.0,0.0,91,0.00,,,0.00,0.00,VWS V14.01,2013-12-19 11:33:00,
2013-12-19 06:34:00,24.1,21.9,30.21,WNW,301,0.0,0.0,91,0.00,,,0.00,0.00,VWS V14.01,2013-12-19 11:34:00,
2013-12-19 06:35:00,24.1,21.9,30.21,WNW,301,0.0,0.0,91,0.00,,,0.00,0.00,VWS V14.01,2013-12-19 11:35:00,
2013-12-19 06:36:00,24.1,21.9,30.21,WNW,301,0.0,0.0,91,0.00,,,0.00,0.00,VWS V14.01,2013-12-19 11:36:00,
2013-12-19 06:37:00,24.1,21.9,30.21,WNW,301,0.0,0.0,91,0.00,,,0.00,0.00,VWS V14.01,2013-12-19 11:37:00,
2013-12-19 06:38:00,24.1,21.9,30.21,WNW,301,0.0,0.0,91,0.00,,,0.00,0.00,VWS V14.01,2013-12-19 11:38:00,
2013-12-19 06:39:00,24.1,21.9,30.21,WNW,301,0.0,0.0,91,0.00,,,0.00,0.00,VWS V14.01,2013-12-19 11:39:00,
2013-12-19 06:40:00,24.1,21.9,30.21,WNW,301,0.0,0.0,91,0.00,,,0.00,0.00,VWS V14.01,2013-12-19 11:40:00,
2013-12-19 06:41:00,24.1,21.9,30.21,WNW,301,0.0,0.0,91,0.00,,,0.00,0.00,VWS V14.01,2013-12-19 11:41:00,
2013-12-19 06:42:00,24.1,21.9,30.21,WNW,301,0.0,0.0,91,0.00,,,0.00,0.00,VWS V14.01,2013-12-19 11:42:00,
2013-12-19 06:43:00,24.1,21.9,30.21,WNW,301,0.0,0.0,91,0.00,,,0.00,0.00,VWS V14.01,2013-12-19 11:43:00,
2013-12-19 06:44:00,24.1,21.9,30.21,WNW,301,0.0,0.0,91,0.00,,,0.00,0.00,VWS V14.01,2013-12-19 11:44:00,
2013-12-19 06:45:00,24.1,21.9,30.21,WNW,301,0.0,0.0,91,0.00,,,0.00,0.00,VWS V14.01,2013-12-19 11:45:00,
2013-12-19 06:46:00,24.1,21.9,30.21,WNW,301,0.0,0.0,91,0.00,,,0.00,0.00,VWS V14.01,2013-12-19 11:46:00,
2013-12-19 06:47:00,24.1,21.9,30.21,WNW,301,0.0,0.0,91,0.00,,,0.00,0.00,VWS V14.01,2013-12-19 11:47:00,
2013-12-19 06:48:00,24.1,21.9,30.21,WNW,301,0.0,0.0,91,0.00,,,0.00,0.00,VWS V14.01,2013-12-19 11:48:00,
2013-12-19 06:49:00,24.1,21.9,30.21,WNW,301,0.0,0.0,91,0.00,,,0.00,0.00,VWS V14.01,2013-12-19 11:49:00,
2013-12-19 06:50:00,24.1,21.9,30.21,WNW,301,0.0,0.0,91,0.00,,,0.00,0.00,VWS V14.01,2013-12-19 11:50:00,
2013-12-19 06:51:00,24.1,21.9,30.21,WNW,301,0.0,0.0,91,0.00,,,0.00,0.00,VWS V14.01,2013-12-19 11:51:00,
2013-12-19 06:52:00,24.1,21.9,30.21,WNW,301,0.0,0.0,91,0.00,,,0.00,0.00,VWS V14.01,2013-12-19 11:52:00,
2013-12-19 06:53:00,24.1,21.9,30.21,WNW,301,0.0,0.0,91,0.00,,,0.00,0.00,VWS V14.01,2013-12-19 11:53:00,
2013-12-19 06:54:00,24.1,21.9,30.21,WNW,301,0.0,0.0,91,0.00,,,0.00,0.00,VWS V14.01,2013-12-19 11:54:00,
2013-12-19 06:55:00,24.1,21.9,30.21,WNW,301,0.0,0.0,91,0.00,,,0.00,0.00,VWS V14.01,2013-12-19 11:55:00,
2013-12-19 06:56:00,24.1,21.9,30.21,WNW,301,0.0,0.0,91,0.00,,,0.00,0.00,VWS V14.01,2013-12-19 11:56:00,
2013-12-19 06:57:00,24.1,21.9,30.21,WNW,301,0.0,0.0,91,0.00,,,0.00,0.00,VWS V14.01,2013-12-19 11:57:00,
2013-12-19 06:58:00,23.9,21.7,30.21,WNW,301,0.0,0.0,91,0.00,,,0.00,0.00,VWS V14.01,2013-12-19 11:58:00,
2013-12-19 06:59:00,24.1,21.9,30.21,WNW,301,0.0,0.0,91,0.00,,,0.00,0.00,VWS V14.01,2013-12-19 11:59:00,
2013-12-19 07:00:00,24.1,21.9,30.21,WNW,301,0.0,0.0,91,0.00,,,0.00,0.00,VWS V14.01,2013-12-19 12:00:00,
2013-12-19 07:01:00,24.1,21.9,30.21,WNW,301,0.0,0.0,91,0.00,,,0.00,0.00,VWS V14.01,2013-12-19 12:01:00,
2013-12-19 07:02:00,24.1,22.1,30.21,WNW,301,0.0,0.0,92,0.00,,,0.00,0.00,VWS V14.01,2013-12-19 12:02:00,
2013-12-19 07:03:00,24.2,22.2,30.21,WNW,301,0.0,0.0,92,0.00,,,0.00,0.00,VWS V14.01,2013-12-19 12:03:00,
2013-12-19 07:04:00,24.2,22.2,30.21,WNW,301,0.0,0.0,92,0.00,,,0.00,0.00,VWS V14.01,2013-12-19 12:04:00,
2013-12-19 07:05:00,24.2,22.2,30.21,WNW,301,0.0,0.0,92,0.00,,,0.00,0.00,VWS V14.01,2013-12-19 12:05:00,
2013-12-19 07:06:00,24.4,22.4,30.21,WNW,301,0.0,0.0,92,0.00,,,0.00,0.00,VWS V14.01,2013-12-19 12:06:00,
2013-12-19 07:07:00,24.4,22.4,30.21,WNW,301,0.0,0.0,92,0.00,,,0.00,0.00,VWS V14.01,2013-12-19 12:07:00,
2013-12-19 07:08:00,24.4,22.4,30.21,WNW,301,0.0,0.0,92,0.00,,,0.00,0.00,VWS V14.01,2013-12-19 12:08:00,
2013-12-19 07:09:00,24.5,22.5,30.21,WNW,301,0.0,0.0,92,0.00,,,0.00,0.00,VWS V14.01,2013-12-19 12:09:00,
2013-12-19 07:10:00,24.5,22.5,30.21,WNW,301,0.0,0.0,92,0.00,,,0.00,0.00,VWS V14.01,2013-12-19 12:10:00,
2013-12-19 07:11:00,24.5,22.5,30.21,WNW,301,0.0,0.0,92,0.00,,,0.00,5.00,VWS V14.01,2013-12-19 12:11:00,
2013-12-19 07:12:00,24.5,22.5,30.21,WNW,301,0.0,0.0,92,0.00,,,0.00,5.00,VWS V14.01,2013-12-19 12:12:00,
2013-12-19 07:13:00,24.7,22.7,30.21,WNW,301,0.0,0.0,92,0.00,,,0.00,5.00,VWS V14.01,2013-12-19 12:13:00,
2013-12-19 07:14:00,24.7,22.7,30.21,WNW,301,0.0,0.0,92,0.00,,,0.00,5.00,VWS V14.01,2013-12-19 12:14:00,
2013-12-19 07:15:00,24.7,22.7,30.21,WNW,301,0.0,0.0,92,0.00,,,0.00,5.00,VWS V14.01,2013-12-19 12:15:00,
2013-12-19 07:16:00,24.7,22.7,30.21,WNW,301,0.0,0.0,92,0.00,,,0.00,5.00,VWS V14.01,2013-12-19 12:16:00,
2013-12-19 07:17:00,24.7,22.7,30.21,WNW,301,0.0,0.0,92,0.00,,,0.00,5.00,VWS V14.01,2013-12-19 12:17:00,
2013-12-19 07:18:00,24.7,22.7,30.21,WNW,301,0.0,0.0,92,0.00,,,0.00,7.00,VWS V14.01,2013-12-19 12:18:00,
2013-12-19 07:19:00,24.7,22.7,30.21,WNW,301,0.0,0.0,92,0.00,,,0.00,7.00,VWS V14.01,2013-12-19 12:19:00,
2013-12-19 07:20:00,24.8,22.8,30.21,WNW,301,0.0,0.0,92,0.00,,,0.00,7.00,VWS V14.01,2013-12-19 12:20:00,
2013-12-19 07:21:00,24.8,22.8,30.21,WNW,301,0.0,0.0,92,0.00,,,0.00,7.00,VWS V14.01,2013-12-19 12:21:00,
2013-12-19 07:22:00,24.8,22.8,30.21,WNW,301,0.0,0.0,92,0.00,,,0.00,7.00,VWS V14.01,2013-12-19 12:22:00,
2013-12-19 07:23:00,24.8,22.8,30.21,WNW,301,0.0,0.0,92,0.00,,,0.00,7.00,VWS V14.01,2013-12-19 12:23:00,
2013-12-19 07:24:00,24.8,22.8,30.21,WNW,301,0.0,0.0,92,0.00,,,0.00,9.00,VWS V14.01,2013-12-19 12:24:00,
2013-12-19 07:25:00,24.8,22.8,30.21,WNW,301,0.0,0.0,92,0.00,,,0.00,9.00,VWS V14.01,2013-12-19 12:25:00,
2013-12-19 07:26:00,24.8,22.8,30.21,WNW,301,0.0,0.0,92,0.00,,,0.00,9.00,VWS V14.01,2013-12-19 12:26:00,
2013-12-19 07:27:00,25.0,23.0,30.21,WNW,301,0.0,0.0,92,0.00,,,0.00,9.00,VWS V14.01,2013-12-19 12:27:00,
2013-12-19 07:28:00,25.0,23.0,30.21,WNW,301,0.0,0.0,92,0.00,,,0.00,9.00,VWS V14.01,2013-12-19 12:28:00,
2013-12-19 07:29:00,25.0,22.8,30.21,WNW,301,0.0,0.0,91,0.00,,,0.00,9.00,VWS V14.01,2013-12-19 12:29:00,
2013-12-19 07:30:00,24.8,22.5,30.22,WNW,301,0.0,0.0,91,0.00,,,0.00,11.00,VWS V14.01,2013-12-19 12:30:00,
2013-12-19 07:31:00,24.8,22.8,30.22,WNW,301,0.0,0.0,92,0.00,,,0.00,11.00,VWS V14.01,2013-12-19 12:31:00,
2013-12-19 07:32:00,24.8,22.8,30.22,WNW,301,0.0,0.0,92,0.00,,,0.00,11.00,VWS V14.01,2013-12-19 12:32:00,
2013-12-19 07:33:00,24.8,22.8,30.22,WNW,301,0.0,0.0,92,0.00,,,0.00,11.00,VWS V14.01,2013-12-19 12:33:00,
2013-12-19 07:34:00,24.8,22.5,30.22,WNW,301,0.0,0.0,91,0.00,,,0.00,11.00,VWS V14.01,2013-12-19 12:34:00,
2013-12-19 07:35:00,24.8,22.5,30.22,WNW,301,0.0,0.0,91,0.00,,,0.00,11.00,VWS V14.01,2013-12-19 12:35:00,
2013-12-19 07:36:00,24.8,22.5,30.22,WNW,301,0.0,0.0,91,0.00,,,0.00,11.00,VWS V14.01,2013-12-19 12:36:00,
2013-12-19 07:37:00,24.8,22.5,30.22,WNW,301,0.0,0.0,91,0.00,,,0.00,12.00,VWS V14.01,2013-12-19 12:37:00,
2013-12-19 07:38:00,24.8,22.5,30.22,WNW,301,0.0,0.0,91,0.00,,,0.00,12.00,VWS V14.01,2013-12-19 12:38:00,
2013-12-19 07:39:00,24.8,22.8,30.22,WNW,301,0.0,0.0,92,0.00,,,0.00,12.00,VWS V14.01,2013-12-19 12:39:00,
2013-12-19 07:40:00,25.0,22.8,30.22,WNW,301,0.0,0.0,91,0.00,,,0.00,12.00,VWS V14.01,2013-12-19 12:40:00,
2013-12-19 07:41:00,25.0,23.0,30.22,WNW,301,0.0,0.0,92,0.00,,,0.00,14.00,VWS V14.01,2013-12-19 12:41:00,
2013-12-19 07:42:00,25.0,23.0,30.22,WNW,301,0.0,0.0,92,0.00,,,0.00,14.00,VWS V14.01,2013-12-19 12:42:00,
2013-12-19 07:43:00,25.0,22.8,30.22,WNW,301,0.0,0.0,91,0.00,,,0.00,14.00,VWS V14.01,2013-12-19 12:43:00,
2013-12-19 07:44:00,25.0,22.8,30.22,WNW,301,0.0,0.0,91,0.00,,,0.00,16.00,VWS V14.01,2013-12-19 12:44:00,
2013-12-19 07:45:00,25.0,22.8,30.22,WNW,301,0.0,0.0,91,0.00,,,0.00,16.00,VWS V14.01,2013-12-19 12:45:00,
2013-12-19 07:46:00,25.0,22.8,30.22,WNW,301,0.0,0.0,91,0.00,,,0.00,16.00,VWS V14.01,2013-12-19 12:46:00,
2013-12-19 07:47:00,25.0,22.8,30.22,WNW,301,0.0,0.0,91,0.00,,,0.00,16.00,VWS V14.01,2013-12-19 12:47:00,
2013-12-19 07:48:00,25.0,22.8,30.22,WNW,301,0.0,0.0,91,0.00,,,0.00,16.00,VWS V14.01,2013-12-19 12:48:00,
2013-12-19 07:49:00,25.0,23.0,30.22,WNW,301,0.0,0.0,92,0.00,,,0.00,16.00,VWS V14.01,2013-12-19 12:49:00,
2013-12-19 07:50:00,25.0,23.0,30.22,WNW,301,0.0,0.0,92,0.00,,,0.00,16.00,VWS V14.01,2013-12-19 12:50:00,
2013-12-19 07:51:00,25.0,23.0,30.22,WNW,301,0.0,0.0,92,0.00,,,0.00,18.00,VWS V14.01,2013-12-19 12:51:00,
2013-12-19 07:52:00,25.0,23.0,30.22,WNW,301,0.0,0.0,92,0.00,,,0.00,18.00,VWS V14.01,2013-12-19 12:52:00,
2013-12-19 07:53:00,25.0,23.0,30.22,WNW,301,0.0,0.0,92,0.00,,,0.00,18.00,VWS V14.01,2013-12-19 12:53:00,
2013-12-19 07:54:00,25.0,23.0,30.22,WNW,301,0.0,0.0,92,0.00,,,0.00,18.00,VWS V14.01,2013-12-19 12:54:00,
2013-12-19 07:55:00,25.0,23.0,30.22,WNW,301,0.0,0.0,92,0.00,,,0.00,33.00,VWS V14.01,2013-12-19 12:55:00,
2013-12-19 07:56:00,25.0,23.0,30.22,WNW,301,0.0,0.0,92,0.00,,,0.00,56.00,VWS V14.01,2013-12-19 12:56:00,
2013-12-19 07:57:00,25.1,23.1,30.22,WNW,301,0.0,0.0,92,0.00,,,0.00,77.00,VWS V14.01,2013-12-19 12:57:00,
2013-12-19 07:58:00,25.1,23.1,30.22,WNW,301,0.0,0.0,92,0.00,,,0.00,90.00,VWS V14.01,2013-12-19 12:58:00,
2013-12-19 07:59:00,25.3,23.3,30.22,WNW,301,0.0,0.0,92,0.00,,,0.00,95.00,VWS V14.01,2013-12-19 12:59:00,
2013-12-19 08:00:00,25.4,23.4,30.22,WNW,301,0.0,0.0,92,0.00,,,0.00,114.00,VWS V14.01,2013-12-19 13:00:00,
2013-12-19 08:01:00,25.4,23.4,30.22,WNW,301,0.0,0.0,92,0.00,,,0.00,116.00,VWS V14.01,2013-12-19 13:01:00,
2013-12-19 08:02:00,25.6,23.6,30.22,WNW,301,0.0,0.0,92,0.00,,,0.00,118.00,VWS V14.01,2013-12-19 13:02:00,
2013-12-19 08:03:00,25.7,23.7,30.22,WNW,301,0.0,0.0,92,0.00,,,0.00,123.00,VWS V14.01,2013-12-19 13:03:00,
2013-12-19 08:04:00,25.8,23.8,30.22,WNW,301,0.0,0.0,92,0.00,,,0.00,132.00,VWS V14.01,2013-12-19 13:04:00,
2013-12-19 08:05:00,26.0,24.0,30.22,WNW,301,0.0,0.0,92,0.00,,,0.00,139.00,VWS V14.01,2013-12-19 13:05:00,
2013-12-19 08:06:00,26.3,24.3,30.22,WNW,301,0.0,0.0,92,0.00,,,0.00,141.00,VWS V14.01,2013-12-19 13:06:00,
2013-12-19 08:07:00,26.4,24.4,30.22,WNW,301,0.0,0.0,92,0.00,,,0.00,148.00,VWS V14.01,2013-12-19 13:07:00,
2013-12-19 08:08:00,26.6,24.6,30.22,WNW,301,0.0,0.0,92,0.00,,,0.00,149.00,VWS V14.01,2013-12-19 13:08:00,
2013-12-19 08:09:00,26.9,25.1,30.22,WNW,301,0.0,0.0,93,0.00,,,0.00,149.00,VWS V14.01,2013-12-19 13:09:00,
2013-12-19 08:10:00,27.2,25.5,30.22,WNW,301,0.0,0.0,93,0.00,,,0.00,148.00,VWS V14.01,2013-12-19 13:10:00,
2013-12-19 08:11:00,27.6,25.8,30.22,WNW,301,0.0,0.0,93,0.00,,,0.00,146.00,VWS V14.01,2013-12-19 13:11:00,
2013-12-19 08:12:00,28.2,26.7,30.22,WNW,301,0.0,0.0,94,0.00,,,0.00,142.00,VWS V14.01,2013-12-19 13:12:00,
2013-12-19 08:13:00,28.5,27.0,30.22,WNW,301,0.0,0.0,94,0.00,,,0.00,142.00,VWS V14.01,2013-12-19 13:13:00,
2013-12-19 08:14:00,28.7,27.2,30.22,WNW,301,0.0,0.0,94,0.00,,,0.00,141.00,VWS V14.01,2013-12-19 13:14:00,
2013-12-19 08:15:00,29.0,27.5,30.22,WNW,301,0.0,0.0,94,0.00,,,0.00,139.00,VWS V14.01,2013-12-19 13:15:00,
2013-12-19 08:16:00,29.1,27.6,30.22,WNW,301,0.0,0.0,94,0.00,,,0.00,142.00,VWS V14.01,2013-12-19 13:16:00,
2013-12-19 08:17:00,29.3,27.8,30.22,WNW,301,0.0,0.0,94,0.00,,,0.00,139.00,VWS V14.01,2013-12-19 13:17:00,
2013-12-19 08:18:00,29.4,27.9,30.22,WNW,301,0.0,0.0,94,0.00,,,0.00,141.00,VWS V14.01,2013-12-19 13:18:00,
2013-12-19 08:19:00,29.5,28.0,30.22,WNW,301,0.0,0.0,94,0.00,,,0.00,146.00,VWS V14.01,2013-12-19 13:19:00,
2013-12-19 08:20:00,29.7,28.2,30.22,WNW,301,0.0,0.0,94,0.00,,,0.00,146.00,VWS V14.01,2013-12-19 13:20:00,
2013-12-19 08:21:00,29.8,28.3,30.22,WNW,301,0.0,0.0,94,0.00,,,0.00,149.00,VWS V14.01,2013-12-19 13:21:00,
2013-12-19 08:22:00,30.0,28.5,30.22,WNW,301,0.0,0.0,94,0.00,,,0.00,151.00,VWS V14.01,2013-12-19 13:22:00,
2013-12-19 08:23:00,30.0,28.5,30.22,WNW,301,0.0,0.0,94,0.00,,,0.00,155.00,VWS V14.01,2013-12-19 13:23:00,
2013-12-19 08:24:00,30.3,28.8,30.22,WNW,301,0.0,0.0,94,0.00,,,0.00,156.00,VWS V14.01,2013-12-19 13:24:00,
2013-12-19 08:25:00,30.6,29.1,30.22,WNW,301,0.0,0.0,94,0.00,,,0.00,160.00,VWS V14.01,2013-12-19 13:25:00,
2013-12-19 08:26:00,30.9,29.4,30.22,WNW,301,0.0,0.0,94,0.00,,,0.00,162.00,VWS V14.01,2013-12-19 13:26:00,
2013-12-19 08:27:00,31.0,29.5,30.22,WNW,301,0.0,0.0,94,0.00,,,0.00,163.00,VWS V14.01,2013-12-19 13:27:00,
2013-12-19 08:28:00,31.2,29.7,30.22,WNW,301,0.0,0.0,94,0.00,,,0.00,165.00,VWS V14.01,2013-12-19 13:28:00,
2013-12-19 08:29:00,31.3,29.8,30.22,WNW,301,0.0,0.0,94,0.00,,,0.00,169.00,VWS V14.01,2013-12-19 13:29:00,
2013-12-19 08:30:00,31.5,30.0,30.23,WNW,301,0.0,0.0,94,0.00,,,0.00,171.00,VWS V14.01,2013-12-19 13:30:00,
2013-12-19 08:31:00,31.6,30.1,30.23,WNW,301,0.0,0.0,94,0.00,,,0.00,176.00,VWS V14.01,2013-12-19 13:31:00,
2013-12-19 08:32:00,31.8,30.3,30.23,WNW,301,0.0,0.0,94,0.00,,,0.00,178.00,VWS V14.01,2013-12-19 13:32:00,
2013-12-19 08:33:00,31.9,30.4,30.23,WNW,301,0.0,0.0,94,0.00,,,0.00,179.00,VWS V14.01,2013-12-19 13:33:00,
2013-12-19 08:34:00,32.1,30.6,30.23,WNW,301,0.0,0.0,94,0.00,,,0.00,181.00,VWS V14.01,2013-12-19 13:34:00,
2013-12-19 08:35:00,32.2,30.7,30.23,WNW,301,0.0,0.0,94,0.00,,,0.00,185.00,VWS V14.01,2013-12-19 13:35:00,
2013-12-19 08:36:00,32.4,30.9,30.23,WNW,301,0.0,0.0,94,0.00,,,0.00,186.00,VWS V14.01,2013-12-19 13:36:00,
2013-12-19 08:37:00,32.4,30.9,30.23,WNW,301,0.0,0.0,94,0.00,,,0.00,186.00,VWS V14.01,2013-12-19 13:37:00,
2013-12-19 08:38:00,32.4,30.9,30.23,WNW,301,0.0,0.0,94,0.00,,,0.00,186.00,VWS V14.01,2013-12-19 13:38:00,
2013-12-19 08:39:00,33.2,31.7,30.23,WNW,301,0.0,0.0,94,0.00,,,0.00,195.00,VWS V14.01,2013-12-19 13:39:00,
2013-12-19 08:40:00,33.5,32.0,30.23,WNW,301,0.0,0.0,94,0.00,,,0.00,199.00,VWS V14.01,2013-12-19 13:40:00,
2013-12-19 08:41:00,33.7,32.2,30.23,WNW,301,0.0,0.0,94,0.00,,,0.00,204.00,VWS V14.01,2013-12-19 13:41:00,
2013-12-19 08:42:00,33.8,32.3,30.23,WNW,301,0.0,0.0,94,0.00,,,0.00,206.00,VWS V14.01,2013-12-19 13:42:00,
2013-12-19 08:43:00,34.0,32.5,30.23,WNW,301,0.0,0.0,94,0.00,,,0.00,207.00,VWS V14.01,2013-12-19 13:43:00,
2013-12-19 08:44:00,34.3,32.8,30.23,WNW,301,0.0,0.0,94,0.00,,,0.00,211.00,VWS V14.01,2013-12-19 13:44:00,
2013-12-19 08:45:00,34.4,32.9,30.23,WNW,301,0.0,0.0,94,0.00,,,0.00,209.00,VWS V14.01,2013-12-19 13:45:00,
2013-12-19 08:46:00,34.7,33.2,30.23,WNW,301,0.0,0.0,94,0.00,,,0.00,207.00,VWS V14.01,2013-12-19 13:46:00,
2013-12-19 08:47:00,34.9,33.3,30.23,WNW,301,0.0,0.0,94,0.00,,,0.00,211.00,VWS V14.01,2013-12-19 13:47:00,
2013-12-19 08:48:00,35.0,33.5,30.23,WNW,301,0.0,0.0,94,0.00,,,0.00,214.00,VWS V14.01,2013-12-19 13:48:00,
2013-12-19 08:49:00,35.3,33.8,30.23,WNW,301,0.0,0.0,94,0.00,,,0.00,216.00,VWS V14.01,2013-12-19 13:49:00,
2013-12-19 08:50:00,35.5,34.0,30.23,WNW,301,0.0,0.0,94,0.00,,,0.00,213.00,VWS V14.01,2013-12-19 13:50:00,
2013-12-19 08:51:00,35.6,34.0,30.23,WNW,301,0.0,0.0,94,0.00,,,0.00,220.00,VWS V14.01,2013-12-19 13:51:00,
2013-12-19 08:52:00,35.8,34.2,30.23,WNW,301,0.0,0.0,94,0.00,,,0.00,227.00,VWS V14.01,2013-12-19 13:52:00,
2013-12-19 08:53:00,35.9,34.1,30.23,WNW,301,0.0,0.0,93,0.00,,,0.00,239.00,VWS V14.01,2013-12-19 13:53:00,
2013-12-19 08:54:00,36.0,34.2,30.23,WNW,301,0.0,0.0,93,0.00,,,0.00,244.00,VWS V14.01,2013-12-19 13:54:00,
2013-12-19 08:55:00,36.2,34.1,30.23,WNW,301,0.0,0.0,92,0.00,,,0.00,248.00,VWS V14.01,2013-12-19 13:55:00,
2013-12-19 08:56:00,36.3,34.2,30.23,WNW,301,0.0,0.0,92,0.00,,,0.00,251.00,VWS V14.01,2013-12-19 13:56:00,
2013-12-19 08:57:00,36.6,34.5,30.23,WNW,301,0.0,0.0,92,0.00,,,0.00,257.00,VWS V14.01,2013-12-19 13:57:00,
2013-12-19 08:58:00,36.9,34.8,30.23,WNW,301,2.0,2.0,92,0.00,,,0.00,262.00,VWS V14.01,2013-12-19 13:58:00,
2013-12-19 08:59:00,37.0,34.6,30.23,WNW,301,0.0,2.0,91,0.00,,,0.00,269.00,VWS V14.01,2013-12-19 13:59:00,
2013-12-19 09:00:00,37.3,34.6,30.23,West,264,2.0,4.0,90,0.00,,,0.00,272.00,VWS V14.01,2013-12-19 14:00:00,
2013-12-19 09:01:00,37.6,34.7,30.23,West,264,0.0,0.0,89,0.00,,,0.00,274.00,VWS V14.01,2013-12-19 14:01:00,
2013-12-19 09:02:00,37.8,34.6,30.23,West,264,0.0,0.0,88,0.00,,,0.00,278.00,VWS V14.01,2013-12-19 14:02:00,
2013-12-19 09:03:00,38.0,33.9,30.23,West,264,0.0,0.0,85,0.00,,,0.00,279.00,VWS V14.01,2013-12-19 14:03:00,
2013-12-19 09:04:00,38.2,34.1,30.23,West,264,0.0,0.0,85,0.00,,,0.00,283.00,VWS V14.01,2013-12-19 14:04:00,
2013-12-19 09:05:00,38.3,33.6,30.23,West,264,0.0,0.0,83,0.00,,,0.00,287.00,VWS V14.01,2013-12-19 14:05:00,
2013-12-19 09:06:00,38.5,33.2,30.23,West,264,1.0,1.0,81,0.00,,,0.00,290.00,VWS V14.01,2013-12-19 14:06:00,
2013-12-19 09:07:00,38.8,33.2,30.23,West,264,0.0,0.0,80,0.00,,,0.00,292.00,VWS V14.01,2013-12-19 14:07:00,
2013-12-19 09:08:00,39.1,32.8,30.23,West,264,0.0,0.0,78,0.00,,,0.00,294.00,VWS V14.01,2013-12-19 14:08:00,
2013-12-19 09:09:00,39.2,32.6,30.23,West,264,0.0,0.0,77,0.00,,,0.00,295.00,VWS V14.01,2013-12-19 14:09:00,
2013-12-19 09:10:00,39.3,32.4,30.23,West,264,0.0,0.0,76,0.00,,,0.00,297.00,VWS V14.01,2013-12-19 14:10:00,
2013-12-19 09:11:00,39.5,32.2,30.23,West,264,0.0,0.0,75,0.00,,,0.00,302.00,VWS V14.01,2013-12-19 14:11:00,
2013-12-19 09:12:00,39.8,32.2,30.23,West,264,0.0,1.0,74,0.00,,,0.00,304.00,VWS V14.01,2013-12-19 14:12:00,
2013-12-19 09:13:00,39.9,32.0,30.23,West,264,0.0,0.0,73,0.00,,,0.00,308.00,VWS V14.01,2013-12-19 14:13:00,
2013-12-19 09:14:00,40.2,31.9,30.23,West,264,2.0,2.0,72,0.00,,,0.00,309.00,VWS V14.01,2013-12-19 14:14:00,
2013-12-19 09:15:00,40.5,31.1,30.24,West,264,0.0,3.0,69,0.00,,,0.00,311.00,VWS V14.01,2013-12-19 14:15:00,
2013-12-19 09:16:00,40.6,30.9,30.24,West,264,0.0,0.0,68,0.00,,,0.00,313.00,VWS V14.01,2013-12-19 14:16:00,
2013-12-19 09:17:00,40.9,31.2,30.24,West,264,0.0,0.0,68,0.00,,,0.00,318.00,VWS V14.01,2013-12-19 14:17:00,
2013-12-19 09:18:00,41.2,31.1,30.24,West,264,0.0,0.0,67,0.00,,,0.00,320.00,VWS V14.01,2013-12-19 14:18:00,
2013-12-19 09:19:00,41.3,30.8,30.24,West,264,0.0,0.0,66,0.00,,,0.00,322.00,VWS V14.01,2013-12-19 14:19:00,
2013-12-19 09:20:00,41.6,31.1,30.24,West,264,0.0,0.0,66,0.00,,,0.00,323.00,VWS V14.01,2013-12-19 14:20:00,
2013-12-19 09:21:00,41.8,31.7,30.24,West,264,0.0,0.0,67,0.00,,,0.00,327.00,VWS V14.01,2013-12-19 14:21:00,
2013-12-19 09:22:00,42.1,32.0,30.24,West,264,0.0,0.0,67,0.00,,,0.00,330.00,VWS V14.01,2013-12-19 14:22:00,
2013-12-19 09:23:00,42.2,31.7,30.24,West,264,0.0,0.0,66,0.00,,,0.00,332.00,VWS V14.01,2013-12-19 14:23:00,
2013-12-19 09:24:00,42.3,31.4,30.24,West,264,0.0,0.0,65,0.00,,,0.00,334.00,VWS V14.01,2013-12-19 14:24:00,
2013-12-19 09:25:00,42.5,31.6,30.24,West,264,0.0,0.0,65,0.00,,,0.00,336.00,VWS V14.01,2013-12-19 14:25:00,
2013-12-19 09:26:00,42.6,31.7,30.24,West,264,0.0,0.0,65,0.00,,,0.00,339.00,VWS V14.01,2013-12-19 14:26:00,
2013-12-19 09:27:00,42.8,31.5,30.24,West,264,0.0,0.0,64,0.00,,,0.00,341.00,VWS V14.01,2013-12-19 14:27:00,
2013-12-19 09:28:00,42.8,31.1,30.24,West,264,0.0,0.0,63,0.00,,,0.00,343.00,VWS V14.01,2013-12-19 14:28:00,
2013-12-19 09:29:00,42.9,31.2,30.24,West,264,0.0,0.0,63,0.00,,,0.00,346.00,VWS V14.01,2013-12-19 14:29:00,
2013-12-19 09:30:00,43.1,31.0,30.24,West,264,0.0,0.0,62,0.00,,,0.00,350.00,VWS V14.01,2013-12-19 14:30:00,
2013-12-19 09:31:00,43.2,31.1,30.24,West,264,0.0,0.0,62,0.00,,,0.00,352.00,VWS V14.01,2013-12-19 14:31:00,
2013-12-19 09:32:00,43.3,31.2,30.24,West,264,0.0,0.0,62,0.00,,,0.00,353.00,VWS V14.01,2013-12-19 14:32:00,
2013-12-19 09:33:00,43.6,31.0,30.24,West,264,0.0,0.0,61,0.00,,,0.00,357.00,VWS V14.01,2013-12-19 14:33:00,
2013-12-19 09:34:00,43.8,31.2,30.24,West,264,0.0,0.0,61,0.00,,,0.00,360.00,VWS V14.01,2013-12-19 14:34:00,
2013-12-19 09:35:00,43.9,31.3,30.24,West,264,0.0,0.0,61,0.00,,,0.00,362.00,VWS V14.01,2013-12-19 14:35:00,
2013-12-19 09:36:00,44.1,31.5,30.24,West,264,0.0,0.0,61,0.00,,,0.00,364.00,VWS V14.01,2013-12-19 14:36:00,
2013-12-19 09:37:00,44.2,31.2,30.24,West,264,0.0,0.0,60,0.00,,,0.00,367.00,VWS V14.01,2013-12-19 14:37:00,
2013-12-19 09:38:00,44.5,31.5,30.24,West,264,0.0,0.0,60,0.00,,,0.00,367.00,VWS V14.01,2013-12-19 14:38:00,
2013-12-19 09:39:00,44.6,31.2,30.24,West,264,0.0,0.0,59,0.00,,,0.00,371.00,VWS V14.01,2013-12-19 14:39:00,
2013-12-19 09:40:00,44.9,31.5,30.24,West,264,0.0,0.0,59,0.00,,,0.00,374.00,VWS V14.01,2013-12-19 14:40:00,
2013-12-19 09:41:00,45.1,31.6,30.24,West,264,0.0,0.0,59,0.00,,,0.00,378.00,VWS V14.01,2013-12-19 14:41:00,
2013-12-19 09:42:00,45.2,31.7,30.24,West,264,0.0,0.0,59,0.00,,,0.00,380.00,VWS V14.01,2013-12-19 14:42:00,
2013-12-19 09:43:00,45.4,31.5,30.24,West,264,0.0,0.0,58,0.00,,,0.00,381.00,VWS V14.01,2013-12-19 14:43:00,
2013-12-19 09:44:00,45.7,30.9,30.24,West,264,0.0,0.0,56,0.00,,,0.00,383.00,VWS V14.01,2013-12-19 14:44:00,
2013-12-19 09:45:00,45.8,30.6,30.24,West,264,0.0,0.0,55,0.00,,,0.00,385.00,VWS V14.01,2013-12-19 14:45:00,
2013-12-19 09:46:00,46.0,30.8,30.24,West,264,0.0,0.0,55,0.00,,,0.00,388.00,VWS V14.01,2013-12-19 14:46:00,
2013-12-19 09:47:00,46.2,30.5,30.24,West,264,0.0,0.0,54,0.00,,,0.00,390.00,VWS V14.01,2013-12-19 14:47:00,
2013-12-19 09:48:00,46.4,30.7,30.24,West,264,0.0,0.0,54,0.00,,,0.00,394.00,VWS V14.01,2013-12-19 14:48:00,
2013-12-19 09:49:00,46.5,30.8,30.24,West,264,0.0,1.0,54,0.00,,,0.00,396.00,VWS V14.01,2013-12-19 14:49:00,
2013-12-19 09:50:00,46.8,30.6,30.24,West,264,0.0,0.0,53,0.00,,,0.00,397.00,VWS V14.01,2013-12-19 14:50:00,
2013-12-19 09:51:00,46.8,30.6,30.24,West,264,0.0,0.0,53,0.00,,,0.00,399.00,VWS V14.01,2013-12-19 14:51:00,
2013-12-19 09:52:00,47.0,30.8,30.24,West,264,0.0,0.0,53,0.00,,,0.00,403.00,VWS V14.01,2013-12-19 14:52:00,
2013-12-19 09:53:00,47.3,30.6,30.24,West,264,0.0,0.0,52,0.00,,,0.00,403.00,VWS V14.01,2013-12-19 14:53:00,
2013-12-19 09:54:00,47.4,30.7,30.24,West,264,0.0,0.0,52,0.00,,,0.00,406.00,VWS V14.01,2013-12-19 14:54:00,
2013-12-19 09:55:00,47.6,30.9,30.24,West,264,0.0,0.0,52,0.00,,,0.00,408.00,VWS V14.01,2013-12-19 14:55:00,
2013-12-19 09:56:00,47.7,30.5,30.24,West,264,0.0,0.0,51,0.00,,,0.00,410.00,VWS V14.01,2013-12-19 14:56:00,
2013-12-19 09:57:00,47.9,30.7,30.24,West,264,0.0,0.0,51,0.00,,,0.00,411.00,VWS V14.01,2013-12-19 14:57:00,
2013-12-19 09:58:00,48.0,30.8,30.24,West,264,0.0,0.0,51,0.00,,,0.00,415.00,VWS V14.01,2013-12-19 14:58:00,
2013-12-19 09:59:00,48.2,30.9,30.24,West,264,2.0,6.0,51,0.00,,,0.00,418.00,VWS V14.01,2013-12-19 14:59:00,
2013-12-19 10:00:00,48.3,30.5,30.23,WSW,251,4.0,6.0,50,0.00,,,0.00,420.00,VWS V14.01,2013-12-19 15:00:00,
2013-12-19 10:01:00,48.5,29.2,30.23,SSE,158,1.0,6.0,47,0.00,,,0.00,422.00,VWS V14.01,2013-12-19 15:01:00,
2013-12-19 10:02:00,48.6,28.8,30.23,WSW,257,14.0,14.0,46,0.00,,,0.00,424.00,VWS V14.01,2013-12-19 15:02:00,
2013-12-19 10:03:00,48.8,26.7,30.23,WNW,291,10.0,13.0,42,0.00,,,0.00,425.00,VWS V14.01,2013-12-19 15:03:00,
2013-12-19 10:04:00,48.9,26.8,30.23,WSW,250,4.0,12.0,42,0.00,,,0.00,427.00,VWS V14.01,2013-12-19 15:04:00,
2013-12-19 10:05:00,49.2,27.1,30.23,WSW,244,7.0,7.0,42,0.00,,,0.00,431.00,VWS V14.01,2013-12-19 15:05:00,
2013-12-19 10:06:00,49.5,26.2,30.23,SSW,203,10.0,10.0,40,0.00,,,0.00,432.00,VWS V14.01,2013-12-19 15:06:00,
2013-12-19 10:07:00,49.8,26.5,30.23,WSW,243,8.0,11.0,40,0.00,,,0.00,436.00,VWS V14.01,2013-12-19 15:07:00,
2013-12-19 10:08:00,50.1,27.3,30.23,WSW,248,7.0,14.0,41,0.00,,,0.00,436.00,VWS V14.01,2013-12-19 15:08:00,
2013-12-19 10:09:00,50.2,25.6,30.23,SW,224,4.0,10.0,38,0.00,,,0.00,438.00,VWS V14.01,2013-12-19 15:09:00,
2013-12-19 10:10:00,50.5,25.9,30.23,WSW,245,2.0,9.0,38,0.00,,,0.00,441.00,VWS V14.01,2013-12-19 15:10:00,
2013-12-19 10:11:00,50.7,26.0,30.23,SW,231,11.0,12.0,38,0.00,,,0.00,441.00,VWS V14.01,2013-12-19 15:11:00,
2013-12-19 10:12:00,50.8,25.5,30.23,SSW,213,0.0,6.0,37,0.00,,,0.00,443.00,VWS V14.01,2013-12-19 15:12:00,
2013-12-19 10:13:00,51.0,25.7,30.23,SSW,213,0.0,0.0,37,0.00,,,0.00,445.00,VWS V14.01,2013-12-19 15:13:00,
2013-12-19 10:14:00,51.3,27.8,30.23,WSW,238,3.0,3.0,40,0.00,,,0.00,446.00,VWS V14.01,2013-12-19 15:14:00,
2013-12-19 10:15:00,51.4,27.3,30.23,SW,224,5.0,6.0,39,0.00,,,0.00,448.00,VWS V14.01,2013-12-19 15:15:00,
2013-12-19 10:16:00,51.7,27.6,30.23,SW,236,0.0,4.0,39,0.00,,,0.00,452.00,VWS V14.01,2013-12-19 15:16:00,
2013-12-19 10:17:00,51.9,27.1,30.23,SW,236,0.0,1.0,38,0.00,,,0.00,452.00,VWS V14.01,2013-12-19 15:17:00,
2013-12-19 10:18:00,52.2,28.0,30.23,SW,235,0.0,3.0,39,0.00,,,0.00,455.00,VWS V14.01,2013-12-19 15:18:00,
2013-12-19 10:19:00,52.3,26.8,30.23,WSW,247,6.0,7.0,37,0.00,,,0.00,457.00,VWS V14.01,2013-12-19 15:19:00,
2013-12-19 10:20:00,52.5,25.7,30.23,SW,217,0.0,10.0,35,0.00,,,0.00,459.00,VWS V14.01,2013-12-19 15:20:00,
2013-12-19 10:21:00,52.6,26.4,30.23,SW,217,0.0,0.0,36,0.00,,,0.00,459.00,VWS V14.01,2013-12-19 15:21:00,
2013-12-19 10:22:00,52.8,27.3,30.23,SW,225,2.0,3.0,37,0.00,,,0.00,462.00,VWS V14.01,2013-12-19 15:22:00,
2013-12-19 10:23:00,52.9,27.4,30.23,SSW,209,3.0,5.0,37,0.00,,,0.00,464.00,VWS V14.01,2013-12-19 15:23:00,
2013-12-19 10:24:00,53.1,26.2,30.23,SW,219,5.0,6.0,35,0.00,,,0.00,466.00,VWS V14.01,2013-12-19 15:24:00,
2013-12-19 10:25:00,53.2,26.3,30.23,West,262,5.0,5.0,35,0.00,,,0.00,468.00,VWS V14.01,2013-12-19 15:25:00,
2013-12-19 10:26:00,53.3,26.4,30.23,WSW,247,0.0,5.0,35,0.00,,,0.00,469.00,VWS V14.01,2013-12-19 15:26:00,
2013-12-19 10:27:00,53.5,25.8,30.23,SW,234,4.0,10.0,34,0.00,,,0.00,471.00,VWS V14.01,2013-12-19 15:27:00,
2013-12-19 10:28:00,53.6,25.2,30.23,SW,223,1.0,5.0,33,0.00,,,0.00,475.00,VWS V14.01,2013-12-19 15:28:00,
2013-12-19 10:29:00,53.8,26.1,30.23,SW,214,0.0,6.0,34,0.00,,,0.00,475.00,VWS V14.01,2013-12-19 15:29:00,
2013-12-19 10:30:00,53.8,26.1,30.22,SW,217,0.0,2.0,34,0.00,,,0.00,476.00,VWS V14.01,2013-12-19 15:30:00,
2013-12-19 10:31:00,53.9,26.2,30.22,NW,304,6.0,11.0,34,0.00,,,0.00,478.00,VWS V14.01,2013-12-19 15:31:00,
2013-12-19 10:32:00,53.9,26.2,30.22,SW,221,0.0,4.0,34,0.00,,,0.00,480.00,VWS V14.01,2013-12-19 15:32:00,
2013-12-19 10:33:00,53.9,25.5,30.22,WNW,292,0.0,7.0,33,0.00,,,0.00,482.00,VWS V14.01,2013-12-19 15:33:00,
2013-12-19 10:34:00,54.1,25.6,30.22,SW,224,5.0,6.0,33,0.00,,,0.00,483.00,VWS V14.01,2013-12-19 15:34:00,
2013-12-19 10:35:00,54.1,24.2,30.22,WSW,256,9.0,9.0,31,0.00,,,0.00,483.00,VWS V14.01,2013-12-19 15:35:00,
2013-12-19 10:36:00,54.2,24.2,30.22,WSW,243,0.0,9.0,31,0.00,,,0.00,487.00,VWS V14.01,2013-12-19 15:36:00,
2013-12-19 10:37:00,54.2,24.2,30.22,SW,236,0.0,7.0,31,0.00,,,0.00,489.00,VWS V14.01,2013-12-19 15:37:00,
2013-12-19 10:38:00,54.2,24.2,30.22,West,281,10.0,10.0,31,0.00,,,0.00,489.00,VWS V14.01,2013-12-19 15:38:00,
2013-12-19 10:39:00,54.2,23.5,30.22,WSW,243,9.0,14.0,30,0.00,,,0.00,492.00,VWS V14.01,2013-12-19 15:39:00,
2013-12-19 10:40:00,54.2,23.5,30.22,SW,236,3.0,10.0,30,0.00,,,0.00,492.00,VWS V14.01,2013-12-19 15:40:00,
2013-12-19 10:41:00,54.4,23.6,30.22,West,269,5.0,9.0,30,0.00,,,0.00,494.00,VWS V14.01,2013-12-19 15:41:00,
2013-12-19 10:42:00,54.4,23.6,30.22,SSW,205,11.0,11.0,30,0.00,,,0.00,496.00,VWS V14.01,2013-12-19 15:42:00,
2013-12-19 10:43:00,54.2,22.6,30.22,SW,224,4.0,12.0,29,0.00,,,0.00,496.00,VWS V14.01,2013-12-19 15:43:00,
2013-12-19 10:44:00,54.2,22.6,30.22,WSW,256,10.0,10.0,29,0.00,,,0.00,499.00,VWS V14.01,2013-12-19 15:44:00,
2013-12-19 10:45:00,54.2,23.5,30.22,West,262,13.0,13.0,30,0.00,,,0.00,499.00,VWS V14.01,2013-12-19 15:45:00,
2013-12-19 10:46:00,54.2,22.6,30.22,SW,234,3.0,9.0,29,0.00,,,0.00,501.00,VWS V14.01,2013-12-19 15:46:00,
2013-12-19 10:47:00,54.2,22.6,30.22,WSW,248,5.0,10.0,29,0.00,,,0.00,499.00,VWS V14.01,2013-12-19 15:47:00,
2013-12-19 10:48:00,54.2,22.6,30.22,WSW,237,6.0,11.0,29,0.00,,,0.00,501.00,VWS V14.01,2013-12-19 15:48:00,
2013-12-19 10:49:00,54.2,22.6,30.22,West,281,6.0,15.0,29,0.00,,,0.00,501.00,VWS V14.01,2013-12-19 15:49:00,
2013-12-19 10:50:00,54.4,23.6,30.22,WSW,248,3.0,6.0,30,0.00,,,0.00,503.00,VWS V14.01,2013-12-19 15:50:00,
2013-12-19 10:51:00,54.4,23.6,30.22,WSW,254,5.0,6.0,30,0.00,,,0.00,506.00,VWS V14.01,2013-12-19 15:51:00,
2013-12-19 10:52:00,54.4,23.6,30.22,West,264,5.0,12.0,30,0.00,,,0.00,508.00,VWS V14.01,2013-12-19 15:52:00,
2013-12-19 10:53:00,54.5,22.9,30.22,WNW,290,12.0,12.0,29,0.00,,,0.00,512.00,VWS V14.01,2013-12-19 15:53:00,
2013-12-19 10:54:00,54.5,22.9,30.22,SW,224,4.0,11.0,29,0.00,,,0.00,512.00,VWS V14.01,2013-12-19 15:54:00,
2013-12-19 10:55:00,54.5,22.1,30.22,SW,229,5.0,13.0,28,0.00,,,0.00,513.00,VWS V14.01,2013-12-19 15:55:00,
2013-12-19 10:56:00,54.5,22.1,30.22,WSW,258,6.0,9.0,28,0.00,,,0.00,515.00,VWS V14.01,2013-12-19 15:56:00,
2013-12-19 10:57:00,54.5,22.1,30.22,WSW,244,6.0,11.0,28,0.00,,,0.00,515.00,VWS V14.01,2013-12-19 15:57:00,
2013-12-19 10:58:00,54.7,22.3,30.22,South,169,0.0,6.0,28,0.00,,,0.00,515.00,VWS V14.01,2013-12-19 15:58:00,
2013-12-19 10:59:00,54.7,24.7,30.22,WSW,246,6.0,6.0,31,0.00,,,0.00,517.00,VWS V14.01,2013-12-19 15:59:00,
2013-12-19 11:00:00,54.8,24.8,30.22,SW,221,3.0,10.0,31,0.00,,,0.00,519.00,VWS V14.01,2013-12-19 16:00:00,
2013-12-19 11:01:00,54.8,24.8,30.22,WSW,257,3.0,5.0,31,0.00,,,0.00,520.00,VWS V14.01,2013-12-19 16:01:00,
2013-12-19 11:02:00,55.0,24.2,30.22,WSW,255,9.0,16.0,30,0.00,,,0.00,522.00,VWS V14.01,2013-12-19 16:02:00,
2013-12-19 11:03:00,55.0,23.4,30.22,WSW,251,9.0,11.0,29,0.00,,,0.00,522.00,VWS V14.01,2013-12-19 16:03:00,
2013-12-19 11:04:00,55.1,22.6,30.22,West,280,7.0,11.0,28,0.00,,,0.00,524.00,VWS V14.01,2013-12-19 16:04:00,
2013-12-19 11:05:00,55.1,22.6,30.22,WSW,251,3.0,7.0,28,0.00,,,0.00,526.00,VWS V14.01,2013-12-19 16:05:00,
2013-12-19 11:06:00,55.1,23.4,30.22,WSW,238,0.0,6.0,29,0.00,,,0.00,526.00,VWS V14.01,2013-12-19 16:06:00,
2013-12-19 11:07:00,55.1,23.4,30.22,West,266,15.0,15.0,29,0.00,,,0.00,527.00,VWS V14.01,2013-12-19 16:07:00,
2013-12-19 11:08:00,55.3,23.6,30.22,South,181,9.0,11.0,29,0.00,,,0.00,527.00,VWS V14.01,2013-12-19 16:08:00,
2013-12-19 11:09:00,55.3,23.6,30.22,WSW,255,5.0,6.0,29,0.00,,,0.00,529.00,VWS V14.01,2013-12-19 16:09:00,
2013-12-19 11:10:00,55.3,23.6,30.22,West,259,5.0,7.0,29,0.00,,,0.00,529.00,VWS V14.01,2013-12-19 16:10:00,
2013-12-19 11:11:00,55.4,23.7,30.22,West,270,5.0,8.0,29,0.00,,,0.00,527.00,VWS V14.01,2013-12-19 16:11:00,
2013-12-19 11:12:00,55.4,22.9,30.22,West,260,1.0,9.0,28,0.00,,,0.00,531.00,VWS V14.01,2013-12-19 16:12:00,
2013-12-19 11:13:00,55.6,23.9,30.22,SW,214,4.0,9.0,29,0.00,,,0.00,533.00,VWS V14.01,2013-12-19 16:13:00,
2013-12-19 11:14:00,55.6,23.0,30.22,SW,215,9.0,9.0,28,0.00,,,0.00,534.00,VWS V14.01,2013-12-19 16:14:00,
2013-12-19 11:15:00,55.7,23.1,30.21,West,262,4.0,10.0,28,0.00,,,0.00,536.00,VWS V14.01,2013-12-19 16:15:00,
2013-12-19 11:16:00,55.9,23.3,30.21,SW,215,8.0,8.0,28,0.00,,,0.00,536.00,VWS V14.01,2013-12-19 16:16:00,
2013-12-19 11:17:00,55.9,23.3,30.21,SSW,195,7.0,8.0,28,0.00,,,0.00,538.00,VWS V14.01,2013-12-19 16:17:00,
2013-12-19 11:18:00,56.0,22.5,30.21,WSW,247,5.0,8.0,27,0.00,,,0.00,540.00,VWS V14.01,2013-12-19 16:18:00,
2013-12-19 11:19:00,56.0,23.4,30.21,SW,232,12.0,12.0,28,0.00,,,0.00,540.00,VWS V14.01,2013-12-19 16:19:00,
2013-12-19 11:20:00,56.2,22.7,30.21,WSW,238,0.0,6.0,27,0.00,,,0.00,541.00,VWS V14.01,2013-12-19 16:20:00,
2013-12-19 11:21:00,56.2,23.5,30.21,SW,224,7.0,7.0,28,0.00,,,0.00,541.00,VWS V14.01,2013-12-19 16:21:00,
2013-12-19 11:22:00,56.3,23.6,30.21,SW,222,9.0,9.0,28,0.00,,,0.00,541.00,VWS V14.01,2013-12-19 16:22:00,
2013-12-19 11:23:00,56.3,22.8,30.21,West,263,6.0,13.0,27,0.00,,,0.00,541.00,VWS V14.01,2013-12-19 16:23:00,
2013-12-19 11:24:00,56.5,23.8,30.21,SW,234,8.0,9.0,28,0.00,,,0.00,541.00,VWS V14.01,2013-12-19 16:24:00,
2013-12-19 11:25:00,56.5,23.8,30.21,SW,226,3.0,5.0,28,0.00,,,0.00,545.00,VWS V14.01,2013-12-19 16:25:00,
2013-12-19 11:26:00,56.5,23.8,30.21,SSW,203,7.0,7.0,28,0.00,,,0.00,547.00,VWS V14.01,2013-12-19 16:26:00,
2013-12-19 11:27:00,56.6,23.9,30.21,SW,236,3.0,9.0,28,0.00,,,0.00,545.00,VWS V14.01,2013-12-19 16:27:00,
2013-12-19 11:28:00,56.6,23.0,30.21,SW,226,4.0,5.0,27,0.00,,,0.00,547.00,VWS V14.01,2013-12-19 16:28:00,
2013-12-19 11:29:00,56.7,24.0,30.21,West,260,5.0,6.0,28,0.00,,,0.00,547.00,VWS V14.01,2013-12-19 16:29:00,
2013-12-19 11:30:00,56.9,24.1,30.20,SW,215,4.0,5.0,28,0.00,,,0.00,548.00,VWS V14.01,2013-12-19 16:30:00,
2013-12-19 11:31:00,56.9,24.1,30.20,SW,229,3.0,10.0,28,0.00,,,0.00,548.00,VWS V14.01,2013-12-19 16:31:00,
2013-12-19 11:32:00,57.0,23.4,30.20,West,264,4.0,7.0,27,0.00,,,0.00,550.00,VWS V14.01,2013-12-19 16:32:00,
2013-12-19 11:33:00,57.0,23.4,30.20,WSW,242,5.0,7.0,27,0.00,,,0.00,552.00,VWS V14.01,2013-12-19 16:33:00,
2013-12-19 11:34:00,57.2,24.4,30.20,SW,231,3.0,5.0,28,0.00,,,0.00,550.00,VWS V14.01,2013-12-19 16:34:00,
2013-12-19 11:35:00,57.2,23.5,30.20,SW,232,7.0,7.0,27,0.00,,,0.00,552.00,VWS V14.01,2013-12-19 16:35:00,
2013-12-19 11:36:00,57.2,23.5,30.20,SW,231,12.0,13.0,27,0.00,,,0.00,552.00,VWS V14.01,2013-12-19 16:36:00,
2013-12-19 11:37:00,57.2,22.6,30.20,SW,214,2.0,7.0,26,0.00,,,0.00,554.00,VWS V14.01,2013-12-19 16:37:00,
2013-12-19 11:38:00,57.3,23.6,30.20,West,262,5.0,5.0,27,0.00,,,0.00,552.00,VWS V14.01,2013-12-19 16:38:00,
2013-12-19 11:39:00,57.3,23.6,30.20,SSW,194,6.0,9.0,27,0.00,,,0.00,552.00,VWS V14.01,2013-12-19 16:39:00,
2013-12-19 11:40:00,57.3,23.6,30.20,SSW,194,6.0,6.0,27,0.00,,,0.00,552.00,VWS V14.01,2013-12-19 16:40:00,
2013-12-19 11:41:00,57.5,23.8,30.20,WSW,244,4.0,6.0,27,0.00,,,0.00,555.00,VWS V14.01,2013-12-19 16:41:00,
2013-12-19 11:42:00,57.5,23.8,30.20,SSW,197,5.0,9.0,27,0.00,,,0.00,555.00,VWS V14.01,2013-12-19 16:42:00,
2013-12-19 11:43:00,57.6,24.8,30.20,WSW,245,7.0,8.0,28,0.00,,,0.00,555.00,VWS V14.01,2013-12-19 16:43:00,
2013-12-19 11:44:00,57.6,24.8,30.20,WSW,245,7.0,7.0,28,0.00,,,0.00,555.00,VWS V14.01,2013-12-19 16:44:00,
2013-12-19 11:45:00,57.6,23.0,30.20,WSW,255,3.0,10.0,26,0.00,,,0.00,559.00,VWS V14.01,2013-12-19 16:45:00,
2013-12-19 11:46:00,57.6,23.9,30.20,West,281,7.0,7.0,27,0.00,,,0.00,559.00,VWS V14.01,2013-12-19 16:46:00,
2013-12-19 11:47:00,57.6,23.9,30.20,West,267,11.0,11.0,27,0.00,,,0.00,559.00,VWS V14.01,2013-12-19 16:47:00,
2013-12-19 11:48:00,57.6,23.0,30.20,SW,214,5.0,11.0,26,0.00,,,0.00,559.00,VWS V14.01,2013-12-19 16:48:00,
2013-12-19 11:49:00,57.6,23.0,30.20,South,188,4.0,9.0,26,0.00,,,0.00,557.00,VWS V14.01,2013-12-19 16:49:00,
2013-12-19 11:50:00,57.6,23.0,30.20,SW,233,6.0,11.0,26,0.00,,,0.00,554.00,VWS V14.01,2013-12-19 16:50:00,
2013-12-19 11:51:00,57.8,24.1,30.20,SSW,211,4.0,5.0,27,0.00,,,0.00,555.00,VWS V14.01,2013-12-19 16:51:00,
2013-12-19 11:52:00,57.8,24.9,30.20,SW,227,4.0,11.0,28,0.00,,,0.00,555.00,VWS V14.01,2013-12-19 16:52:00,
2013-12-19 11:53:00,57.8,23.2,30.20,WSW,251,5.0,7.0,26,0.00,,,0.00,557.00,VWS V14.01,2013-12-19 16:53:00,
2013-12-19 11:54:00,58.0,23.3,30.20,SW,229,4.0,9.0,26,0.00,,,0.00,561.00,VWS V14.01,2013-12-19 16:54:00,
2013-12-19 11:55:00,58.0,23.3,30.20,WSW,250,2.0,7.0,26,0.00,,,0.00,559.00,VWS V14.01,2013-12-19 16:55:00,
2013-12-19 11:56:00,58.1,24.3,30.20,SW,227,3.0,11.0,27,0.00,,,0.00,561.00,VWS V14.01,2013-12-19 16:56:00,
2013-12-19 11:57:00,58.1,25.2,30.20,SSW,207,12.0,12.0,28,0.00,,,0.00,561.00,VWS V14.01,2013-12-19 16:57:00,
2013-12-19 11:58:00,58.3,24.5,30.20,South,189,4.0,12.0,27,0.00,,,0.00,563.00,VWS V14.01,2013-12-19 16:58:00,
2013-12-19 11:59:00,58.3,23.6,30.20,SW,217,6.0,7.0,26,0.00,,,0.00,563.00,VWS V14.01,2013-12-19 16:59:00,
2013-12-19 12:00:00,58.4,23.7,30.19,WSW,241,9.0,9.0,26,0.00,,,0.00,563.00,VWS V14.01,2013-12-19 17:00:00,
2013-12-19 12:01:00,58.4,23.7,30.19,WSW,255,7.0,9.0,26,0.00,,,0.00,561.00,VWS V14.01,2013-12-19 17:01:00,
2013-12-19 12:02:00,58.4,23.7,30.19,SW,225,3.0,7.0,26,0.00,,,0.00,563.00,VWS V14.01,2013-12-19 17:02:00,
2013-12-19 12:03:00,58.6,23.8,30.19,WSW,256,4.0,7.0,26,0.00,,,0.00,563.00,VWS V14.01,2013-12-19 17:03:00,
2013-12-19 12:04:00,58.7,23.9,30.19,WSW,248,7.0,12.0,26,0.00,,,0.00,561.00,VWS V14.01,2013-12-19 17:04:00,
2013-12-19 12:05:00,58.7,23.9,30.19,West,276,11.0,11.0,26,0.00,,,0.00,563.00,VWS V14.01,2013-12-19 17:05:00,
2013-12-19 12:06:00,58.9,24.1,30.19,West,259,0.0,7.0,26,0.00,,,0.00,564.00,VWS V14.01,2013-12-19 17:06:00,
2013-12-19 12:07:00,58.9,25.0,30.19,WSW,254,4.0,8.0,27,0.00,,,0.00,563.00,VWS V14.01,2013-12-19 17:07:00,
2013-12-19 12:08:00,59.0,25.1,30.19,WSW,244,3.0,5.0,27,0.00,,,0.00,563.00,VWS V14.01,2013-12-19 17:08:00,
2013-12-19 12:09:00,59.2,25.3,30.19,SSW,205,7.0,9.0,27,0.00,,,0.00,563.00,VWS V14.01,2013-12-19 17:09:00,
2013-12-19 12:10:00,59.3,23.5,30.19,SSW,206,4.0,4.0,25,0.00,,,0.00,563.00,VWS V14.01,2013-12-19 17:10:00,
2013-12-19 12:11:00,59.3,23.5,30.19,WSW,241,4.0,5.0,25,0.00,,,0.00,563.00,VWS V14.01,2013-12-19 17:11:00,
2013-12-19 12:12:00,59.5,23.7,30.19,SW,219,6.0,11.0,25,0.00,,,0.00,563.00,VWS V14.01,2013-12-19 17:12:00,
2013-12-19 12:13:00,59.5,22.7,30.19,SW,236,6.0,6.0,24,0.00,,,0.00,561.00,VWS V14.01,2013-12-19 17:13:00,
2013-12-19 12:14:00,59.6,22.8,30.19,SW,231,1.0,5.0,24,0.00,,,0.00,561.00,VWS V14.01,2013-12-19 17:14:00,
2013-12-19 12:15:00,59.6,23.8,30.18,West,261,4.0,4.0,25,0.00,,,0.00,561.00,VWS V14.01,2013-12-19 17:15:00,
2013-12-19 12:16:00,59.8,23.9,30.18,West,262,7.0,10.0,25,0.00,,,0.00,559.00,VWS V14.01,2013-12-19 17:16:00,
2013-12-19 12:17:00,59.8,23.0,30.18,West,268,9.0,12.0,24,0.00,,,0.00,557.00,VWS V14.01,2013-12-19 17:17:00,
2013-12-19 12:18:00,59.6,22.8,30.18,WSW,250,7.0,12.0,24,0.00,,,0.00,555.00,VWS V14.01,2013-12-19 17:18:00,
2013-12-19 12:19:00,59.6,21.8,30.18,WSW,245,10.0,15.0,23,0.00,,,0.00,557.00,VWS V14.01,2013-12-19 17:19:00,
2013-12-19 12:20:00,59.5,22.7,30.18,SW,219,10.0,13.0,24,0.00,,,0.00,559.00,VWS V14.01,2013-12-19 17:20:00,
2013-12-19 12:21:00,59.3,22.5,30.18,WSW,243,11.0,11.0,24,0.00,,,0.00,561.00,VWS V14.01,2013-12-19 17:21:00,
2013-12-19 12:22:00,59.3,22.5,30.18,West,274,5.0,11.0,24,0.00,,,0.00,561.00,VWS V14.01,2013-12-19 17:22:00,
2013-12-19 12:23:00,59.3,23.5,30.18,WSW,251,4.0,5.0,25,0.00,,,0.00,561.00,VWS V14.01,2013-12-19 17:23:00,
2013-12-19 12:24:00,59.2,23.4,30.18,WSW,241,9.0,10.0,25,0.00,,,0.00,563.00,VWS V14.01,2013-12-19 17:24:00,
2013-12-19 12:25:00,59.3,22.5,30.18,WNW,297,4.0,12.0,24,0.00,,,0.00,563.00,VWS V14.01,2013-12-19 17:25:00,
2013-12-19 12:26:00,59.3,23.5,30.18,WSW,238,10.0,10.0,25,0.00,,,0.00,561.00,VWS V14.01,2013-12-19 17:26:00,
2013-12-19 12:27:00,59.3,23.5,30.18,West,274,7.0,14.0,25,0.00,,,0.00,561.00,VWS V14.01,2013-12-19 17:27:00,
2013-12-19 12:28:00,59.3,22.5,30.18,WSW,248,4.0,11.0,24,0.00,,,0.00,561.00,VWS V14.01,2013-12-19 17:28:00,
2013-12-19 12:29:00,59.3,21.5,30.18,SW,229,10.0,13.0,23,0.00,,,0.00,559.00,VWS V14.01,2013-12-19 17:29:00,
2013-12-19 12:30:00,59.3,22.5,30.17,WSW,250,4.0,11.0,24,0.00,,,0.00,559.00,VWS V14.01,2013-12-19 17:30:00,
2013-12-19 12:31:00,59.3,22.5,30.17,WSW,257,11.0,12.0,24,0.00,,,0.00,557.00,VWS V14.01,2013-12-19 17:31:00,
2013-12-19 12:32:00,59.3,22.5,30.17,WSW,240,6.0,12.0,24,0.00,,,0.00,557.00,VWS V14.01,2013-12-19 17:32:00,
2013-12-19 12:33:00,59.5,22.7,30.17,WSW,246,11.0,14.0,24,0.00,,,0.00,559.00,VWS V14.01,2013-12-19 17:33:00,
2013-12-19 12:34:00,59.5,22.7,30.17,West,275,6.0,11.0,24,0.00,,,0.00,557.00,VWS V14.01,2013-12-19 17:34:00,
2013-12-19 12:35:00,59.5,22.7,30.17,WSW,238,5.0,6.0,24,0.00,,,0.00,559.00,VWS V14.01,2013-12-19 17:35:00,
2013-12-19 12:36:00,59.5,22.7,30.17,West,262,5.0,8.0,24,0.00,,,0.00,555.00,VWS V14.01,2013-12-19 17:36:00,
2013-12-19 12:37:00,59.6,22.8,30.17,West,261,2.0,6.0,24,0.00,,,0.00,557.00,VWS V14.01,2013-12-19 17:37:00,
2013-12-19 12:38:00,59.6,22.8,30.17,SW,229,7.0,7.0,24,0.00,,,0.00,557.00,VWS V14.01,2013-12-19 17:38:00,
2013-12-19 12:39:00,59.6,22.8,30.17,WSW,253,6.0,15.0,24,0.00,,,0.00,555.00,VWS V14.01,2013-12-19 17:39:00,
2013-12-19 12:40:00,59.8,23.0,30.17,West,271,5.0,7.0,24,0.00,,,0.00,555.00,VWS V14.01,2013-12-19 17:40:00,
2013-12-19 12:41:00,59.8,23.0,30.17,WSW,252,7.0,7.0,24,0.00,,,0.00,555.00,VWS V14.01,2013-12-19 17:41:00,
2013-12-19 12:42:00,59.8,23.0,30.17,WSW,243,4.0,8.0,24,0.00,,,0.00,555.00,VWS V14.01,2013-12-19 17:42:00,
2013-12-19 12:43:00,59.9,24.0,30.17,WSW,250,5.0,5.0,25,0.00,,,0.00,555.00,VWS V14.01,2013-12-19 17:43:00,
2013-12-19 12:44:00,59.9,23.0,30.17,West,264,5.0,6.0,24,0.00,,,0.00,554.00,VWS V14.01,2013-12-19 17:44:00,
2013-12-19 12:45:00,60.1,23.2,30.16,WSW,246,3.0,7.0,24,0.00,,,0.00,555.00,VWS V14.01,2013-12-19 17:45:00,
2013-12-19 12:46:00,60.1,23.2,30.16,SW,235,5.0,11.0,24,0.00,,,0.00,552.00,VWS V14.01,2013-12-19 17:46:00,
2013-12-19 12:47:00,60.2,22.3,30.16,West,268,5.0,6.0,23,0.00,,,0.00,548.00,VWS V14.01,2013-12-19 17:47:00,
2013-12-19 12:48:00,60.2,22.3,30.16,SW,235,5.0,12.0,23,0.00,,,0.00,550.00,VWS V14.01,2013-12-19 17:48:00,
2013-12-19 12:49:00,60.2,23.3,30.16,SW,235,7.0,12.0,24,0.00,,,0.00,550.00,VWS V14.01,2013-12-19 17:49:00,
2013-12-19 12:50:00,60.2,22.3,30.16,WSW,256,10.0,10.0,23,0.00,,,0.00,547.00,VWS V14.01,2013-12-19 17:50:00,
2013-12-19 12:51:00,60.1,23.2,30.16,NW,317,6.0,11.0,24,0.00,,,0.00,547.00,VWS V14.01,2013-12-19 17:51:00,
2013-12-19 12:52:00,60.1,24.2,30.16,West,274,5.0,6.0,25,0.00,,,0.00,547.00,VWS V14.01,2013-12-19 17:52:00,
2013-12-19 12:53:00,60.1,25.1,30.16,WSW,250,3.0,5.0,26,0.00,,,0.00,548.00,VWS V14.01,2013-12-19 17:53:00,
2013-12-19 12:54:00,60.2,25.2,30.16,West,268,6.0,12.0,26,0.00,,,0.00,545.00,VWS V14.01,2013-12-19 17:54:00,
2013-12-19 12:55:00,60.2,23.3,30.16,West,271,6.0,9.0,24,0.00,,,0.00,543.00,VWS V14.01,2013-12-19 17:55:00,
2013-12-19 12:56:00,60.2,22.3,30.16,WSW,258,10.0,10.0,23,0.00,,,0.00,543.00,VWS V14.01,2013-12-19 17:56:00,
2013-12-19 12:57:00,60.2,22.3,30.16,WSW,257,10.0,11.0,23,0.00,,,0.00,543.00,VWS V14.01,2013-12-19 17:57:00,
2013-12-19 12:58:00,60.2,22.3,30.16,West,279,6.0,10.0,23,0.00,,,0.00,543.00,VWS V14.01,2013-12-19 17:58:00,
2013-12-19 12:59:00,60.2,23.3,30.16,WSW,240,3.0,12.0,24,0.00,,,0.00,543.00,VWS V14.01,2013-12-19 17:59:00,
2013-12-19 13:00:00,60.2,24.3,30.15,WSW,257,13.0,13.0,25,0.00,,,0.00,540.00,VWS V14.01,2013-12-19 18:00:00,
2013-12-19 13:01:00,60.2,23.3,30.15,West,276,11.0,13.0,24,0.00,,,0.00,540.00,VWS V14.01,2013-12-19 18:01:00,
2013-12-19 13:02:00,60.4,23.5,30.15,West,259,5.0,11.0,24,0.00,,,0.00,540.00,VWS V14.01,2013-12-19 18:02:00,
2013-12-19 13:03:00,60.4,23.5,30.15,West,262,6.0,9.0,24,0.00,,,0.00,538.00,VWS V14.01,2013-12-19 18:03:00,
2013-12-19 13:04:00,60.4,23.5,30.15,WSW,249,4.0,7.0,24,0.00,,,0.00,538.00,VWS V14.01,2013-12-19 18:04:00,
2013-12-19 13:05:00,60.5,23.5,30.15,South,188,8.0,8.0,24,0.00,,,0.00,538.00,VWS V14.01,2013-12-19 18:05:00,
2013-12-19 13:06:00,60.5,22.5,30.15,SW,235,8.0,10.0,23,0.00,,,0.00,536.00,VWS V14.01,2013-12-19 18:06:00,
2013-12-19 13:07:00,60.7,23.7,30.15,WSW,254,13.0,13.0,24,0.00,,,0.00,536.00,VWS V14.01,2013-12-19 18:07:00,
2013-12-19 13:08:00,60.7,23.7,30.15,WSW,257,10.0,13.0,24,0.00,,,0.00,534.00,VWS V14.01,2013-12-19 18:08:00,
2013-12-19 13:09:00,60.7,22.7,30.15,WSW,243,3.0,10.0,23,0.00,,,0.00,533.00,VWS V14.01,2013-12-19 18:09:00,
2013-12-19 13:10:00,60.9,21.8,30.15,West,268,3.0,9.0,22,0.00,,,0.00,533.00,VWS V14.01,2013-12-19 18:10:00,
2013-12-19 13:11:00,60.9,21.8,30.15,West,276,12.0,12.0,22,0.00,,,0.00,531.00,VWS V14.01,2013-12-19 18:11:00,
2013-12-19 13:12:00,60.9,21.8,30.15,SSW,210,1.0,10.0,22,0.00,,,0.00,529.00,VWS V14.01,2013-12-19 18:12:00,
2013-12-19 13:13:00,60.9,22.9,30.15,WNW,283,2.0,9.0,23,0.00,,,0.00,527.00,VWS V14.01,2013-12-19 18:13:00,
2013-12-19 13:14:00,61.0,23.0,30.15,WSW,257,0.0,6.0,23,0.00,,,0.00,529.00,VWS V14.01,2013-12-19 18:14:00,
2013-12-19 13:15:00,61.0,24.0,30.15,West,260,1.0,2.0,24,0.00,,,0.00,527.00,VWS V14.01,2013-12-19 18:15:00,
2013-12-19 13:16:00,61.2,24.1,30.15,SW,235,6.0,12.0,24,0.00,,,0.00,527.00,VWS V14.01,2013-12-19 18:16:00,
2013-12-19 13:17:00,61.2,23.1,30.15,West,269,10.0,10.0,23,0.00,,,0.00,526.00,VWS V14.01,2013-12-19 18:17:00,
2013-12-19 13:18:00,61.3,23.2,30.15,West,269,5.0,10.0,23,0.00,,,0.00,524.00,VWS V14.01,2013-12-19 18:18:00,
2013-12-19 13:19:00,61.3,23.2,30.15,West,267,2.0,9.0,23,0.00,,,0.00,522.00,VWS V14.01,2013-12-19 18:19:00,
2013-12-19 13:20:00,61.3,23.2,30.15,WSW,255,5.0,7.0,23,0.00,,,0.00,522.00,VWS V14.01,2013-12-19 18:20:00,
2013-12-19 13:21:00,61.5,23.4,30.15,SW,231,5.0,10.0,23,0.00,,,0.00,520.00,VWS V14.01,2013-12-19 18:21:00,
2013-12-19 13:22:00,61.5,22.3,30.15,West,276,6.0,13.0,22,0.00,,,0.00,519.00,VWS V14.01,2013-12-19 18:22:00,
2013-12-19 13:23:00,61.5,22.3,30.15,SW,224,4.0,6.0,22,0.00,,,0.00,519.00,VWS V14.01,2013-12-19 18:23:00,
2013-12-19 13:24:00,61.5,23.4,30.15,WSW,257,5.0,9.0,23,0.00,,,0.00,515.00,VWS V14.01,2013-12-19 18:24:00,
2013-12-19 13:25:00,61.6,23.5,30.15,WNW,296,4.0,4.0,23,0.00,,,0.00,515.00,VWS V14.01,2013-12-19 18:25:00,
2013-12-19 13:26:00,61.6,23.5,30.15,WSW,252,3.0,5.0,23,0.00,,,0.00,512.00,VWS V14.01,2013-12-19 18:26:00,
2013-12-19 13:27:00,61.6,24.5,30.15,WNW,297,4.0,9.0,24,0.00,,,0.00,512.00,VWS V14.01,2013-12-19 18:27:00,
2013-12-19 13:28:00,61.8,23.6,30.15,WSW,242,9.0,10.0,23,0.00,,,0.00,510.00,VWS V14.01,2013-12-19 18:28:00,
2013-12-19 13:29:00,61.8,23.6,30.15,WSW,238,3.0,9.0,23,0.00,,,0.00,508.00,VWS V14.01,2013-12-19 18:29:00,
2013-12-19 13:30:00,61.8,23.6,30.14,WSW,238,0.0,3.0,23,0.00,,,0.00,508.00,VWS V14.01,2013-12-19 18:30:00,
2013-12-19 13:31:00,62.0,23.8,30.14,SSW,210,3.0,6.0,23,0.00,,,0.00,508.00,VWS V14.01,2013-12-19 18:31:00,
2013-12-19 13:32:00,62.0,23.8,30.14,SSW,210,0.0,3.0,23,0.00,,,0.00,506.00,VWS V14.01,2013-12-19 18:32:00,
2013-12-19 13:33:00,62.0,24.8,30.14,WSW,255,6.0,7.0,24,0.00,,,0.00,506.00,VWS V14.01,2013-12-19 18:33:00,
2013-12-19 13:34:00,62.1,23.9,30.14,SSW,195,6.0,7.0,23,0.00,,,0.00,506.00,VWS V14.01,2013-12-19 18:34:00,
2013-12-19 13:35:00,62.1,23.9,30.14,SSW,205,0.0,4.0,23,0.00,,,0.00,501.00,VWS V14.01,2013-12-19 18:35:00,
2013-12-19 13:36:00,62.3,24.1,30.14,SW,224,4.0,4.0,23,0.00,,,0.00,501.00,VWS V14.01,2013-12-19 18:36:00,
2013-12-19 13:37:00,62.3,23.0,30.14,WSW,242,4.0,5.0,22,0.00,,,0.00,499.00,VWS V14.01,2013-12-19 18:37:00,
2013-12-19 13:38:00,62.4,23.1,30.14,West,262,9.0,12.0,22,0.00,,,0.00,499.00,VWS V14.01,2013-12-19 18:38:00,
2013-12-19 13:39:00,62.4,23.1,30.14,West,266,5.0,10.0,22,0.00,,,0.00,497.00,VWS V14.01,2013-12-19 18:39:00,
2013-12-19 13:40:00,62.4,23.1,30.14,West,271,7.0,11.0,22,0.00,,,0.00,496.00,VWS V14.01,2013-12-19 18:40:00,
2013-12-19 13:41:00,62.4,23.1,30.14,West,264,4.0,8.0,22,0.00,,,0.00,494.00,VWS V14.01,2013-12-19 18:41:00,
2013-12-19 13:42:00,62.4,23.1,30.14,SW,234,3.0,5.0,22,0.00,,,0.00,492.00,VWS V14.01,2013-12-19 18:42:00,
2013-12-19 13:43:00,62.4,23.1,30.14,WSW,250,5.0,10.0,22,0.00,,,0.00,490.00,VWS V14.01,2013-12-19 18:43:00,
2013-12-19 13:44:00,62.4,23.1,30.14,NW,304,0.0,6.0,22,0.00,,,0.00,489.00,VWS V14.01,2013-12-19 18:44:00,
2013-12-19 13:45:00,62.4,23.1,30.14,WSW,250,9.0,11.0,22,0.00,,,0.00,487.00,VWS V14.01,2013-12-19 18:45:00,
2013-12-19 13:46:00,62.4,23.1,30.14,WSW,237,4.0,10.0,22,0.00,,,0.00,485.00,VWS V14.01,2013-12-19 18:46:00,
2013-12-19 13:47:00,62.4,22.0,30.14,South,187,6.0,10.0,21,0.00,,,0.00,483.00,VWS V14.01,2013-12-19 18:47:00,
2013-12-19 13:48:00,62.4,22.0,30.14,WSW,243,10.0,10.0,21,0.00,,,0.00,482.00,VWS V14.01,2013-12-19 18:48:00,
2013-12-19 13:49:00,62.4,22.0,30.14,SSW,207,6.0,10.0,21,0.00,,,0.00,478.00,VWS V14.01,2013-12-19 18:49:00,
2013-12-19 13:50:00,62.4,22.0,30.14,SW,222,10.0,10.0,21,0.00,,,0.00,469.00,VWS V14.01,2013-12-19 18:50:00,
2013-12-19 13:51:00,62.4,22.0,30.14,SW,218,4.0,11.0,21,0.00,,,0.00,469.00,VWS V14.01,2013-12-19 18:51:00,
2013-12-19 13:52:00,62.4,22.0,30.14,WSW,246,4.0,11.0,21,0.00,,,0.00,475.00,VWS V14.01,2013-12-19 18:52:00,
2013-12-19 13:53:00,62.3,20.8,30.14,SW,220,9.0,13.0,20,0.00,,,0.00,473.00,VWS V14.01,2013-12-19 18:53:00,
2013-12-19 13:54:00,62.3,21.9,30.14,SSW,195,10.0,12.0,21,0.00,,,0.00,473.00,VWS V14.01,2013-12-19 18:54:00,
2013-12-19 13:55:00,62.3,21.9,30.14,SW,214,3.0,11.0,21,0.00,,,0.00,469.00,VWS V14.01,2013-12-19 18:55:00,
2013-12-19 13:56:00,62.3,23.0,30.14,West,279,3.0,7.0,22,0.00,,,0.00,468.00,VWS V14.01,2013-12-19 18:56:00,
2013-12-19 13:57:00,62.4,22.0,30.14,WSW,255,5.0,5.0,21,0.00,,,0.00,468.00,VWS V14.01,2013-12-19 18:57:00,
2013-12-19 13:58:00,62.4,22.0,30.14,West,266,7.0,13.0,21,0.00,,,0.00,464.00,VWS V14.01,2013-12-19 18:58:00,
2013-12-19 13:59:00,62.4,22.0,30.14,West,264,9.0,12.0,21,0.00,,,0.00,462.00,VWS V14.01,2013-12-19 18:59:00,
2013-12-19 14:00:00,62.4,22.0,30.13,West,269,11.0,13.0,21,0.00,,,0.00,459.00,VWS V14.01,2013-12-19 19:00:00,
2013-12-19 14:01:00,62.4,20.8,30.13,WSW,241,10.0,15.0,20,0.00,,,0.00,457.00,VWS V14.01,2013-12-19 19:01:00,
2013-12-19 14:02:00,62.4,22.0,30.13,WSW,245,6.0,12.0,21,0.00,,,0.00,454.00,VWS V14.01,2013-12-19 19:02:00,
2013-12-19 14:03:00,62.4,22.0,30.13,WSW,257,12.0,12.0,21,0.00,,,0.00,454.00,VWS V14.01,2013-12-19 19:03:00,
2013-12-19 14:04:00,62.4,22.0,30.13,West,260,8.0,11.0,21,0.00,,,0.00,436.00,VWS V14.01,2013-12-19 19:04:00,
2013-12-19 14:05:00,62.4,22.0,30.13,WSW,245,4.0,12.0,21,0.00,,,0.00,448.00,VWS V14.01,2013-12-19 19:05:00,
2013-12-19 14:06:00,62.4,22.0,30.13,WNW,293,4.0,7.0,21,0.00,,,0.00,446.00,VWS V14.01,2013-12-19 19:06:00,
2013-12-19 14:07:00,62.4,22.0,30.13,WSW,253,6.0,7.0,21,0.00,,,0.00,445.00,VWS V14.01,2013-12-19 19:07:00,
2013-12-19 14:08:00,62.4,23.1,30.13,SW,233,5.0,8.0,22,0.00,,,0.00,445.00,VWS V14.01,2013-12-19 19:08:00,
2013-12-19 14:09:00,62.4,22.0,30.13,SW,225,6.0,11.0,21,0.00,,,0.00,441.00,VWS V14.01,2013-12-19 19:09:00,
2013-12-19 14:10:00,62.4,22.0,30.13,West,276,6.0,10.0,21,0.00,,,0.00,436.00,VWS V14.01,2013-12-19 19:10:00,
2013-12-19 14:11:00,62.4,23.1,30.13,SW,231,9.0,11.0,22,0.00,,,0.00,436.00,VWS V14.01,2013-12-19 19:11:00,
2013-12-19 14:12:00,62.4,22.0,30.13,WSW,245,7.0,7.0,21,0.00,,,0.00,427.00,VWS V14.01,2013-12-19 19:12:00,
2013-12-19 14:13:00,62.4,22.0,30.13,West,273,7.0,11.0,21,0.00,,,0.00,424.00,VWS V14.01,2013-12-19 19:13:00,
2013-12-19 14:14:00,62.4,23.1,30.13,West,270,8.0,10.0,22,0.00,,,0.00,434.00,VWS V14.01,2013-12-19 19:14:00,
2013-12-19 14:15:00,62.4,22.0,30.13,WSW,252,6.0,10.0,21,0.00,,,0.00,432.00,VWS V14.01,2013-12-19 19:15:00,
2013-12-19 14:16:00,62.4,22.0,30.13,WSW,240,1.0,7.0,21,0.00,,,0.00,429.00,VWS V14.01,2013-12-19 19:16:00,
2013-12-19 14:17:00,62.4,22.0,30.13,SW,224,5.0,7.0,21,0.00,,,0.00,425.00,VWS V14.01,2013-12-19 19:17:00,
2013-12-19 14:18:00,62.4,23.1,30.13,SW,231,5.0,6.0,22,0.00,,,0.00,415.00,VWS V14.01,2013-12-19 19:18:00,
2013-12-19 14:19:00,62.4,23.1,30.13,WSW,240,2.0,13.0,22,0.00,,,0.00,316.00,VWS V14.01,2013-12-19 19:19:00,
2013-12-19 14:20:00,62.4,22.0,30.13,WSW,245,5.0,6.0,21,0.00,,,0.00,316.00,VWS V14.01,2013-12-19 19:20:00,
2013-12-19 14:21:00,62.4,22.0,30.13,SW,226,10.0,10.0,21,0.00,,,0.00,167.00,VWS V14.01,2013-12-19 19:21:00,
2013-12-19 14:22:00,62.3,23.0,30.13,SE,131,4.0,9.0,22,0.00,,,0.00,408.00,VWS V14.01,2013-12-19 19:22:00,
2013-12-19 14:23:00,62.3,23.0,30.13,SSW,205,6.0,9.0,22,0.00,,,0.00,410.00,VWS V14.01,2013-12-19 19:23:00,
2013-12-19 14:24:00,62.3,23.0,30.13,SSW,194,10.0,10.0,22,0.00,,,0.00,408.00,VWS V14.01,2013-12-19 19:24:00,
2013-12-19 14:25:00,62.3,21.9,30.13,SSW,195,10.0,10.0,21,0.00,,,0.00,408.00,VWS V14.01,2013-12-19 19:25:00,
2013-12-19 14:26:00,62.1,22.8,30.13,SSW,207,5.0,9.0,22,0.00,,,0.00,406.00,VWS V14.01,2013-12-19 19:26:00,
2013-12-19 14:27:00,62.1,22.8,30.13,West,281,6.0,10.0,22,0.00,,,0.00,396.00,VWS V14.01,2013-12-19 19:27:00,
2013-12-19 14:28:00,62.1,22.8,30.13,WSW,240,3.0,6.0,22,0.00,,,0.00,383.00,VWS V14.01,2013-12-19 19:28:00,
2013-12-19 14:29:00,62.1,22.8,30.13,WSW,240,0.0,2.0,22,0.00,,,0.00,325.00,VWS V14.01,2013-12-19 19:29:00,
2013-12-19 14:30:00,62.1,22.8,30.13,SW,226,5.0,6.0,22,0.00,,,0.00,260.00,VWS V14.01,2013-12-19 19:30:00,
2013-12-19 14:31:00,62.1,22.8,30.13,SW,227,3.0,5.0,22,0.00,,,0.00,243.00,VWS V14.01,2013-12-19 19:31:00,
2013-12-19 14:32:00,62.3,24.1,30.13,WSW,250,2.0,8.0,23,0.00,,,0.00,207.00,VWS V14.01,2013-12-19 19:32:00,
2013-12-19 14:33:00,62.3,24.1,30.13,SSW,204,4.0,10.0,23,0.00,,,0.00,125.00,VWS V14.01,2013-12-19 19:33:00,
2013-12-19 14:34:00,62.3,23.0,30.13,SW,223,7.0,10.0,22,0.00,,,0.00,54.00,VWS V14.01,2013-12-19 19:34:00,
2013-12-19 14:35:00,62.3,23.0,30.13,SW,228,5.0,10.0,22,0.00,,,0.00,54.00,VWS V14.01,2013-12-19 19:35:00,
2013-12-19 14:36:00,62.1,21.7,30.13,West,262,5.0,14.0,21,0.00,,,0.00,76.00,VWS V14.01,2013-12-19 19:36:00,
2013-12-19 14:37:00,62.1,22.8,30.13,West,275,4.0,6.0,22,0.00,,,0.00,91.00,VWS V14.01,2013-12-19 19:37:00,
2013-12-19 14:38:00,62.1,22.8,30.13,WSW,249,3.0,7.0,22,0.00,,,0.00,77.00,VWS V14.01,2013-12-19 19:38:00,
2013-12-19 14:39:00,62.1,21.7,30.13,SSW,208,3.0,6.0,21,0.00,,,0.00,53.00,VWS V14.01,2013-12-19 19:39:00,
2013-12-19 14:40:00,62.1,22.8,30.13,WNW,297,2.0,8.0,22,0.00,,,0.00,53.00,VWS V14.01,2013-12-19 19:40:00,
2013-12-19 14:41:00,62.1,22.8,30.13,WNW,282,10.0,14.0,22,0.00,,,0.00,51.00,VWS V14.01,2013-12-19 19:41:00,
2013-12-19 14:42:00,62.1,22.8,30.13,WSW,243,7.0,11.0,22,0.00,,,0.00,51.00,VWS V14.01,2013-12-19 19:42:00,
2013-12-19 14:43:00,62.1,21.7,30.13,West,264,5.0,6.0,21,0.00,,,0.00,51.00,VWS V14.01,2013-12-19 19:43:00,
2013-12-19 14:44:00,62.1,22.8,30.13,South,183,8.0,8.0,22,0.00,,,0.00,51.00,VWS V14.01,2013-12-19 19:44:00,
2013-12-19 14:45:00,62.1,22.8,30.13,South,191,5.0,7.0,22,0.00,,,0.00,51.00,VWS V14.01,2013-12-19 19:45:00,
2013-12-19 14:46:00,62.0,22.8,30.13,WSW,245,0.0,6.0,22,0.00,,,0.00,51.00,VWS V14.01,2013-12-19 19:46:00,
2013-12-19 14:47:00,62.0,22.8,30.13,WSW,239,1.0,4.0,22,0.00,,,0.00,51.00,VWS V14.01,2013-12-19 19:47:00,
2013-12-19 14:48:00,62.0,22.8,30.13,WSW,240,10.0,10.0,22,0.00,,,0.00,51.00,VWS V14.01,2013-12-19 19:48:00,
2013-12-19 14:49:00,62.0,22.8,30.13,SW,235,6.0,10.0,22,0.00,,,0.00,51.00,VWS V14.01,2013-12-19 19:49:00,
2013-12-19 14:50:00,62.0,21.6,30.13,WSW,247,4.0,6.0,21,0.00,,,0.00,51.00,VWS V14.01,2013-12-19 19:50:00,
2013-12-19 14:51:00,62.0,22.8,30.13,SW,234,0.0,4.0,22,0.00,,,0.00,51.00,VWS V14.01,2013-12-19 19:51:00,
2013-12-19 14:52:00,62.0,22.8,30.13,WSW,238,4.0,4.0,22,0.00,,,0.00,51.00,VWS V14.01,2013-12-19 19:52:00,
2013-12-19 14:53:00,62.0,23.8,30.13,West,269,9.0,9.0,23,0.00,,,0.00,51.00,VWS V14.01,2013-12-19 19:53:00,
2013-12-19 14:54:00,62.0,22.8,30.13,SW,234,4.0,9.0,22,0.00,,,0.00,51.00,VWS V14.01,2013-12-19 19:54:00,
2013-12-19 14:55:00,62.0,22.8,30.13,SSW,198,6.0,9.0,22,0.00,,,0.00,49.00,VWS V14.01,2013-12-19 19:55:00,
2013-12-19 14:56:00,62.0,22.8,30.13,West,268,5.0,6.0,22,0.00,,,0.00,49.00,VWS V14.01,2013-12-19 19:56:00,
2013-12-19 14:57:00,62.0,22.8,30.13,SW,217,4.0,5.0,22,0.00,,,0.00,49.00,VWS V14.01,2013-12-19 19:57:00,
2013-12-19 14:58:00,62.0,22.8,30.13,SSW,200,6.0,7.0,22,0.00,,,0.00,49.00,VWS V14.01,2013-12-19 19:58:00,
2013-12-19 14:59:00,62.0,22.8,30.13,SSW,202,1.0,6.0,22,0.00,,,0.00,49.00,VWS V14.01,2013-12-19 19:59:00,
2013-12-19 15:00:00,62.0,22.8,30.13,SW,223,4.0,7.0,22,0.00,,,0.00,49.00,VWS V14.01,2013-12-19 20:00:00,
2013-12-19 15:01:00,62.0,21.6,30.13,SW,231,6.0,10.0,21,0.00,,,0.00,49.00,VWS V14.01,2013-12-19 20:01:00,
2013-12-19 15:02:00,62.0,21.6,30.13,South,187,3.0,6.0,21,0.00,,,0.00,49.00,VWS V14.01,2013-12-19 20:02:00,
2013-12-19 15:03:00,62.0,22.8,30.13,WSW,241,3.0,9.0,22,0.00,,,0.00,49.00,VWS V14.01,2013-12-19 20:03:00,
2013-12-19 15:04:00,62.0,22.8,30.13,SW,220,8.0,8.0,22,0.00,,,0.00,49.00,VWS V14.01,2013-12-19 20:04:00,
2013-12-19 15:05:00,62.0,22.8,30.13,SW,217,12.0,12.0,22,0.00,,,0.00,49.00,VWS V14.01,2013-12-19 20:05:00,
2013-12-19 15:06:00,62.0,22.8,30.13,SSW,198,5.0,10.0,22,0.00,,,0.00,49.00,VWS V14.01,2013-12-19 20:06:00,
2013-12-19 15:07:00,62.0,22.8,30.13,SSW,208,6.0,9.0,22,0.00,,,0.00,49.00,VWS V14.01,2013-12-19 20:07:00,
2013-12-19 15:08:00,61.8,22.6,30.13,SSW,205,2.0,7.0,22,0.00,,,0.00,47.00,VWS V14.01,2013-12-19 20:08:00,
2013-12-19 15:09:00,61.8,22.6,30.13,WNW,285,5.0,5.0,22,0.00,,,0.00,47.00,VWS V14.01,2013-12-19 20:09:00,
2013-12-19 15:10:00,61.8,22.6,30.13,SSW,212,3.0,4.0,22,0.00,,,0.00,47.00,VWS V14.01,2013-12-19 20:10:00,
2013-12-19 15:11:00,61.8,21.5,30.13,SSW,202,3.0,6.0,21,0.00,,,0.00,47.00,VWS V14.01,2013-12-19 20:11:00,
2013-12-19 15:12:00,61.8,22.6,30.13,SSE,147,1.0,6.0,22,0.00,,,0.00,47.00,VWS V14.01,2013-12-19 20:12:00,
2013-12-19 15:13:00,61.8,22.6,30.13,West,260,6.0,6.0,22,0.00,,,0.00,47.00,VWS V14.01,2013-12-19 20:13:00,
2013-12-19 15:14:00,61.8,21.5,30.13,SW,227,10.0,10.0,21,0.00,,,0.00,47.00,VWS V14.01,2013-12-19 20:14:00,
2013-12-19 15:15:00,61.8,21.5,30.13,SW,232,4.0,6.0,21,0.00,,,0.00,47.00,VWS V14.01,2013-12-19 20:15:00,
2013-12-19 15:16:00,61.8,22.6,30.13,SSW,212,4.0,5.0,22,0.00,,,0.00,47.00,VWS V14.01,2013-12-19 20:16:00,
2013-12-19 15:17:00,61.8,22.6,30.13,SW,215,6.0,6.0,22,0.00,,,0.00,47.00,VWS V14.01,2013-12-19 20:17:00,
2013-12-19 15:18:00,61.8,22.6,30.13,SW,223,0.0,5.0,22,0.00,,,0.00,46.00,VWS V14.01,2013-12-19 20:18:00,
2013-12-19 15:19:00,61.8,22.6,30.13,WSW,242,7.0,9.0,22,0.00,,,0.00,46.00,VWS V14.01,2013-12-19 20:19:00,
2013-12-19 15:20:00,61.6,21.3,30.13,WSW,250,2.0,6.0,21,0.00,,,0.00,44.00,VWS V14.01,2013-12-19 20:20:00,
2013-12-19 15:21:00,61.6,22.4,30.13,SSW,203,1.0,3.0,22,0.00,,,0.00,46.00,VWS V14.01,2013-12-19 20:21:00,
2013-12-19 15:22:00,61.6,22.4,30.13,WSW,245,2.0,8.0,22,0.00,,,0.00,44.00,VWS V14.01,2013-12-19 20:22:00,
2013-12-19 15:23:00,61.6,22.4,30.13,SW,229,5.0,5.0,22,0.00,,,0.00,46.00,VWS V14.01,2013-12-19 20:23:00,
2013-12-19 15:24:00,61.6,22.4,30.13,WSW,240,3.0,6.0,22,0.00,,,0.00,46.00,VWS V14.01,2013-12-19 20:24:00,
2013-12-19 15:25:00,61.5,22.3,30.13,SW,231,0.0,1.0,22,0.00,,,0.00,46.00,VWS V14.01,2013-12-19 20:25:00,
2013-12-19 15:26:00,61.5,22.3,30.13,SW,228,0.0,1.0,22,0.00,,,0.00,46.00,VWS V14.01,2013-12-19 20:26:00,
2013-12-19 15:27:00,61.5,22.3,30.13,SW,232,5.0,7.0,22,0.00,,,0.00,46.00,VWS V14.01,2013-12-19 20:27:00,
2013-12-19 15:28:00,61.5,23.4,30.13,SW,229,5.0,6.0,23,0.00,,,0.00,46.00,VWS V14.01,2013-12-19 20:28:00,
2013-12-19 15:29:00,61.3,23.2,30.13,South,186,2.0,4.0,23,0.00,,,0.00,44.00,VWS V14.01,2013-12-19 20:29:00,
2013-12-19 15:30:00,61.3,22.2,30.13,SSW,204,4.0,5.0,22,0.00,,,0.00,44.00,VWS V14.01,2013-12-19 20:30:00,
2013-12-19 15:31:00,61.3,22.2,30.13,SW,230,1.0,3.0,22,0.00,,,0.00,44.00,VWS V14.01,2013-12-19 20:31:00,
2013-12-19 15:32:00,61.3,22.2,30.13,SW,214,1.0,5.0,22,0.00,,,0.00,42.00,VWS V14.01,2013-12-19 20:32:00,
2013-12-19 15:33:00,61.3,22.2,30.13,SW,229,0.0,5.0,22,0.00,,,0.00,42.00,VWS V14.01,2013-12-19 20:33:00,
2013-12-19 15:34:00,61.3,22.2,30.13,SW,229,3.0,4.0,22,0.00,,,0.00,42.00,VWS V14.01,2013-12-19 20:34:00,
2013-12-19 15:35:00,61.3,22.2,30.13,WSW,247,8.0,8.0,22,0.00,,,0.00,40.00,VWS V14.01,2013-12-19 20:35:00,
2013-12-19 15:36:00,61.3,22.2,30.13,SW,230,5.0,7.0,22,0.00,,,0.00,40.00,VWS V14.01,2013-12-19 20:36:00,
2013-12-19 15:37:00,61.3,22.2,30.13,SW,226,3.0,5.0,22,0.00,,,0.00,40.00,VWS V14.01,2013-12-19 20:37:00,
2013-12-19 15:38:00,61.2,22.1,30.13,SW,231,6.0,6.0,22,0.00,,,0.00,40.00,VWS V14.01,2013-12-19 20:38:00,
2013-12-19 15:39:00,61.2,22.1,30.13,SW,233,0.0,9.0,22,0.00,,,0.00,37.00,VWS V14.01,2013-12-19 20:39:00,
2013-12-19 15:40:00,61.2,22.1,30.13,SW,216,3.0,4.0,22,0.00,,,0.00,33.00,VWS V14.01,2013-12-19 20:40:00,
2013-12-19 15:41:00,61.2,23.1,30.13,SSW,205,6.0,6.0,23,0.00,,,0.00,33.00,VWS V14.01,2013-12-19 20:41:00,
2013-12-19 15:42:00,61.2,23.1,30.13,SW,214,3.0,7.0,23,0.00,,,0.00,35.00,VWS V14.01,2013-12-19 20:42:00,
2013-12-19 15:43:00,61.0,21.9,30.13,SSW,193,5.0,5.0,22,0.00,,,0.00,37.00,VWS V14.01,2013-12-19 20:43:00,
2013-12-19 15:44:00,61.0,23.0,30.13,South,190,5.0,7.0,23,0.00,,,0.00,35.00,VWS V14.01,2013-12-19 20:44:00,
2013-12-19 15:45:00,61.0,23.0,30.13,SSW,195,4.0,6.0,23,0.00,,,0.00,35.00,VWS V14.01,2013-12-19 20:45:00,
2013-12-19 15:46:00,60.9,22.9,30.13,SSW,207,1.0,7.0,23,0.00,,,0.00,35.00,VWS V14.01,2013-12-19 20:46:00,
2013-12-19 15:47:00,60.9,22.9,30.13,SSW,199,6.0,6.0,23,0.00,,,0.00,33.00,VWS V14.01,2013-12-19 20:47:00,
2013-12-19 15:48:00,60.9,22.9,30.13,SW,226,2.0,6.0,23,0.00,,,0.00,33.00,VWS V14.01,2013-12-19 20:48:00,
2013-12-19 15:49:00,60.9,22.9,30.13,SSW,200,1.0,5.0,23,0.00,,,0.00,32.00,VWS V14.01,2013-12-19 20:49:00,
2013-12-19 15:50:00,60.7,22.7,30.13,West,273,6.0,6.0,23,0.00,,,0.00,30.00,VWS V14.01,2013-12-19 20:50:00,
2013-12-19 15:51:00,60.7,21.7,30.13,SW,216,4.0,9.0,22,0.00,,,0.00,28.00,VWS V14.01,2013-12-19 20:51:00,
2013-12-19 15:52:00,60.7,21.7,30.13,SW,231,2.0,6.0,22,0.00,,,0.00,26.00,VWS V14.01,2013-12-19 20:52:00,
2013-12-19 15:53:00,60.7,22.7,30.13,SW,231,3.0,3.0,23,0.00,,,0.00,28.00,VWS V14.01,2013-12-19 20:53:00,
2013-12-19 15:54:00,60.7,22.7,30.13,SW,217,4.0,4.0,23,0.00,,,0.00,26.00,VWS V14.01,2013-12-19 20:54:00,
2013-12-19 15:55:00,60.5,22.5,30.13,SW,217,0.0,2.0,23,0.00,,,0.00,23.00,VWS V14.01,2013-12-19 20:55:00,
2013-12-19 15:56:00,60.5,23.5,30.13,SW,217,0.0,1.0,24,0.00,,,0.00,23.00,VWS V14.01,2013-12-19 20:56:00,
2013-12-19 15:57:00,60.5,23.5,30.13,SW,217,0.0,0.0,24,0.00,,,0.00,21.00,VWS V14.01,2013-12-19 20:57:00,
2013-12-19 15:58:00,60.4,23.5,30.13,SW,221,4.0,8.0,24,0.00,,,0.00,19.00,VWS V14.01,2013-12-19 20:58:00,
2013-12-19 15:59:00,60.4,22.5,30.13,SW,216,5.0,6.0,23,0.00,,,0.00,19.00,VWS V14.01,2013-12-19 20:59:00,
2013-12-19 16:00:00,60.2,22.3,30.13,SW,220,2.0,7.0,23,0.00,,,0.00,21.00,VWS V14.01,2013-12-19 21:00:00,
2013-12-19 16:01:00,60.2,23.3,30.13,SSW,210,0.0,4.0,24,0.00,,,0.00,21.00,VWS V14.01,2013-12-19 21:01:00,
2013-12-19 16:02:00,60.2,23.3,30.13,SW,229,2.0,6.0,24,0.00,,,0.00,18.00,VWS V14.01,2013-12-19 21:02:00,
2013-12-19 16:03:00,60.1,22.2,30.13,SW,229,0.0,0.0,23,0.00,,,0.00,18.00,VWS V14.01,2013-12-19 21:03:00,
2013-12-19 16:04:00,60.1,23.2,30.13,SW,217,3.0,4.0,24,0.00,,,0.00,16.00,VWS V14.01,2013-12-19 21:04:00,
2013-12-19 16:05:00,59.9,23.0,30.13,SW,217,0.0,2.0,24,0.00,,,0.00,16.00,VWS V14.01,2013-12-19 21:05:00,
2013-12-19 16:06:00,59.9,23.0,30.13,SW,218,5.0,7.0,24,0.00,,,0.00,16.00,VWS V14.01,2013-12-19 21:06:00,
2013-12-19 16:07:00,59.8,22.0,30.13,SSW,213,0.0,4.0,23,0.00,,,0.00,16.00,VWS V14.01,2013-12-19 21:07:00,
2013-12-19 16:08:00,59.6,22.8,30.13,SSW,212,3.0,3.0,24,0.00,,,0.00,14.00,VWS V14.01,2013-12-19 21:08:00,
2013-12-19 16:09:00,59.6,21.8,30.13,SSW,212,0.0,3.0,23,0.00,,,0.00,14.00,VWS V14.01,2013-12-19 21:09:00,
2013-12-19 16:10:00,59.5,22.7,30.13,SSW,212,0.0,0.0,24,0.00,,,0.00,14.00,VWS V14.01,2013-12-19 21:10:00,
2013-12-19 16:11:00,59.5,22.7,30.13,SSW,207,4.0,11.0,24,0.00,,,0.00,14.00,VWS V14.01,2013-12-19 21:11:00,
2013-12-19 16:12:00,59.3,22.5,30.13,South,176,0.0,9.0,24,0.00,,,0.00,12.00,VWS V14.01,2013-12-19 21:12:00,
2013-12-19 16:13:00,59.3,22.5,30.13,WSW,247,5.0,5.0,24,0.00,,,0.00,12.00,VWS V14.01,2013-12-19 21:13:00,
2013-12-19 16:14:00,59.3,22.5,30.13,WSW,240,0.0,3.0,24,0.00,,,0.00,12.00,VWS V14.01,2013-12-19 21:14:00,
2013-12-19 16:15:00,59.2,22.5,30.14,SSW,212,3.0,6.0,24,0.00,,,0.00,12.00,VWS V14.01,2013-12-19 21:15:00,
2013-12-19 16:16:00,59.2,22.5,30.14,SW,214,4.0,4.0,24,0.00,,,0.00,12.00,VWS V14.01,2013-12-19 21:16:00,
2013-12-19 16:17:00,59.2,23.4,30.14,SW,219,0.0,5.0,25,0.00,,,0.00,12.00,VWS V14.01,2013-12-19 21:17:00,
2013-12-19 16:18:00,59.0,23.2,30.14,South,184,4.0,4.0,25,0.00,,,0.00,12.00,VWS V14.01,2013-12-19 21:18:00,
2013-12-19 16:19:00,58.9,24.1,30.14,South,189,0.0,5.0,26,0.00,,,0.00,12.00,VWS V14.01,2013-12-19 21:19:00,
2013-12-19 16:20:00,58.9,23.2,30.14,WSW,241,3.0,6.0,25,0.00,,,0.00,11.00,VWS V14.01,2013-12-19 21:20:00,
2013-12-19 16:21:00,58.7,23.0,30.14,SW,222,2.0,4.0,25,0.00,,,0.00,11.00,VWS V14.01,2013-12-19 21:21:00,
2013-12-19 16:22:00,58.7,23.0,30.14,SW,222,2.0,2.0,25,0.00,,,0.00,11.00,VWS V14.01,2013-12-19 21:22:00,
2013-12-19 16:23:00,58.6,22.9,30.14,SSW,207,3.0,5.0,25,0.00,,,0.00,11.00,VWS V14.01,2013-12-19 21:23:00,
2013-12-19 16:24:00,58.4,22.7,30.14,SSW,198,3.0,4.0,25,0.00,,,0.00,11.00,VWS V14.01,2013-12-19 21:24:00,
2013-12-19 16:25:00,58.4,23.7,30.14,SSW,198,1.0,3.0,26,0.00,,,0.00,11.00,VWS V14.01,2013-12-19 21:25:00,
2013-12-19 16:26:00,58.3,23.6,30.14,SSW,198,3.0,3.0,26,0.00,,,0.00,11.00,VWS V14.01,2013-12-19 21:26:00,
2013-12-19 16:27:00,58.1,24.3,30.14,SSW,198,2.0,4.0,27,0.00,,,0.00,11.00,VWS V14.01,2013-12-19 21:27:00,
2013-12-19 16:28:00,58.0,25.1,30.14,SSW,198,1.0,3.0,28,0.00,,,0.00,9.00,VWS V14.01,2013-12-19 21:28:00,
2013-12-19 16:29:00,58.0,24.2,30.14,SSW,198,0.0,1.0,27,0.00,,,0.00,9.00,VWS V14.01,2013-12-19 21:29:00,
2013-12-19 16:30:00,57.8,24.9,30.14,SSW,198,0.0,1.0,28,0.00,,,0.00,9.00,VWS V14.01,2013-12-19 21:30:00,
2013-12-19 16:31:00,57.6,23.9,30.14,SSW,198,0.0,0.0,27,0.00,,,0.00,9.00,VWS V14.01,2013-12-19 21:31:00,
2013-12-19 16:32:00,57.5,23.8,30.14,SSW,198,3.0,3.0,27,0.00,,,0.00,9.00,VWS V14.01,2013-12-19 21:32:00,
2013-12-19 16:33:00,57.3,24.5,30.14,SSW,198,1.0,3.0,28,0.00,,,0.00,9.00,VWS V14.01,2013-12-19 21:33:00,
2013-12-19 16:34:00,57.0,24.2,30.14,SSW,198,0.0,1.0,28,0.00,,,0.00,9.00,VWS V14.01,2013-12-19 21:34:00,
2013-12-19 16:35:00,57.0,23.4,30.14,SSW,198,4.0,4.0,27,0.00,,,0.00,9.00,VWS V14.01,2013-12-19 21:35:00,
2013-12-19 16:36:00,56.7,23.1,30.14,SSW,198,0.0,4.0,27,0.00,,,0.00,9.00,VWS V14.01,2013-12-19 21:36:00,
2013-12-19 16:37:00,56.6,23.9,30.14,SSW,198,0.0,3.0,28,0.00,,,0.00,9.00,VWS V14.01,2013-12-19 21:37:00,
2013-12-19 16:38:00,56.5,23.8,30.14,SSW,198,3.0,4.0,28,0.00,,,0.00,9.00,VWS V14.01,2013-12-19 21:38:00,
2013-12-19 16:39:00,56.3,23.6,30.14,SSW,198,0.0,3.0,28,0.00,,,0.00,7.00,VWS V14.01,2013-12-19 21:39:00,
2013-12-19 16:40:00,56.2,24.4,30.14,SSW,199,5.0,5.0,29,0.00,,,0.00,7.00,VWS V14.01,2013-12-19 21:40:00,
2013-12-19 16:41:00,55.9,23.3,30.14,SSW,199,2.0,3.0,28,0.00,,,0.00,7.00,VWS V14.01,2013-12-19 21:41:00,
2013-12-19 16:42:00,55.7,23.1,30.14,SSW,199,0.0,2.0,28,0.00,,,0.00,7.00,VWS V14.01,2013-12-19 21:42:00,
2013-12-19 16:43:00,55.6,23.0,30.14,SSW,199,0.0,1.0,28,0.00,,,0.00,7.00,VWS V14.01,2013-12-19 21:43:00,
2013-12-19 16:44:00,55.4,23.7,30.14,SSW,199,0.0,0.0,29,0.00,,,0.00,7.00,VWS V14.01,2013-12-19 21:44:00,
2013-12-19 16:45:00,55.3,24.4,30.14,SSW,199,0.0,0.0,30,0.00,,,0.00,7.00,VWS V14.01,2013-12-19 21:45:00,
2013-12-19 16:46:00,55.1,24.2,30.14,SSW,199,0.0,0.0,30,0.00,,,0.00,5.00,VWS V14.01,2013-12-19 21:46:00,
2013-12-19 16:47:00,55.0,24.9,30.14,SSW,199,0.0,0.0,31,0.00,,,0.00,5.00,VWS V14.01,2013-12-19 21:47:00,
2013-12-19 16:48:00,54.8,24.8,30.14,SSW,199,0.0,0.0,31,0.00,,,0.00,5.00,VWS V14.01,2013-12-19 21:48:00,
2013-12-19 16:49:00,54.7,24.7,30.14,SSW,199,1.0,2.0,31,0.00,,,0.00,5.00,VWS V14.01,2013-12-19 21:49:00,
2013-12-19 16:50:00,54.5,24.5,30.14,SSW,199,0.0,1.0,31,0.00,,,0.00,0.00,VWS V14.01,2013-12-19 21:50:00,
2013-12-19 16:51:00,54.2,25.0,30.14,SSW,199,0.0,0.0,32,0.00,,,0.00,0.00,VWS V14.01,2013-12-19 21:51:00,
2013-12-19 16:52:00,54.1,25.6,30.14,SSW,199,3.0,3.0,33,0.00,,,0.00,0.00,VWS V14.01,2013-12-19 21:52:00,
2013-12-19 16:53:00,53.9,25.5,30.14,SSW,199,2.0,3.0,33,0.00,,,0.00,0.00,VWS V14.01,2013-12-19 21:53:00,
2013-12-19 16:54:00,53.8,25.4,30.14,SSW,199,2.0,2.0,33,0.00,,,0.00,0.00,VWS V14.01,2013-12-19 21:54:00,
2013-12-19 16:55:00,53.6,25.9,30.14,SSW,199,0.0,3.0,34,0.00,,,0.00,0.00,VWS V14.01,2013-12-19 21:55:00,
2013-12-19 16:56:00,53.5,25.8,30.14,SSW,199,0.0,0.0,34,0.00,,,0.00,0.00,VWS V14.01,2013-12-19 21:56:00,
2013-12-19 16:57:00,53.3,26.4,30.14,SSW,199,0.0,0.0,35,0.00,,,0.00,0.00,VWS V14.01,2013-12-19 21:57:00,
2013-12-19 16:58:00,53.2,26.3,30.14,SSW,199,0.0,0.0,35,0.00,,,0.00,0.00,VWS V14.01,2013-12-19 21:58:00,
2013-12-19 16:59:00,53.1,26.2,30.14,SSW,199,0.0,0.0,35,0.00,,,0.00,0.00,VWS V14.01,2013-12-19 21:59:00,
2013-12-19 17:00:00,52.9,26.0,30.15,SSW,199,0.0,0.0,35,0.00,,,0.00,0.00,VWS V14.01,2013-12-19 22:00:00,
2013-12-19 17:01:00,52.8,25.9,30.15,SSW,199,0.0,0.0,35,0.00,,,0.00,0.00,VWS V14.01,2013-12-19 22:01:00,
2013-12-19 17:02:00,52.6,26.4,30.15,SSW,199,0.0,0.0,36,0.00,,,0.00,0.00,VWS V14.01,2013-12-19 22:02:00,
2013-12-19 17:03:00,52.5,26.3,30.15,SSW,199,0.0,0.0,36,0.00,,,0.00,0.00,VWS V14.01,2013-12-19 22:03:00,
2013-12-19 17:04:00,52.3,26.2,30.15,SSW,199,1.0,1.0,36,0.00,,,0.00,0.00,VWS V14.01,2013-12-19 22:04:00,
2013-12-19 17:05:00,52.2,26.7,30.15,SSW,199,2.0,3.0,37,0.00,,,0.00,0.00,VWS V14.01,2013-12-19 22:05:00,
2013-12-19 17:06:00,52.0,26.5,30.15,SSW,199,0.0,3.0,37,0.00,,,0.00,0.00,VWS V14.01,2013-12-19 22:06:00,
2013-12-19 17:07:00,51.9,26.5,30.15,SSW,199,0.0,1.0,37,0.00,,,0.00,0.00,VWS V14.01,2013-12-19 22:07:00,
2013-12-19 17:08:00,51.7,26.3,30.15,SSW,199,0.0,0.0,37,0.00,,,0.00,0.00,VWS V14.01,2013-12-19 22:08:00,
2013-12-19 17:09:00,51.7,26.3,30.15,SSW,199,0.0,0.0,37,0.00,,,0.00,0.00,VWS V14.01,2013-12-19 22:09:00,
2013-12-19 17:10:00,51.6,26.2,30.15,SSW,199,0.0,0.0,37,0.00,,,0.00,0.00,VWS V14.01,2013-12-19 22:10:00,
2013-12-19 17:11:00,51.4,26.7,30.15,SSW,199,0.0,3.0,38,0.00,,,0.00,0.00,VWS V14.01,2013-12-19 22:11:00,
2013-12-19 17:12:00,51.3,26.6,30.15,SSW,199,0.0,0.0,38,0.00,,,0.00,0.00,VWS V14.01,2013-12-19 22:12:00,
2013-12-19 17:13:00,51.1,26.4,30.15,SSW,199,0.0,0.0,38,0.00,,,0.00,0.00,VWS V14.01,2013-12-19 22:13:00,
2013-12-19 17:14:00,51.0,26.9,30.15,SSW,199,0.0,0.0,39,0.00,,,0.00,0.00,VWS V14.01,2013-12-19 22:14:00,
2013-12-19 17:15:00,51.0,26.9,30.15,SSW,199,0.0,0.0,39,0.00,,,0.00,0.00,VWS V14.01,2013-12-19 22:15:00,
2013-12-19 17:16:00,50.8,26.8,30.15,SSW,199,0.0,0.0,39,0.00,,,0.00,0.00,VWS V14.01,2013-12-19 22:16:00,
2013-12-19 17:17:00,50.7,27.3,30.15,SSW,199,0.0,0.0,40,0.00,,,0.00,0.00,VWS V14.01,2013-12-19 22:17:00,
2013-12-19 17:18:00,50.5,27.1,30.15,SSW,199,0.0,0.0,40,0.00,,,0.00,0.00,VWS V14.01,2013-12-19 22:18:00,
2013-12-19 17:19:00,50.4,27.0,30.15,SSW,199,0.0,0.0,40,0.00,,,0.00,0.00,VWS V14.01,2013-12-19 22:19:00,
2013-12-19 17:20:00,50.2,26.8,30.15,SSW,199,0.0,0.0,40,0.00,,,0.00,0.00,VWS V14.01,2013-12-19 22:20:00,
2013-12-19 17:21:00,50.2,26.8,30.15,SSW,199,0.0,0.0,40,0.00,,,0.00,0.00,VWS V14.01,2013-12-19 22:21:00,
2013-12-19 17:22:00,50.1,27.3,30.15,SSW,199,0.0,0.0,41,0.00,,,0.00,0.00,VWS V14.01,2013-12-19 22:22:00,
2013-12-19 17:23:00,49.9,26.6,30.15,SSW,199,0.0,0.0,40,0.00,,,0.00,0.00,VWS V14.01,2013-12-19 22:23:00,
2013-12-19 17:24:00,49.9,27.1,30.15,SSW,199,0.0,0.0,41,0.00,,,0.00,0.00,VWS V14.01,2013-12-19 22:24:00,
2013-12-19 17:25:00,49.8,27.1,30.15,SSW,199,0.0,0.0,41,0.00,,,0.00,0.00,VWS V14.01,2013-12-19 22:25:00,
2013-12-19 17:26:00,49.6,26.9,30.15,SSW,199,0.0,0.0,41,0.00,,,0.00,0.00,VWS V14.01,2013-12-19 22:26:00,
2013-12-19 17:27:00,49.6,27.5,30.15,SSW,199,0.0,0.0,42,0.00,,,0.00,0.00,VWS V14.01,2013-12-19 22:27:00,
2013-12-19 17:28:00,49.5,27.4,30.15,SSW,199,0.0,0.0,42,0.00,,,0.00,0.00,VWS V14.01,2013-12-19 22:28:00,
2013-12-19 17:29:00,49.4,27.3,30.15,SSW,199,0.0,0.0,42,0.00,,,0.00,0.00,VWS V14.01,2013-12-19 22:29:00,
2013-12-19 17:30:00,49.4,27.3,30.16,SSW,199,0.0,0.0,42,0.00,,,0.00,0.00,VWS V14.01,2013-12-19 22:30:00,
2013-12-19 17:31:00,49.2,27.1,30.16,SSW,199,0.0,0.0,42,0.00,,,0.00,0.00,VWS V14.01,2013-12-19 22:31:00,
2013-12-19 17:32:00,49.1,27.0,30.16,SSW,199,0.0,0.0,42,0.00,,,0.00,0.00,VWS V14.01,2013-12-19 22:32:00,
2013-12-19 17:33:00,49.1,27.6,30.16,SSW,199,0.0,0.0,43,0.00,,,0.00,0.00,VWS V14.01,2013-12-19 22:33:00,
2013-12-19 17:34:00,48.9,27.4,30.16,SSW,199,0.0,0.0,43,0.00,,,0.00,0.00,VWS V14.01,2013-12-19 22:34:00,
2013-12-19 17:35:00,48.8,27.3,30.16,SSW,199,0.0,0.0,43,0.00,,,0.00,0.00,VWS V14.01,2013-12-19 22:35:00,
2013-12-19 17:36:00,48.6,27.1,30.16,SSW,199,0.0,0.0,43,0.00,,,0.00,0.00,VWS V14.01,2013-12-19 22:36:00,
2013-12-19 17:37:00,48.6,27.1,30.16,SSW,199,0.0,0.0,43,0.00,,,0.00,0.00,VWS V14.01,2013-12-19 22:37:00,
2013-12-19 17:38:00,48.5,27.0,30.16,SSW,199,0.0,0.0,43,0.00,,,0.00,0.00,VWS V14.01,2013-12-19 22:38:00,
2013-12-19 17:39:00,48.3,27.4,30.16,SSW,199,0.0,0.0,44,0.00,,,0.00,0.00,VWS V14.01,2013-12-19 22:39:00,
2013-12-19 17:40:00,48.3,27.4,30.16,SSW,199,0.0,0.0,44,0.00,,,0.00,0.00,VWS V14.01,2013-12-19 22:40:00,
2013-12-19 17:41:00,48.3,27.4,30.16,SSW,199,0.0,0.0,44,0.00,,,0.00,0.00,VWS V14.01,2013-12-19 22:41:00,
2013-12-19 17:42:00,48.0,27.1,30.16,SSW,199,0.0,0.0,44,0.00,,,0.00,0.00,VWS V14.01,2013-12-19 22:42:00,
2013-12-19 17:43:00,47.9,27.6,30.16,SSW,199,0.0,0.0,45,0.00,,,0.00,0.00,VWS V14.01,2013-12-19 22:43:00,
2013-12-19 17:44:00,47.7,27.4,30.16,SSW,199,0.0,0.0,45,0.00,,,0.00,0.00,VWS V14.01,2013-12-19 22:44:00,
2013-12-19 17:45:00,47.7,27.4,30.15,SSW,199,0.0,0.0,45,0.00,,,0.00,0.00,VWS V14.01,2013-12-19 22:45:00,
2013-12-19 17:46:00,47.6,27.3,30.15,SSW,199,0.0,1.0,45,0.00,,,0.00,0.00,VWS V14.01,2013-12-19 22:46:00,
2013-12-19 17:47:00,47.4,27.1,30.15,SSW,199,0.0,0.0,45,0.00,,,0.00,0.00,VWS V14.01,2013-12-19 22:47:00,
2013-12-19 17:48:00,47.4,27.1,30.15,SSW,199,0.0,0.0,45,0.00,,,0.00,0.00,VWS V14.01,2013-12-19 22:48:00,
2013-12-19 17:49:00,47.3,27.6,30.15,SSW,199,0.0,0.0,46,0.00,,,0.00,0.00,VWS V14.01,2013-12-19 22:49:00,
2013-12-19 17:50:00,47.3,27.6,30.15,SSW,199,0.0,2.0,46,0.00,,,0.00,0.00,VWS V14.01,2013-12-19 22:50:00,
2013-12-19 17:51:00,47.1,27.4,30.15,SSW,199,0.0,0.0,46,0.00,,,0.00,0.00,VWS V14.01,2013-12-19 22:51:00,
2013-12-19 17:52:00,47.1,27.4,30.15,SSW,199,0.0,0.0,46,0.00,,,0.00,0.00,VWS V14.01,2013-12-19 22:52:00,
2013-12-19 17:53:00,47.0,27.3,30.15,SSW,199,0.0,3.0,46,0.00,,,0.00,0.00,VWS V14.01,2013-12-19 22:53:00,
2013-12-19 17:54:00,47.0,27.3,30.15,SSW,199,0.0,3.0,46,0.00,,,0.00,0.00,VWS V14.01,2013-12-19 22:54:00,
2013-12-19 17:55:00,46.8,27.1,30.15,SSW,199,0.0,4.0,46,0.00,,,0.00,0.00,VWS V14.01,2013-12-19 22:55:00,
2013-12-19 17:56:00,46.8,27.1,30.15,SSW,199,1.0,1.0,46,0.00,,,0.00,0.00,VWS V14.01,2013-12-19 22:56:00,
2013-12-19 17:57:00,46.8,27.1,30.15,SSW,199,2.0,2.0,46,0.00,,,0.00,0.00,VWS V14.01,2013-12-19 22:57:00,
2013-12-19 17:58:00,46.8,27.1,30.15,SSW,199,2.0,3.0,46,0.00,,,0.00,0.00,VWS V14.01,2013-12-19 22:58:00,
2013-12-19 17:59:00,46.8,26.6,30.15,SSW,199,0.0,2.0,45,0.00,,,0.00,0.00,VWS V14.01,2013-12-19 22:59:00,
2013-12-19 18:00:00,46.8,26.6,30.16,SSW,199,0.0,0.0,45,0.00,,,0.00,0.00,VWS V14.01,2013-12-19 23:00:00,
2013-12-19 18:01:00,47.0,26.8,30.16,SSW,199,4.0,4.0,45,0.00,,,0.00,0.00,VWS V14.01,2013-12-19 23:01:00,
2013-12-19 18:02:00,47.0,26.8,30.16,SSW,199,0.0,4.0,45,0.00,,,0.00,0.00,VWS V14.01,2013-12-19 23:02:00,
2013-12-19 18:03:00,47.0,26.8,30.16,SSW,199,0.0,0.0,45,0.00,,,0.00,0.00,VWS V14.01,2013-12-19 23:03:00,
2013-12-19 18:04:00,47.0,26.8,30.16,SSW,199,0.0,2.0,45,0.00,,,0.00,0.00,VWS V14.01,2013-12-19 23:04:00,
2013-12-19 18:05:00,47.0,26.8,30.16,SSW,199,0.0,0.0,45,0.00,,,0.00,0.00,VWS V14.01,2013-12-19 23:05:00,
2013-12-19 18:06:00,47.0,26.8,30.16,SSW,199,0.0,0.0,45,0.00,,,0.00,0.00,VWS V14.01,2013-12-19 23:06:00,
2013-12-19 18:07:00,47.1,26.9,30.16,SSW,199,0.0,0.0,45,0.00,,,0.00,0.00,VWS V14.01,2013-12-19 23:07:00,
2013-12-19 18:08:00,47.1,26.9,30.16,SSW,199,0.0,0.0,45,0.00,,,0.00,0.00,VWS V14.01,2013-12-19 23:08:00,
2013-12-19 18:09:00,47.1,26.9,30.16,SSW,199,0.0,0.0,45,0.00,,,0.00,0.00,VWS V14.01,2013-12-19 23:09:00,
2013-12-19 18:10:00,47.1,26.9,30.16,SSW,199,0.0,0.0,45,0.00,,,0.00,0.00,VWS V14.01,2013-12-19 23:10:00,
2013-12-19 18:11:00,47.1,26.9,30.16,SSW,199,0.0,0.0,45,0.00,,,0.00,0.00,VWS V14.01,2013-12-19 23:11:00,
2013-12-19 18:12:00,47.1,27.4,30.16,SSW,199,0.0,1.0,46,0.00,,,0.00,0.00,VWS V14.01,2013-12-19 23:12:00,
2013-12-19 18:13:00,47.1,27.4,30.16,SSW,199,0.0,0.0,46,0.00,,,0.00,0.00,VWS V14.01,2013-12-19 23:13:00,
2013-12-19 18:14:00,47.1,26.9,30.16,SSW,199,0.0,0.0,45,0.00,,,0.00,0.00,VWS V14.01,2013-12-19 23:14:00,
2013-12-19 18:15:00,47.1,26.9,30.16,SSW,199,0.0,0.0,45,0.00,,,0.00,0.00,VWS V14.01,2013-12-19 23:15:00,
2013-12-19 18:16:00,47.1,26.9,30.16,SSW,199,0.0,1.0,45,0.00,,,0.00,0.00,VWS V14.01,2013-12-19 23:16:00,
2013-12-19 18:17:00,47.1,26.9,30.16,SSW,199,0.0,3.0,45,0.00,,,0.00,0.00,VWS V14.01,2013-12-19 23:17:00,
2013-12-19 18:18:00,47.1,26.9,30.16,SSW,199,0.0,0.0,45,0.00,,,0.00,0.00,VWS V14.01,2013-12-19 23:18:00,
2013-12-19 18:19:00,47.1,26.9,30.16,SSW,199,0.0,0.0,45,0.00,,,0.00,0.00,VWS V14.01,2013-12-19 23:19:00,
2013-12-19 18:20:00,47.1,26.3,30.16,SSW,199,0.0,0.0,44,0.00,,,0.00,0.00,VWS V14.01,2013-12-19 23:20:00,
2013-12-19 18:21:00,47.3,27.0,30.16,SSW,199,0.0,0.0,45,0.00,,,0.00,0.00,VWS V14.01,2013-12-19 23:21:00,
2013-12-19 18:22:00,47.3,27.0,30.16,SSW,199,0.0,0.0,45,0.00,,,0.00,0.00,VWS V14.01,2013-12-19 23:22:00,
2013-12-19 18:23:00,47.3,27.0,30.16,SSW,199,0.0,0.0,45,0.00,,,0.00,0.00,VWS V14.01,2013-12-19 23:23:00,
2013-12-19 18:24:00,47.3,27.0,30.16,SSW,199,0.0,0.0,45,0.00,,,0.00,0.00,VWS V14.01,2013-12-19 23:24:00,
2013-12-19 18:25:00,47.3,27.0,30.16,SSW,199,0.0,0.0,45,0.00,,,0.00,0.00,VWS V14.01,2013-12-19 23:25:00,
2013-12-19 18:26:00,47.3,27.6,30.16,SSW,199,0.0,1.0,46,0.00,,,0.00,0.00,VWS V14.01,2013-12-19 23:26:00,
2013-12-19 18:27:00,47.3,27.6,30.16,SSW,199,0.0,0.0,46,0.00,,,0.00,0.00,VWS V14.01,2013-12-19 23:27:00,
2013-12-19 18:28:00,47.1,26.9,30.16,SSW,199,0.0,0.0,45,0.00,,,0.00,0.00,VWS V14.01,2013-12-19 23:28:00,
2013-12-19 18:29:00,47.1,27.4,30.16,SSW,199,0.0,2.0,46,0.00,,,0.00,0.00,VWS V14.01,2013-12-19 23:29:00,
2013-12-19 18:30:00,47.1,27.4,30.16,SSW,199,0.0,0.0,46,0.00,,,0.00,0.00,VWS V14.01,2013-12-19 23:30:00,
2013-12-19 18:31:00,47.0,27.3,30.16,SSW,199,1.0,2.0,46,0.00,,,0.00,0.00,VWS V14.01,2013-12-19 23:31:00,
2013-12-19 18:32:00,47.0,27.3,30.16,SSW,199,1.0,2.0,46,0.00,,,0.00,0.00,VWS V14.01,2013-12-19 23:32:00,
2013-12-19 18:33:00,47.0,27.8,30.16,SSW,199,0.0,1.0,47,0.00,,,0.00,0.00,VWS V14.01,2013-12-19 23:33:00,
2013-12-19 18:34:00,47.0,27.8,30.16,SSW,199,0.0,0.0,47,0.00,,,0.00,0.00,VWS V14.01,2013-12-19 23:34:00,
2013-12-19 18:35:00,46.8,27.1,30.16,SSW,199,0.0,0.0,46,0.00,,,0.00,0.00,VWS V14.01,2013-12-19 23:35:00,
2013-12-19 18:36:00,46.8,27.6,30.16,SSW,199,0.0,0.0,47,0.00,,,0.00,0.00,VWS V14.01,2013-12-19 23:36:00,
2013-12-19 18:37:00,46.8,27.6,30.16,SSW,199,0.0,0.0,47,0.00,,,0.00,0.00,VWS V14.01,2013-12-19 23:37:00,
2013-12-19 18:38:00,46.7,27.6,30.16,SSW,199,0.0,0.0,47,0.00,,,0.00,0.00,VWS V14.01,2013-12-19 23:38:00,
2013-12-19 18:39:00,46.7,27.6,30.16,SSW,199,0.0,0.0,47,0.00,,,0.00,0.00,VWS V14.01,2013-12-19 23:39:00,
2013-12-19 18:40:00,46.5,27.4,30.16,SSW,199,0.0,0.0,47,0.00,,,0.00,0.00,VWS V14.01,2013-12-19 23:40:00,
2013-12-19 18:41:00,46.5,27.4,30.16,SSW,199,0.0,0.0,47,0.00,,,0.00,0.00,VWS V14.01,2013-12-19 23:41:00,
2013-12-19 18:42:00,46.4,27.3,30.16,SSW,199,0.0,0.0,47,0.00,,,0.00,0.00,VWS V14.01,2013-12-19 23:42:00,
2013-12-19 18:43:00,46.4,27.3,30.16,SSW,199,1.0,2.0,47,0.00,,,0.00,0.00,VWS V14.01,2013-12-19 23:43:00,
2013-12-19 18:44:00,46.4,27.8,30.16,SSW,199,0.0,1.0,48,0.00,,,0.00,0.00,VWS V14.01,2013-12-19 23:44:00,
2013-12-19 18:45:00,46.2,27.6,30.16,SSW,199,0.0,0.0,48,0.00,,,0.00,0.00,VWS V14.01,2013-12-19 23:45:00,
2013-12-19 18:46:00,46.2,27.1,30.16,SSW,199,0.0,0.0,47,0.00,,,0.00,0.00,VWS V14.01,2013-12-19 23:46:00,
2013-12-19 18:47:00,46.1,27.5,30.16,SSW,199,0.0,0.0,48,0.00,,,0.00,0.00,VWS V14.01,2013-12-19 23:47:00,
2013-12-19 18:48:00,46.1,27.5,30.16,SSW,199,0.0,0.0,48,0.00,,,0.00,0.00,VWS V14.01,2013-12-19 23:48:00,
2013-12-19 18:49:00,46.0,27.4,30.16,SSW,199,0.0,0.0,48,0.00,,,0.00,0.00,VWS V14.01,2013-12-19 23:49:00,
2013-12-19 18:50:00,46.0,27.4,30.16,SSW,199,0.0,0.0,48,0.00,,,0.00,0.00,VWS V14.01,2013-12-19 23:50:00,
2013-12-19 18:51:00,45.8,27.2,30.16,SSW,199,0.0,0.0,48,0.00,,,0.00,0.00,VWS V14.01,2013-12-19 23:51:00,
2013-12-19 18:52:00,45.8,27.2,30.16,SSW,199,0.0,0.0,48,0.00,,,0.00,0.00,VWS V14.01,2013-12-19 23:52:00,
2013-12-19 18:53:00,45.7,27.1,30.16,SSW,199,0.0,0.0,48,0.00,,,0.00,0.00,VWS V14.01,2013-12-19 23:53:00,
2013-12-19 18:54:00,45.7,27.6,30.16,SSW,199,0.0,0.0,49,0.00,,,0.00,0.00,VWS V14.01,2013-12-19 23:54:00,
2013-12-19 18:55:00,45.5,27.0,30.16,SSW,199,0.0,0.0,48,0.00,,,0.00,0.00,VWS V14.01,2013-12-19 23:55:00,
2013-12-19 18:56:00,45.5,27.5,30.16,SSW,199,0.0,0.0,49,0.00,,,0.00,0.00,VWS V14.01,2013-12-19 23:56:00,
2013-12-19 18:57:00,45.4,27.4,30.16,SSW,199,0.0,0.0,49,0.00,,,0.00,0.00,VWS V14.01,2013-12-19 23:57:00,
2013-12-19 18:58:00,45.4,27.9,30.16,SSW,199,0.0,0.0,50,0.00,,,0.00,0.00,VWS V14.01,2013-12-19 23:58:00,
2013-12-19 18:59:00,45.2,27.7,30.16,SSW,199,0.0,0.0,50,0.00,,,0.00,0.00,VWS V14.01,2013-12-19 23:59:00,
2013-12-19 19:00:00,45.2,27.2,30.16,SSW,199,0.0,0.0,49,0.00,,,0.00,0.00,VWS V14.01,2013-12-20 00:00:00,
2013-12-19 19:01:00,45.1,27.6,30.16,SSW,199,0.0,0.0,50,0.00,,,0.00,0.00,VWS V14.01,2013-12-20 00:01:00,
2013-12-19 19:02:00,45.1,27.6,30.16,SSW,199,0.0,0.0,50,0.00,,,0.00,0.00,VWS V14.01,2013-12-20 00:02:00,
2013-12-19 19:03:00,45.1,27.6,30.16,SSW,199,0.0,0.0,50,0.00,,,0.00,0.00,VWS V14.01,2013-12-20 00:03:00,
2013-12-19 19:04:00,44.9,27.4,30.16,SSW,199,0.0,0.0,50,0.00,,,0.00,0.00,VWS V14.01,2013-12-20 00:04:00,
2013-12-19 19:05:00,44.8,27.8,30.16,SSW,199,0.0,0.0,51,0.00,,,0.00,0.00,VWS V14.01,2013-12-20 00:05:00,
2013-12-19 19:06:00,44.8,27.3,30.16,SSW,199,0.0,0.0,50,0.00,,,0.00,0.00,VWS V14.01,2013-12-20 00:06:00,
2013-12-19 19:07:00,44.6,27.6,30.16,SSW,199,0.0,0.0,51,0.00,,,0.00,0.00,VWS V14.01,2013-12-20 00:07:00,
2013-12-19 19:08:00,44.6,27.6,30.16,SSW,199,0.0,0.0,51,0.00,,,0.00,0.00,VWS V14.01,2013-12-20 00:08:00,
2013-12-19 19:09:00,44.6,27.6,30.16,SSW,199,0.0,0.0,51,0.00,,,0.00,0.00,VWS V14.01,2013-12-20 00:09:00,
2013-12-19 19:10:00,44.5,27.5,30.16,SSW,199,0.0,0.0,51,0.00,,,0.00,0.00,VWS V14.01,2013-12-20 00:10:00,
2013-12-19 19:11:00,44.5,27.5,30.16,SSW,199,0.0,0.0,51,0.00,,,0.00,0.00,VWS V14.01,2013-12-20 00:11:00,
2013-12-19 19:12:00,44.3,27.8,30.16,SSW,199,0.0,0.0,52,0.00,,,0.00,0.00,VWS V14.01,2013-12-20 00:12:00,
2013-12-19 19:13:00,44.3,27.8,30.16,SSW,199,0.0,0.0,52,0.00,,,0.00,0.00,VWS V14.01,2013-12-20 00:13:00,
2013-12-19 19:14:00,44.2,27.7,30.16,SSW,199,0.0,0.0,52,0.00,,,0.00,0.00,VWS V14.01,2013-12-20 00:14:00,
2013-12-19 19:15:00,44.2,27.7,30.16,SSW,199,0.0,0.0,52,0.00,,,0.00,0.00,VWS V14.01,2013-12-20 00:15:00,
2013-12-19 19:16:00,44.2,27.7,30.16,SSW,199,0.0,0.0,52,0.00,,,0.00,0.00,VWS V14.01,2013-12-20 00:16:00,
2013-12-19 19:17:00,44.1,27.6,30.16,SSW,199,0.0,0.0,52,0.00,,,0.00,0.00,VWS V14.01,2013-12-20 00:17:00,
2013-12-19 19:18:00,44.1,27.6,30.16,SSW,199,0.0,0.0,52,0.00,,,0.00,0.00,VWS V14.01,2013-12-20 00:18:00,
2013-12-19 19:19:00,44.1,28.1,30.16,SSW,199,0.0,0.0,53,0.00,,,0.00,0.00,VWS V14.01,2013-12-20 00:19:00,
2013-12-19 19:20:00,44.1,28.1,30.16,SSW,199,0.0,0.0,53,0.00,,,0.00,0.00,VWS V14.01,2013-12-20 00:20:00,
2013-12-19 19:21:00,43.9,27.9,30.16,SSW,199,0.0,0.0,53,0.00,,,0.00,0.00,VWS V14.01,2013-12-20 00:21:00,
2013-12-19 19:22:00,43.9,27.9,30.16,SSW,199,0.0,0.0,53,0.00,,,0.00,0.00,VWS V14.01,2013-12-20 00:22:00,
2013-12-19 19:23:00,43.9,27.9,30.16,SSW,199,0.0,0.0,53,0.00,,,0.00,0.00,VWS V14.01,2013-12-20 00:23:00,
2013-12-19 19:24:00,43.8,27.8,30.16,SSW,199,0.0,0.0,53,0.00,,,0.00,0.00,VWS V14.01,2013-12-20 00:24:00,
2013-12-19 19:25:00,43.8,27.8,30.16,SSW,199,0.0,0.0,53,0.00,,,0.00,0.00,VWS V14.01,2013-12-20 00:25:00,
2013-12-19 19:26:00,43.8,27.8,30.16,SSW,199,0.0,1.0,53,0.00,,,0.00,0.00,VWS V14.01,2013-12-20 00:26:00,
2013-12-19 19:27:00,43.6,27.6,30.16,SSW,199,0.0,0.0,53,0.00,,,0.00,0.00,VWS V14.01,2013-12-20 00:27:00,
2013-12-19 19:28:00,43.6,27.6,30.16,SSW,199,0.0,0.0,53,0.00,,,0.00,0.00,VWS V14.01,2013-12-20 00:28:00,
2013-12-19 19:29:00,43.6,28.1,30.16,SSW,199,0.0,0.0,54,0.00,,,0.00,0.00,VWS V14.01,2013-12-20 00:29:00,
2013-12-19 19:30:00,43.5,28.0,30.16,SSW,199,0.0,0.0,54,0.00,,,0.00,0.00,VWS V14.01,2013-12-20 00:30:00,
2013-12-19 19:31:00,43.5,28.0,30.16,SSW,199,0.0,0.0,54,0.00,,,0.00,0.00,VWS V14.01,2013-12-20 00:31:00,
2013-12-19 19:32:00,43.5,28.0,30.16,SSW,199,0.0,0.0,54,0.00,,,0.00,0.00,VWS V14.01,2013-12-20 00:32:00,
2013-12-19 19:33:00,43.5,28.0,30.16,SSW,199,0.0,0.0,54,0.00,,,0.00,0.00,VWS V14.01,2013-12-20 00:33:00,
2013-12-19 19:34:00,43.5,28.0,30.16,SSW,199,0.0,0.0,54,0.00,,,0.00,0.00,VWS V14.01,2013-12-20 00:34:00,
2013-12-19 19:35:00,43.3,27.8,30.16,SSW,199,0.0,0.0,54,0.00,,,0.00,0.00,VWS V14.01,2013-12-20 00:35:00,
2013-12-19 19:36:00,43.3,27.8,30.16,SSW,199,0.0,0.0,54,0.00,,,0.00,0.00,VWS V14.01,2013-12-20 00:36:00,
2013-12-19 19:37:00,43.3,28.2,30.16,SSW,199,0.0,0.0,55,0.00,,,0.00,0.00,VWS V14.01,2013-12-20 00:37:00,
2013-12-19 19:38:00,43.3,27.8,30.16,SSW,199,0.0,0.0,54,0.00,,,0.00,0.00,VWS V14.01,2013-12-20 00:38:00,
2013-12-19 19:39:00,43.3,27.8,30.16,SSW,199,0.0,0.0,54,0.00,,,0.00,0.00,VWS V14.01,2013-12-20 00:39:00,
2013-12-19 19:40:00,43.3,27.8,30.16,SSW,199,0.0,0.0,54,0.00,,,0.00,0.00,VWS V14.01,2013-12-20 00:40:00,
2013-12-19 19:41:00,43.3,28.2,30.16,SSW,199,0.0,0.0,55,0.00,,,0.00,0.00,VWS V14.01,2013-12-20 00:41:00,
2013-12-19 19:42:00,43.3,28.2,30.16,SSW,199,0.0,0.0,55,0.00,,,0.00,0.00,VWS V14.01,2013-12-20 00:42:00,
2013-12-19 19:43:00,43.3,27.8,30.16,SSW,199,0.0,0.0,54,0.00,,,0.00,0.00,VWS V14.01,2013-12-20 00:43:00,
2013-12-19 19:44:00,43.2,27.7,30.16,SSW,199,0.0,0.0,54,0.00,,,0.00,0.00,VWS V14.01,2013-12-20 00:44:00,
2013-12-19 19:45:00,43.2,27.7,30.16,SSW,199,0.0,0.0,54,0.00,,,0.00,0.00,VWS V14.01,2013-12-20 00:45:00,
2013-12-19 19:46:00,43.2,27.7,30.16,SSW,199,0.0,0.0,54,0.00,,,0.00,0.00,VWS V14.01,2013-12-20 00:46:00,
2013-12-19 19:47:00,43.2,27.7,30.16,SSW,199,0.0,0.0,54,0.00,,,0.00,0.00,VWS V14.01,2013-12-20 00:47:00,
2013-12-19 19:48:00,43.2,27.7,30.16,SSW,199,0.0,0.0,54,0.00,,,0.00,0.00,VWS V14.01,2013-12-20 00:48:00,
2013-12-19 19:49:00,43.2,28.1,30.16,SSW,199,0.0,0.0,55,0.00,,,0.00,0.00,VWS V14.01,2013-12-20 00:49:00,
2013-12-19 19:50:00,43.1,28.0,30.16,SSW,199,0.0,0.0,55,0.00,,,0.00,0.00,VWS V14.01,2013-12-20 00:50:00,
2013-12-19 19:51:00,43.1,28.0,30.16,SSW,199,0.0,0.0,55,0.00,,,0.00,0.00,VWS V14.01,2013-12-20 00:51:00,
2013-12-19 19:52:00,43.1,28.0,30.16,SSW,199,0.0,0.0,55,0.00,,,0.00,0.00,VWS V14.01,2013-12-20 00:52:00,
2013-12-19 19:53:00,43.1,28.0,30.16,SSW,199,0.0,0.0,55,0.00,,,0.00,0.00,VWS V14.01,2013-12-20 00:53:00,
2013-12-19 19:54:00,42.9,27.9,30.16,SSW,199,0.0,0.0,55,0.00,,,0.00,0.00,VWS V14.01,2013-12-20 00:54:00,
2013-12-19 19:55:00,42.9,27.9,30.16,SSW,199,0.0,0.0,55,0.00,,,0.00,0.00,VWS V14.01,2013-12-20 00:55:00,
2013-12-19 19:56:00,42.9,27.9,30.16,SSW,199,0.0,0.0,55,0.00,,,0.00,0.00,VWS V14.01,2013-12-20 00:56:00,
2013-12-19 19:57:00,42.9,27.9,30.16,SSW,199,0.0,0.0,55,0.00,,,0.00,0.00,VWS V14.01,2013-12-20 00:57:00,
2013-12-19 19:58:00,42.8,28.2,30.16,SSW,199,0.0,0.0,56,0.00,,,0.00,0.00,VWS V14.01,2013-12-20 00:58:00,
2013-12-19 19:59:00,42.8,28.6,30.16,SSW,199,0.0,0.0,57,0.00,,,0.00,0.00,VWS V14.01,2013-12-20 00:59:00,
2013-12-19 20:00:00,42.8,28.6,30.17,SSW,199,0.0,0.0,57,0.00,,,0.00,0.00,VWS V14.01,2013-12-20 01:00:00,
2013-12-19 20:01:00,42.8,28.6,30.17,SSW,199,0.0,0.0,57,0.00,,,0.00,0.00,VWS V14.01,2013-12-20 01:01:00,
2013-12-19 20:02:00,42.6,28.5,30.17,SSW,199,0.0,0.0,57,0.00,,,0.00,0.00,VWS V14.01,2013-12-20 01:02:00,
2013-12-19 20:03:00,42.6,28.5,30.17,SSW,199,0.0,0.0,57,0.00,,,0.00,0.00,VWS V14.01,2013-12-20 01:03:00,
2013-12-19 20:04:00,42.6,28.5,30.17,SSW,199,0.0,0.0,57,0.00,,,0.00,0.00,VWS V14.01,2013-12-20 01:04:00,
2013-12-19 20:05:00,42.6,28.5,30.17,SSW,199,0.0,0.0,57,0.00,,,0.00,0.00,VWS V14.01,2013-12-20 01:05:00,
2013-12-19 20:06:00,42.5,28.4,30.17,SSW,199,0.0,0.0,57,0.00,,,0.00,0.00,VWS V14.01,2013-12-20 01:06:00,
2013-12-19 20:07:00,42.5,28.4,30.17,SSW,199,0.0,0.0,57,0.00,,,0.00,0.00,VWS V14.01,2013-12-20 01:07:00,
2013-12-19 20:08:00,42.5,28.4,30.17,SSW,199,0.0,0.0,57,0.00,,,0.00,0.00,VWS V14.01,2013-12-20 01:08:00,
2013-12-19 20:09:00,42.3,28.2,30.17,SSW,199,0.0,0.0,57,0.00,,,0.00,0.00,VWS V14.01,2013-12-20 01:09:00,
2013-12-19 20:10:00,42.3,28.6,30.17,SSW,199,0.0,0.0,58,0.00,,,0.00,0.00,VWS V14.01,2013-12-20 01:10:00,
2013-12-19 20:11:00,42.2,28.5,30.17,SSW,199,0.0,0.0,58,0.00,,,0.00,0.00,VWS V14.01,2013-12-20 01:11:00,
2013-12-19 20:12:00,42.2,28.5,30.17,SSW,199,0.0,0.0,58,0.00,,,0.00,0.00,VWS V14.01,2013-12-20 01:12:00,
2013-12-19 20:13:00,42.2,28.5,30.17,SSW,199,0.0,0.0,58,0.00,,,0.00,0.00,VWS V14.01,2013-12-20 01:13:00,
2013-12-19 20:14:00,42.1,28.4,30.17,SSW,199,0.0,0.0,58,0.00,,,0.00,0.00,VWS V14.01,2013-12-20 01:14:00,
2013-12-19 20:15:00,42.1,28.4,30.17,SSW,199,0.0,0.0,58,0.00,,,0.00,0.00,VWS V14.01,2013-12-20 01:15:00,
2013-12-19 20:16:00,41.9,28.2,30.17,SSW,199,0.0,0.0,58,0.00,,,0.00,0.00,VWS V14.01,2013-12-20 01:16:00,
2013-12-19 20:17:00,41.9,28.2,30.17,SSW,199,0.0,0.0,58,0.00,,,0.00,0.00,VWS V14.01,2013-12-20 01:17:00,
2013-12-19 20:18:00,41.9,28.2,30.17,SSW,199,0.0,0.0,58,0.00,,,0.00,0.00,VWS V14.01,2013-12-20 01:18:00,
2013-12-19 20:19:00,41.8,28.1,30.17,SSW,199,0.0,0.0,58,0.00,,,0.00,0.00,VWS V14.01,2013-12-20 01:19:00,
2013-12-19 20:20:00,41.8,28.1,30.17,SSW,199,0.0,0.0,58,0.00,,,0.00,0.00,VWS V14.01,2013-12-20 01:20:00,
2013-12-19 20:21:00,41.8,28.1,30.17,SSW,199,0.0,0.0,58,0.00,,,0.00,0.00,VWS V14.01,2013-12-20 01:21:00,
2013-12-19 20:22:00,41.8,28.5,30.17,SSW,199,0.0,0.0,59,0.00,,,0.00,0.00,VWS V14.01,2013-12-20 01:22:00,
2013-12-19 20:23:00,41.6,28.4,30.17,SSW,199,0.0,0.0,59,0.00,,,0.00,0.00,VWS V14.01,2013-12-20 01:23:00,
2013-12-19 20:24:00,41.6,28.4,30.17,SSW,199,0.0,0.0,59,0.00,,,0.00,0.00,VWS V14.01,2013-12-20 01:24:00,
2013-12-19 20:25:00,41.6,28.4,30.17,SSW,199,0.0,0.0,59,0.00,,,0.00,0.00,VWS V14.01,2013-12-20 01:25:00,
2013-12-19 20:26:00,41.6,28.4,30.17,SSW,199,0.0,0.0,59,0.00,,,0.00,0.00,VWS V14.01,2013-12-20 01:26:00,
2013-12-19 20:27:00,41.6,28.4,30.17,SSW,199,0.0,0.0,59,0.00,,,0.00,0.00,VWS V14.01,2013-12-20 01:27:00,
2013-12-19 20:28:00,41.5,28.3,30.17,SSW,199,0.0,0.0,59,0.00,,,0.00,0.00,VWS V14.01,2013-12-20 01:28:00,
2013-12-19 20:29:00,41.5,28.3,30.17,SSW,199,0.0,0.0,59,0.00,,,0.00,0.00,VWS V14.01,2013-12-20 01:29:00,
2013-12-19 20:30:00,41.5,28.3,30.16,SSW,199,0.0,0.0,59,0.00,,,0.00,0.00,VWS V14.01,2013-12-20 01:30:00,
2013-12-19 20:31:00,41.5,28.3,30.16,SSW,199,0.0,0.0,59,0.00,,,0.00,0.00,VWS V14.01,2013-12-20 01:31:00,
2013-12-19 20:32:00,41.5,28.3,30.16,SSW,199,0.0,0.0,59,0.00,,,0.00,0.00,VWS V14.01,2013-12-20 01:32:00,
2013-12-19 20:33:00,41.3,28.5,30.16,SSW,199,0.0,0.0,60,0.00,,,0.00,0.00,VWS V14.01,2013-12-20 01:33:00,
2013-12-19 20:34:00,41.3,28.5,30.16,SSW,199,0.0,0.0,60,0.00,,,0.00,0.00,VWS V14.01,2013-12-20 01:34:00,
2013-12-19 20:35:00,41.3,28.9,30.16,SSW,199,0.0,0.0,61,0.00,,,0.00,0.00,VWS V14.01,2013-12-20 01:35:00,
2013-12-19 20:36:00,41.3,28.9,30.16,SSW,199,0.0,0.0,61,0.00,,,0.00,0.00,VWS V14.01,2013-12-20 01:36:00,
2013-12-19 20:37:00,41.3,28.9,30.16,SSW,199,0.0,0.0,61,0.00,,,0.00,0.00,VWS V14.01,2013-12-20 01:37:00,
2013-12-19 20:38:00,41.3,28.9,30.16,SSW,199,0.0,0.0,61,0.00,,,0.00,0.00,VWS V14.01,2013-12-20 01:38:00,
2013-12-19 20:39:00,41.3,28.9,30.16,SSW,199,0.0,0.0,61,0.00,,,0.00,0.00,VWS V14.01,2013-12-20 01:39:00,
2013-12-19 20:40:00,41.3,28.9,30.16,SSW,199,0.0,0.0,61,0.00,,,0.00,0.00,VWS V14.01,2013-12-20 01:40:00,
2013-12-19 20:41:00,41.2,28.8,30.16,SSW,199,0.0,0.0,61,0.00,,,0.00,0.00,VWS V14.01,2013-12-20 01:41:00,
2013-12-19 20:42:00,41.2,28.8,30.16,SSW,199,0.0,0.0,61,0.00,,,0.00,0.00,VWS V14.01,2013-12-20 01:42:00,
2013-12-19 20:43:00,41.2,28.8,30.16,SSW,199,0.0,0.0,61,0.00,,,0.00,0.00,VWS V14.01,2013-12-20 01:43:00,
2013-12-19 20:44:00,41.2,28.8,30.16,SSW,199,0.0,0.0,61,0.00,,,0.00,0.00,VWS V14.01,2013-12-20 01:44:00,
2013-12-19 20:45:00,41.2,28.8,30.16,SSW,199,0.0,0.0,61,0.00,,,0.00,0.00,VWS V14.01,2013-12-20 01:45:00,
2013-12-19 20:46:00,41.2,28.8,30.16,SSW,199,0.0,0.0,61,0.00,,,0.00,0.00,VWS V14.01,2013-12-20 01:46:00,
2013-12-19 20:47:00,41.2,28.8,30.16,SSW,199,0.0,0.0,61,0.00,,,0.00,0.00,VWS V14.01,2013-12-20 01:47:00,
2013-12-19 20:48:00,41.2,29.2,30.16,SSW,199,0.0,0.0,62,0.00,,,0.00,0.00,VWS V14.01,2013-12-20 01:48:00,
2013-12-19 20:49:00,41.2,29.2,30.16,SSW,199,0.0,0.0,62,0.00,,,0.00,0.00,VWS V14.01,2013-12-20 01:49:00,
2013-12-19 20:50:00,41.2,29.2,30.16,SSW,199,0.0,0.0,62,0.00,,,0.00,0.00,VWS V14.01,2013-12-20 01:50:00,
2013-12-19 20:51:00,41.2,29.2,30.16,SSW,199,0.0,0.0,62,0.00,,,0.00,0.00,VWS V14.01,2013-12-20 01:51:00,
2013-12-19 20:52:00,41.2,29.2,30.16,SSW,199,0.0,0.0,62,0.00,,,0.00,0.00,VWS V14.01,2013-12-20 01:52:00,
2013-12-19 20:53:00,41.2,29.2,30.16,SSW,199,0.0,0.0,62,0.00,,,0.00,0.00,VWS V14.01,2013-12-20 01:53:00,
2013-12-19 20:54:00,41.2,29.2,30.16,SSW,199,0.0,0.0,62,0.00,,,0.00,0.00,VWS V14.01,2013-12-20 01:54:00,
2013-12-19 20:55:00,41.2,29.2,30.16,SSW,199,0.0,0.0,62,0.00,,,0.00,0.00,VWS V14.01,2013-12-20 01:55:00,
2013-12-19 20:56:00,41.2,29.2,30.16,SSW,199,0.0,0.0,62,0.00,,,0.00,0.00,VWS V14.01,2013-12-20 01:56:00,
2013-12-19 20:57:00,41.2,29.2,30.16,SSW,199,0.0,0.0,62,0.00,,,0.00,0.00,VWS V14.01,2013-12-20 01:57:00,
2013-12-19 20:58:00,41.1,29.1,30.16,SSW,199,0.0,0.0,62,0.00,,,0.00,0.00,VWS V14.01,2013-12-20 01:58:00,
2013-12-19 20:59:00,41.1,29.1,30.16,SSW,199,0.0,0.0,62,0.00,,,0.00,0.00,VWS V14.01,2013-12-20 01:59:00,
2013-12-19 21:00:00,41.1,29.5,30.16,SSW,199,0.0,0.0,63,0.00,,,0.00,0.00,VWS V14.01,2013-12-20 02:00:00,
2013-12-19 21:01:00,41.1,29.9,30.16,SSW,199,0.0,0.0,64,0.00,,,0.00,0.00,VWS V14.01,2013-12-20 02:01:00,
2013-12-19 21:02:00,41.1,29.9,30.16,SSW,199,0.0,0.0,64,0.00,,,0.00,0.00,VWS V14.01,2013-12-20 02:02:00,
2013-12-19 21:03:00,41.1,29.9,30.16,SSW,199,0.0,0.0,64,0.00,,,0.00,0.00,VWS V14.01,2013-12-20 02:03:00,
2013-12-19 21:04:00,41.1,29.9,30.16,SSW,199,0.0,0.0,64,0.00,,,0.00,0.00,VWS V14.01,2013-12-20 02:04:00,
2013-12-19 21:05:00,40.9,29.7,30.16,SSW,199,0.0,0.0,64,0.00,,,0.00,0.00,VWS V14.01,2013-12-20 02:05:00,
2013-12-19 21:06:00,40.9,30.1,30.16,SSW,199,0.0,0.0,65,0.00,,,0.00,0.00,VWS V14.01,2013-12-20 02:06:00,
2013-12-19 21:07:00,40.9,30.1,30.16,SSW,199,0.0,0.0,65,0.00,,,0.00,0.00,VWS V14.01,2013-12-20 02:07:00,
2013-12-19 21:08:00,40.9,30.1,30.16,SSW,199,0.0,0.0,65,0.00,,,0.00,0.00,VWS V14.01,2013-12-20 02:08:00,
2013-12-19 21:09:00,40.9,30.1,30.16,SSW,199,0.0,0.0,65,0.00,,,0.00,0.00,VWS V14.01,2013-12-20 02:09:00,
2013-12-19 21:10:00,40.8,30.3,30.16,SSW,199,0.0,0.0,66,0.00,,,0.00,0.00,VWS V14.01,2013-12-20 02:10:00,
2013-12-19 21:11:00,40.8,30.3,30.16,SSW,199,0.0,0.0,66,0.00,,,0.00,0.00,VWS V14.01,2013-12-20 02:11:00,
2013-12-19 21:12:00,40.8,30.7,30.16,SSW,199,0.0,0.0,67,0.00,,,0.00,0.00,VWS V14.01,2013-12-20 02:12:00,
2013-12-19 21:13:00,40.8,30.7,30.16,SSW,199,0.0,0.0,67,0.00,,,0.00,0.00,VWS V14.01,2013-12-20 02:13:00,
2013-12-19 21:14:00,40.8,31.1,30.16,SSW,199,0.0,0.0,68,0.00,,,0.00,0.00,VWS V14.01,2013-12-20 02:14:00,
2013-12-19 21:15:00,40.8,30.7,30.16,SSW,199,0.0,0.0,67,0.00,,,0.00,0.00,VWS V14.01,2013-12-20 02:15:00,
2013-12-19 21:16:00,40.8,30.7,30.16,SSW,199,0.0,0.0,67,0.00,,,0.00,0.00,VWS V14.01,2013-12-20 02:16:00,
2013-12-19 21:17:00,40.8,30.7,30.16,SSW,199,0.0,0.0,67,0.00,,,0.00,0.00,VWS V14.01,2013-12-20 02:17:00,
2013-12-19 21:18:00,40.6,30.5,30.16,SSW,199,0.0,0.0,67,0.00,,,0.00,0.00,VWS V14.01,2013-12-20 02:18:00,
2013-12-19 21:19:00,40.6,30.5,30.16,SSW,199,0.0,1.0,67,0.00,,,0.00,0.00,VWS V14.01,2013-12-20 02:19:00,
2013-12-19 21:20:00,40.6,30.5,30.16,SSW,199,0.0,0.0,67,0.00,,,0.00,0.00,VWS V14.01,2013-12-20 02:20:00,
2013-12-19 21:21:00,40.6,30.5,30.16,SSW,199,0.0,0.0,67,0.00,,,0.00,0.00,VWS V14.01,2013-12-20 02:21:00,
2013-12-19 21:22:00,40.6,30.1,30.16,SSW,199,0.0,0.0,66,0.00,,,0.00,0.00,VWS V14.01,2013-12-20 02:22:00,
2013-12-19 21:23:00,40.5,30.0,30.16,SSW,199,0.0,0.0,66,0.00,,,0.00,0.00,VWS V14.01,2013-12-20 02:23:00,
2013-12-19 21:24:00,40.5,29.7,30.16,SSW,199,0.0,0.0,65,0.00,,,0.00,0.00,VWS V14.01,2013-12-20 02:24:00,
2013-12-19 21:25:00,40.5,29.7,30.16,SSW,199,0.0,0.0,65,0.00,,,0.00,0.00,VWS V14.01,2013-12-20 02:25:00,
2013-12-19 21:26:00,40.5,29.7,30.16,SSW,199,0.0,0.0,65,0.00,,,0.00,0.00,VWS V14.01,2013-12-20 02:26:00,
2013-12-19 21:27:00,40.5,29.7,30.16,SSW,199,0.0,0.0,65,0.00,,,0.00,0.00,VWS V14.01,2013-12-20 02:27:00,
2013-12-19 21:28:00,40.5,29.7,30.16,SSW,199,0.0,0.0,65,0.00,,,0.00,0.00,VWS V14.01,2013-12-20 02:28:00,
2013-12-19 21:29:00,40.5,29.3,30.16,SSW,199,0.0,0.0,64,0.00,,,0.00,0.00,VWS V14.01,2013-12-20 02:29:00,
2013-12-19 21:30:00,40.5,29.3,30.16,SSW,199,0.0,0.0,64,0.00,,,0.00,0.00,VWS V14.01,2013-12-20 02:30:00,
2013-12-19 21:31:00,40.5,29.3,30.16,SSW,199,0.0,0.0,64,0.00,,,0.00,0.00,VWS V14.01,2013-12-20 02:31:00,
2013-12-19 21:32:00,40.3,29.1,30.16,SSW,199,0.0,0.0,64,0.00,,,0.00,0.00,VWS V14.01,2013-12-20 02:32:00,
2013-12-19 21:33:00,40.3,29.1,30.16,SSW,199,0.0,0.0,64,0.00,,,0.00,0.00,VWS V14.01,2013-12-20 02:33:00,
2013-12-19 21:34:00,40.3,29.1,30.16,SSW,199,0.0,1.0,64,0.00,,,0.00,0.00,VWS V14.01,2013-12-20 02:34:00,
2013-12-19 21:35:00,40.3,29.1,30.16,SSW,199,0.0,0.0,64,0.00,,,0.00,0.00,VWS V14.01,2013-12-20 02:35:00,
2013-12-19 21:36:00,40.3,29.1,30.16,SSW,199,0.0,0.0,64,0.00,,,0.00,0.00,VWS V14.01,2013-12-20 02:36:00,
2013-12-19 21:37:00,40.3,29.1,30.16,SSW,199,0.0,0.0,64,0.00,,,0.00,0.00,VWS V14.01,2013-12-20 02:37:00,
2013-12-19 21:38:00,40.3,29.1,30.16,SSW,199,0.0,0.0,64,0.00,,,0.00,0.00,VWS V14.01,2013-12-20 02:38:00,
2013-12-19 21:39:00,40.2,29.0,30.16,SSW,199,0.0,0.0,64,0.00,,,0.00,0.00,VWS V14.01,2013-12-20 02:39:00,
2013-12-19 21:40:00,40.2,29.0,30.16,SSW,199,0.0,0.0,64,0.00,,,0.00,0.00,VWS V14.01,2013-12-20 02:40:00,
2013-12-19 21:41:00,40.2,29.0,30.16,SSW,199,0.0,0.0,64,0.00,,,0.00,0.00,VWS V14.01,2013-12-20 02:41:00,
2013-12-19 21:42:00,40.2,29.0,30.16,SSW,199,0.0,0.0,64,0.00,,,0.00,0.00,VWS V14.01,2013-12-20 02:42:00,
2013-12-19 21:43:00,40.2,29.0,30.16,SSW,199,0.0,0.0,64,0.00,,,0.00,0.00,VWS V14.01,2013-12-20 02:43:00,
2013-12-19 21:44:00,40.2,29.0,30.16,SSW,199,0.0,0.0,64,0.00,,,0.00,0.00,VWS V14.01,2013-12-20 02:44:00,
2013-12-19 21:45:00,40.2,29.0,30.16,SSW,199,0.0,0.0,64,0.00,,,0.00,0.00,VWS V14.01,2013-12-20 02:45:00,
2013-12-19 21:46:00,40.2,29.0,30.16,SSW,199,0.0,0.0,64,0.00,,,0.00,0.00,VWS V14.01,2013-12-20 02:46:00,
2013-12-19 21:47:00,40.2,29.0,30.16,SSW,199,0.0,0.0,64,0.00,,,0.00,0.00,VWS V14.01,2013-12-20 02:47:00,
2013-12-19 21:48:00,40.2,29.0,30.16,SSW,199,0.0,0.0,64,0.00,,,0.00,0.00,VWS V14.01,2013-12-20 02:48:00,
2013-12-19 21:49:00,40.2,29.0,30.16,SSW,199,0.0,0.0,64,0.00,,,0.00,0.00,VWS V14.01,2013-12-20 02:49:00,
2013-12-19 21:50:00,40.2,29.0,30.16,SSW,199,0.0,0.0,64,0.00,,,0.00,0.00,VWS V14.01,2013-12-20 02:50:00,
2013-12-19 21:51:00,40.1,28.9,30.16,SSW,199,0.0,0.0,64,0.00,,,0.00,0.00,VWS V14.01,2013-12-20 02:51:00,
2013-12-19 21:52:00,40.1,28.9,30.16,SSW,199,0.0,0.0,64,0.00,,,0.00,0.00,VWS V14.01,2013-12-20 02:52:00,
2013-12-19 21:53:00,40.1,28.9,30.16,SSW,199,0.0,0.0,64,0.00,,,0.00,0.00,VWS V14.01,2013-12-20 02:53:00,
2013-12-19 21:54:00,40.1,28.9,30.16,SSW,199,0.0,0.0,64,0.00,,,0.00,0.00,VWS V14.01,2013-12-20 02:54:00,
2013-12-19 21:55:00,40.1,28.9,30.16,SSW,199,0.0,0.0,64,0.00,,,0.00,0.00,VWS V14.01,2013-12-20 02:55:00,
2013-12-19 21:56:00,39.9,28.7,30.16,SSW,199,0.0,0.0,64,0.00,,,0.00,0.00,VWS V14.01,2013-12-20 02:56:00,
2013-12-19 21:57:00,39.9,28.7,30.16,SSW,199,0.0,0.0,64,0.00,,,0.00,0.00,VWS V14.01,2013-12-20 02:57:00,
2013-12-19 21:58:00,39.9,28.7,30.16,SSW,199,0.0,0.0,64,0.00,,,0.00,0.00,VWS V14.01,2013-12-20 02:58:00,
2013-12-19 21:59:00,39.9,28.7,30.16,SSW,199,0.0,0.0,64,0.00,,,0.00,0.00,VWS V14.01,2013-12-20 02:59:00,
2013-12-19 22:00:00,39.8,28.6,30.16,SSW,199,0.0,0.0,64,0.00,,,0.00,0.00,VWS V14.01,2013-12-20 03:00:00,
2013-12-19 22:01:00,39.8,29.0,30.16,SSW,199,0.0,0.0,65,0.00,,,0.00,0.00,VWS V14.01,2013-12-20 03:01:00,
2013-12-19 22:02:00,39.8,29.0,30.16,SSW,199,0.0,0.0,65,0.00,,,0.00,0.00,VWS V14.01,2013-12-20 03:02:00,
2013-12-19 22:03:00,39.8,29.4,30.16,SSW,199,0.0,0.0,66,0.00,,,0.00,0.00,VWS V14.01,2013-12-20 03:03:00,
2013-12-19 22:04:00,39.6,29.2,30.16,SSW,199,0.0,0.0,66,0.00,,,0.00,0.00,VWS V14.01,2013-12-20 03:04:00,
2013-12-19 22:05:00,39.6,29.2,30.16,SSW,199,0.0,0.0,66,0.00,,,0.00,0.00,VWS V14.01,2013-12-20 03:05:00,
2013-12-19 22:06:00,39.6,29.6,30.16,SSW,199,0.0,0.0,67,0.00,,,0.00,0.00,VWS V14.01,2013-12-20 03:06:00,
2013-12-19 22:07:00,39.6,29.6,30.16,SSW,199,0.0,0.0,67,0.00,,,0.00,0.00,VWS V14.01,2013-12-20 03:07:00,
2013-12-19 22:08:00,39.6,29.6,30.16,SSW,199,0.0,0.0,67,0.00,,,0.00,0.00,VWS V14.01,2013-12-20 03:08:00,
2013-12-19 22:09:00,39.6,29.9,30.16,SSW,199,0.0,0.0,68,0.00,,,0.00,0.00,VWS V14.01,2013-12-20 03:09:00,
2013-12-19 22:10:00,39.5,29.8,30.16,SSW,199,0.0,0.0,68,0.00,,,0.00,0.00,VWS V14.01,2013-12-20 03:10:00,
2013-12-19 22:11:00,39.5,29.8,30.16,SSW,199,0.0,0.0,68,0.00,,,0.00,0.00,VWS V14.01,2013-12-20 03:11:00,
2013-12-19 22:12:00,39.5,29.8,30.16,SSW,199,0.0,0.0,68,0.00,,,0.00,0.00,VWS V14.01,2013-12-20 03:12:00,
2013-12-19 22:13:00,39.5,30.2,30.16,SSW,199,0.0,0.0,69,0.00,,,0.00,0.00,VWS V14.01,2013-12-20 03:13:00,
2013-12-19 22:14:00,39.5,30.2,30.16,SSW,199,0.0,0.0,69,0.00,,,0.00,0.00,VWS V14.01,2013-12-20 03:14:00,
2013-12-19 22:15:00,39.5,30.5,30.15,SSW,199,0.0,0.0,70,0.00,,,0.00,0.00,VWS V14.01,2013-12-20 03:15:00,
2013-12-19 22:16:00,39.3,30.4,30.15,SSW,199,0.0,0.0,70,0.00,,,0.00,0.00,VWS V14.01,2013-12-20 03:16:00,
2013-12-19 22:17:00,39.3,30.4,30.15,SSW,199,0.0,0.0,70,0.00,,,0.00,0.00,VWS V14.01,2013-12-20 03:17:00,
2013-12-19 22:18:00,39.3,30.4,30.15,SSW,199,0.0,0.0,70,0.00,,,0.00,0.00,VWS V14.01,2013-12-20 03:18:00,
2013-12-19 22:19:00,39.2,30.2,30.15,SSW,199,0.0,0.0,70,0.00,,,0.00,0.00,VWS V14.01,2013-12-20 03:19:00,
2013-12-19 22:20:00,39.2,30.6,30.15,SSW,199,0.0,0.0,71,0.00,,,0.00,0.00,VWS V14.01,2013-12-20 03:20:00,
2013-12-19 22:21:00,39.2,30.6,30.15,SSW,199,0.0,0.0,71,0.00,,,0.00,0.00,VWS V14.01,2013-12-20 03:21:00,
2013-12-19 22:22:00,39.1,30.5,30.15,SSW,199,0.0,0.0,71,0.00,,,0.00,0.00,VWS V14.01,2013-12-20 03:22:00,
2013-12-19 22:23:00,39.1,30.5,30.15,SSW,199,0.0,0.0,71,0.00,,,0.00,0.00,VWS V14.01,2013-12-20 03:23:00,
2013-12-19 22:24:00,39.1,30.5,30.15,SSW,199,0.0,0.0,71,0.00,,,0.00,0.00,VWS V14.01,2013-12-20 03:24:00,
2013-12-19 22:25:00,38.9,30.3,30.15,SSW,199,0.0,0.0,71,0.00,,,0.00,0.00,VWS V14.01,2013-12-20 03:25:00,
2013-12-19 22:26:00,38.9,30.3,30.15,SSW,199,0.0,0.0,71,0.00,,,0.00,0.00,VWS V14.01,2013-12-20 03:26:00,
2013-12-19 22:27:00,38.8,30.2,30.15,SSW,199,0.0,0.0,71,0.00,,,0.00,0.00,VWS V14.01,2013-12-20 03:27:00,
2013-12-19 22:28:00,38.8,30.2,30.15,SSW,199,0.0,0.0,71,0.00,,,0.00,0.00,VWS V14.01,2013-12-20 03:28:00,
2013-12-19 22:29:00,38.8,30.2,30.15,SSW,199,0.0,0.0,71,0.00,,,0.00,0.00,VWS V14.01,2013-12-20 03:29:00,
2013-12-19 22:30:00,38.8,30.2,30.15,SSW,199,0.0,0.0,71,0.00,,,0.00,0.00,VWS V14.01,2013-12-20 03:30:00,
2013-12-19 22:31:00,38.6,30.0,30.15,SSW,199,0.0,0.0,71,0.00,,,0.00,0.00,VWS V14.01,2013-12-20 03:31:00,
2013-12-19 22:32:00,38.6,30.0,30.15,SSW,199,0.0,0.0,71,0.00,,,0.00,0.00,VWS V14.01,2013-12-20 03:32:00,
2013-12-19 22:33:00,38.6,30.0,30.15,SSW,199,0.0,0.0,71,0.00,,,0.00,0.00,VWS V14.01,2013-12-20 03:33:00,
2013-12-19 22:34:00,38.6,30.0,30.15,SSW,199,0.0,0.0,71,0.00,,,0.00,0.00,VWS V14.01,2013-12-20 03:34:00,
2013-12-19 22:35:00,38.5,29.9,30.15,SSW,199,0.0,0.0,71,0.00,,,0.00,0.00,VWS V14.01,2013-12-20 03:35:00,
2013-12-19 22:36:00,38.5,29.9,30.15,SSW,199,0.0,0.0,71,0.00,,,0.00,0.00,VWS V14.01,2013-12-20 03:36:00,
2013-12-19 22:37:00,38.5,29.9,30.15,SSW,199,0.0,0.0,71,0.00,,,0.00,0.00,VWS V14.01,2013-12-20 03:37:00,
2013-12-19 22:38:00,38.5,29.9,30.15,SSW,199,0.0,0.0,71,0.00,,,0.00,0.00,VWS V14.01,2013-12-20 03:38:00,
2013-12-19 22:39:00,38.5,29.9,30.15,SSW,199,0.0,0.0,71,0.00,,,0.00,0.00,VWS V14.01,2013-12-20 03:39:00,
2013-12-19 22:40:00,38.3,29.7,30.15,SSW,199,0.0,0.0,71,0.00,,,0.00,0.00,VWS V14.01,2013-12-20 03:40:00,
2013-12-19 22:41:00,38.3,29.7,30.15,SSW,199,0.0,0.0,71,0.00,,,0.00,0.00,VWS V14.01,2013-12-20 03:41:00,
2013-12-19 22:42:00,38.3,29.7,30.15,SSW,199,0.0,0.0,71,0.00,,,0.00,0.00,VWS V14.01,2013-12-20 03:42:00,
2013-12-19 22:43:00,38.3,29.7,30.15,SSW,199,0.0,0.0,71,0.00,,,0.00,0.00,VWS V14.01,2013-12-20 03:43:00,
2013-12-19 22:44:00,38.3,29.7,30.15,SSW,199,0.0,0.0,71,0.00,,,0.00,0.00,VWS V14.01,2013-12-20 03:44:00,
2013-12-19 22:45:00,38.3,29.4,30.15,SSW,199,0.0,0.0,70,0.00,,,0.00,0.00,VWS V14.01,2013-12-20 03:45:00,
2013-12-19 22:46:00,38.3,29.4,30.15,SSW,199,0.0,0.0,70,0.00,,,0.00,0.00,VWS V14.01,2013-12-20 03:46:00,
2013-12-19 22:47:00,38.2,29.6,30.15,SSW,199,0.0,0.0,71,0.00,,,0.00,0.00,VWS V14.01,2013-12-20 03:47:00,
2013-12-19 22:48:00,38.2,29.6,30.15,SSW,199,0.0,0.0,71,0.00,,,0.00,0.00,VWS V14.01,2013-12-20 03:48:00,
2013-12-19 22:49:00,38.2,29.6,30.15,SSW,199,0.0,0.0,71,0.00,,,0.00,0.00,VWS V14.01,2013-12-20 03:49:00,
2013-12-19 22:50:00,38.2,29.6,30.15,SSW,199,0.0,0.0,71,0.00,,,0.00,0.00,VWS V14.01,2013-12-20 03:50:00,
2013-12-19 22:51:00,38.2,29.6,30.15,SSW,199,0.0,0.0,71,0.00,,,0.00,0.00,VWS V14.01,2013-12-20 03:51:00,
2013-12-19 22:52:00,38.0,29.1,30.15,SSW,199,0.0,0.0,70,0.00,,,0.00,0.00,VWS V14.01,2013-12-20 03:52:00,
2013-12-19 22:53:00,38.0,29.1,30.15,SSW,199,0.0,0.0,70,0.00,,,0.00,0.00,VWS V14.01,2013-12-20 03:53:00,
2013-12-19 22:54:00,38.0,29.1,30.15,SSW,199,0.0,0.0,70,0.00,,,0.00,0.00,VWS V14.01,2013-12-20 03:54:00,
2013-12-19 22:55:00,38.0,29.1,30.15,SSW,199,0.0,0.0,70,0.00,,,0.00,0.00,VWS V14.01,2013-12-20 03:55:00,
2013-12-19 22:56:00,37.9,29.0,30.15,SSW,199,0.0,0.0,70,0.00,,,0.00,0.00,VWS V14.01,2013-12-20 03:56:00,
2013-12-19 22:57:00,37.9,29.0,30.15,SSW,199,0.0,0.0,70,0.00,,,0.00,0.00,VWS V14.01,2013-12-20 03:57:00,
2013-12-19 22:58:00,37.9,29.0,30.15,SSW,199,0.0,0.0,70,0.00,,,0.00,0.00,VWS V14.01,2013-12-20 03:58:00,
2013-12-19 22:59:00,37.9,29.0,30.15,SSW,199,0.0,0.0,70,0.00,,,0.00,0.00,VWS V14.01,2013-12-20 03:59:00,
2013-12-19 23:00:00,37.8,28.9,30.14,SSW,199,0.0,0.0,70,0.00,,,0.00,0.00,VWS V14.01,2013-12-20 04:00:00,
2013-12-19 23:01:00,37.8,28.9,30.14,SSW,199,0.0,0.0,70,0.00,,,0.00,0.00,VWS V14.01,2013-12-20 04:01:00,
2013-12-19 23:02:00,37.8,28.9,30.14,SSW,199,0.0,0.0,70,0.00,,,0.00,0.00,VWS V14.01,2013-12-20 04:02:00,
2013-12-19 23:03:00,37.8,28.9,30.14,SSW,199,0.0,0.0,70,0.00,,,0.00,0.00,VWS V14.01,2013-12-20 04:03:00,
2013-12-19 23:04:00,37.8,28.9,30.14,SSW,199,0.0,0.0,70,0.00,,,0.00,0.00,VWS V14.01,2013-12-20 04:04:00,
2013-12-19 23:05:00,37.6,28.7,30.14,SSW,199,0.0,0.0,70,0.00,,,0.00,0.00,VWS V14.01,2013-12-20 04:05:00,
2013-12-19 23:06:00,37.6,28.7,30.14,SSW,199,0.0,0.0,70,0.00,,,0.00,0.00,VWS V14.01,2013-12-20 04:06:00,
2013-12-19 23:07:00,37.6,28.7,30.14,SSW,199,0.0,0.0,70,0.00,,,0.00,0.00,VWS V14.01,2013-12-20 04:07:00,
2013-12-19 23:08:00,37.6,28.7,30.14,SSW,199,0.0,0.0,70,0.00,,,0.00,0.00,VWS V14.01,2013-12-20 04:08:00,
2013-12-19 23:09:00,37.5,28.6,30.14,SSW,199,0.0,0.0,70,0.00,,,0.00,0.00,VWS V14.01,2013-12-20 04:09:00,
2013-12-19 23:10:00,37.5,28.6,30.14,SSW,199,0.0,0.0,70,0.00,,,0.00,0.00,VWS V14.01,2013-12-20 04:10:00,
2013-12-19 23:11:00,37.5,28.6,30.14,SSW,199,0.0,0.0,70,0.00,,,0.00,0.00,VWS V14.01,2013-12-20 04:11:00,
2013-12-19 23:12:00,37.3,28.4,30.14,SSW,199,0.0,0.0,70,0.00,,,0.00,0.00,VWS V14.01,2013-12-20 04:12:00,
2013-12-19 23:13:00,37.3,28.4,30.14,SSW,199,0.0,0.0,70,0.00,,,0.00,0.00,VWS V14.01,2013-12-20 04:13:00,
2013-12-19 23:14:00,37.3,28.8,30.14,SSW,199,0.0,0.0,71,0.00,,,0.00,0.00,VWS V14.01,2013-12-20 04:14:00,
2013-12-19 23:15:00,37.3,28.8,30.14,SSW,199,0.0,0.0,71,0.00,,,0.00,0.00,VWS V14.01,2013-12-20 04:15:00,
2013-12-19 23:16:00,37.2,28.7,30.14,SSW,199,0.0,0.0,71,0.00,,,0.00,0.00,VWS V14.01,2013-12-20 04:16:00,
2013-12-19 23:17:00,37.2,28.7,30.14,SSW,199,0.0,0.0,71,0.00,,,0.00,0.00,VWS V14.01,2013-12-20 04:17:00,
2013-12-19 23:18:00,37.2,28.7,30.14,SSW,199,0.0,0.0,71,0.00,,,0.00,0.00,VWS V14.01,2013-12-20 04:18:00,
2013-12-19 23:19:00,37.2,28.7,30.14,SSW,199,0.0,0.0,71,0.00,,,0.00,0.00,VWS V14.01,2013-12-20 04:19:00,
2013-12-19 23:20:00,37.0,28.5,30.14,SSW,199,0.0,0.0,71,0.00,,,0.00,0.00,VWS V14.01,2013-12-20 04:20:00,
2013-12-19 23:21:00,37.0,28.5,30.14,SSW,199,0.0,0.0,71,0.00,,,0.00,0.00,VWS V14.01,2013-12-20 04:21:00,
2013-12-19 23:22:00,37.0,28.5,30.14,SSW,199,0.0,0.0,71,0.00,,,0.00,0.00,VWS V14.01,2013-12-20 04:22:00,
2013-12-19 23:23:00,37.0,28.8,30.14,SSW,199,0.0,0.0,72,0.00,,,0.00,0.00,VWS V14.01,2013-12-20 04:23:00,
2013-12-19 23:24:00,37.0,28.5,30.14,SSW,199,0.0,0.0,71,0.00,,,0.00,0.00,VWS V14.01,2013-12-20 04:24:00,
2013-12-19 23:25:00,36.9,28.4,30.14,SSW,199,0.0,0.0,71,0.00,,,0.00,0.00,VWS V14.01,2013-12-20 04:25:00,
2013-12-19 23:26:00,36.9,28.4,30.14,SSW,199,0.0,0.0,71,0.00,,,0.00,0.00,VWS V14.01,2013-12-20 04:26:00,
2013-12-19 23:27:00,36.9,28.7,30.14,SSW,199,0.0,0.0,72,0.00,,,0.00,0.00,VWS V14.01,2013-12-20 04:27:00,
2013-12-19 23:28:00,36.9,28.7,30.14,SSW,199,0.0,0.0,72,0.00,,,0.00,0.00,VWS V14.01,2013-12-20 04:28:00,
2013-12-19 23:29:00,36.9,28.7,30.14,SSW,199,0.0,0.0,72,0.00,,,0.00,0.00,VWS V14.01,2013-12-20 04:29:00,
2013-12-19 23:30:00,36.8,28.6,30.14,SSW,199,0.0,0.0,72,0.00,,,0.00,0.00,VWS V14.01,2013-12-20 04:30:00,
2013-12-19 23:31:00,36.8,28.6,30.14,SSW,199,0.0,0.0,72,0.00,,,0.00,0.00,VWS V14.01,2013-12-20 04:31:00,
2013-12-19 23:32:00,36.8,28.6,30.14,SSW,199,0.0,0.0,72,0.00,,,0.00,0.00,VWS V14.01,2013-12-20 04:32:00,
2013-12-19 23:33:00,36.8,28.6,30.14,SSW,199,0.0,0.0,72,0.00,,,0.00,0.00,VWS V14.01,2013-12-20 04:33:00,
2013-12-19 23:34:00,36.8,28.6,30.14,SSW,199,0.0,0.0,72,0.00,,,0.00,0.00,VWS V14.01,2013-12-20 04:34:00,
2013-12-19 23:35:00,36.8,28.6,30.14,SSW,199,0.0,0.0,72,0.00,,,0.00,0.00,VWS V14.01,2013-12-20 04:35:00,
2013-12-19 23:36:00,36.8,28.6,30.14,SSW,199,0.0,0.0,72,0.00,,,0.00,0.00,VWS V14.01,2013-12-20 04:36:00,
2013-12-19 23:37:00,36.6,28.4,30.14,SSW,199,0.0,0.0,72,0.00,,,0.00,0.00,VWS V14.01,2013-12-20 04:37:00,
2013-12-19 23:38:00,36.6,28.4,30.14,SSW,199,0.0,0.0,72,0.00,,,0.00,0.00,VWS V14.01,2013-12-20 04:38:00,
2013-12-19 23:39:00,36.6,28.4,30.14,SSW,199,0.0,0.0,72,0.00,,,0.00,0.00,VWS V14.01,2013-12-20 04:39:00,
2013-12-19 23:40:00,36.6,28.4,30.14,SSW,199,0.0,0.0,72,0.00,,,0.00,0.00,VWS V14.01,2013-12-20 04:40:00,
2013-12-19 23:41:00,36.6,28.4,30.14,SSW,199,0.0,0.0,72,0.00,,,0.00,0.00,VWS V14.01,2013-12-20 04:41:00,
2013-12-19 23:42:00,36.6,28.4,30.14,SSW,199,0.0,0.0,72,0.00,,,0.00,0.00,VWS V14.01,2013-12-20 04:42:00,
2013-12-19 23:43:00,36.6,28.4,30.14,SSW,199,0.0,0.0,72,0.00,,,0.00,0.00,VWS V14.01,2013-12-20 04:43:00,
2013-12-19 23:44:00,36.6,28.8,30.14,SSW,199,0.0,0.0,73,0.00,,,0.00,0.00,VWS V14.01,2013-12-20 04:44:00,
2013-12-19 23:45:00,36.6,28.8,30.13,SSW,199,0.0,0.0,73,0.00,,,0.00,0.00,VWS V14.01,2013-12-20 04:45:00,
2013-12-19 23:46:00,36.6,28.8,30.13,SSW,199,0.0,0.0,73,0.00,,,0.00,0.00,VWS V14.01,2013-12-20 04:46:00,
2013-12-19 23:47:00,36.6,28.8,30.13,SSW,199,0.0,0.0,73,0.00,,,0.00,0.00,VWS V14.01,2013-12-20 04:47:00,
2013-12-19 23:48:00,36.6,28.8,30.13,SSW,199,0.0,0.0,73,0.00,,,0.00,0.00,VWS V14.01,2013-12-20 04:48:00,
2013-12-19 23:49:00,36.6,28.8,30.13,SSW,199,1.0,1.0,73,0.00,,,0.00,0.00,VWS V14.01,2013-12-20 04:49:00,
2013-12-19 23:50:00,36.6,28.8,30.13,SSW,199,0.0,1.0,73,0.00,,,0.00,0.00,VWS V14.01,2013-12-20 04:50:00,
2013-12-19 23:51:00,36.6,29.1,30.13,SSW,199,0.0,0.0,74,0.00,,,0.00,0.00,VWS V14.01,2013-12-20 04:51:00,
2013-12-19 23:52:00,36.6,29.1,30.13,SSW,199,0.0,0.0,74,0.00,,,0.00,0.00,VWS V14.01,2013-12-20 04:52:00,
2013-12-19 23:53:00,36.6,29.1,30.13,SSW,199,0.0,0.0,74,0.00,,,0.00,0.00,VWS V14.01,2013-12-20 04:53:00,
2013-12-19 23:54:00,36.6,29.1,30.13,SSW,199,0.0,0.0,74,0.00,,,0.00,0.00,VWS V14.01,2013-12-20 04:54:00,
2013-12-19 23:55:00,36.8,29.0,30.13,SSW,199,0.0,0.0,73,0.00,,,0.00,0.00,VWS V14.01,2013-12-20 04:55:00,
2013-12-19 23:56:00,36.8,29.3,30.13,SSW,199,0.0,0.0,74,0.00,,,0.00,0.00,VWS V14.01,2013-12-20 04:56:00,
2013-12-19 23:57:00,36.8,29.0,30.13,SSW,199,0.0,0.0,73,0.00,,,0.00,0.00,VWS V14.01,2013-12-20 04:57:00,
2013-12-19 23:58:00,36.8,29.0,30.13,SSW,199,0.0,0.0,73,0.00,,,0.00,0.00,VWS V14.01,2013-12-20 04:58:00,
2013-12-19 23:59:00,36.8,29.0,30.13,SSW,199,0.0,0.0,73,0.00,,,0.00,0.00,VWS V14.01,2013-12-20 04:59:00,